MYDAX CHILLER For Sector 8 Monochromators  S/N 120-0453             

Key: (Temperatures in Centigrade) 
A) System is ON or OFF
B) Actual Tank Temperature as sensed by the Output RTD                   
C) Set point Temperature 
D) Calculated temperature of the refrigerant line at the suction pressure transducer
E) Pressure in PSIg of the refrigerant line at the suction pressure transducer
F & G) Temperature in the refrigerant line at the Superheat and Condenser RTDs
H) Temperature in the refrigerant line at the Discharge RTD (2-stage design only)
I) Temperature in the refrigerant line at the Subcooler RTD (inactive)
J) Valve drives of evaporator 

----------- DATE ----------: A    B     C     D     E    F    G    H   I J

 last update: Sat Jun 23 12:21:21 PDT 2018
Sat Jun 23 12:21:10 PDT 2018 ON: 19.99 +20.0 19.61 - 2.6 34.1 00 14 462E 0919 Alarm State:  0
Sat Jun 23 12:20:09 PDT 2018 ON: 20.00 +20.0 19.66 - 3.4 33.9 02 14 470A 092C Alarm State:  0
Sat Jun 23 12:19:07 PDT 2018 ON: 20.02 +20.0 19.68 - 3.9 33.6 00 14 4705 0924 Alarm State:  0
Sat Jun 23 12:18:06 PDT 2018 ON: 20.01 +20.0 19.70 - 4.5 33.0 0D 13 4618 090A Alarm State:  0
Sat Jun 23 12:17:04 PDT 2018 ON: 20.00 +20.0 19.63 - 3.1 33.7 02 14 4623 0923 Alarm State:  0
Sat Jun 23 12:16:03 PDT 2018 ON: 20.00 +20.0 19.68 - 4.2 33.1 00 14 4605 0A03 Alarm State:  0
Sat Jun 23 12:15:01 PDT 2018 ON: 20.01 +20.0 19.62 - 2.9 33.7 00 14 470F 0908 Alarm State:  0
Sat Jun 23 12:14:00 PDT 2018 ON: 19.97 +20.0 19.60 - 2.3 34.1 00 14 4721 0914 Alarm State:  0
Sat Jun 23 12:12:58 PDT 2018 ON: 20.00 +20.0 19.65 - 3.2 33.9 07 14 470A 0918 Alarm State:  0
Sat Jun 23 12:11:57 PDT 2018 ON: 20.00 +20.0 19.67 - 4.1 33.3 05 14 4611 092B Alarm State:  0
Sat Jun 23 12:10:55 PDT 2018 ON: 20.02 +20.0 19.72 - 4.8 32.7 0D 12 4610 091B Alarm State:  0
Sat Jun 23 12:09:54 PDT 2018 ON: 20.01 +20.0 19.63 - 2.8 33.8 00 14 4628 0926 Alarm State:  0
Sat Jun 23 12:08:52 PDT 2018 ON: 19.99 +20.0 19.64 - 3.1 34.0 0A 14 461B 0924 Alarm State:  0
Sat Jun 23 12:07:51 PDT 2018 ON: 20.01 +20.0 19.70 - 4.3 33.1 0D 13 4601 0923 Alarm State:  0
Sat Jun 23 12:06:49 PDT 2018 ON: 20.01 +20.0 19.66 - 3.7 33.4 00 14 461C 0926 Alarm State:  0
Sat Jun 23 12:05:48 PDT 2018 ON: 19.99 +20.0 19.65 - 3.7 33.1 00 14 461E 0A0D Alarm State:  0
Sat Jun 23 12:04:46 PDT 2018 ON: 20.04 +20.0 19.69 - 4.0 33.2 08 14 470E 0928 Alarm State:  0
Sat Jun 23 12:03:45 PDT 2018 ON: 19.97 +20.0 19.64 - 3.5 33.3 00 14 4714 0A11 Alarm State:  0
Sat Jun 23 12:02:43 PDT 2018 ON: 20.02 +20.0 19.70 - 4.3 33.1 08 13 472B 090D Alarm State:  0
Sat Jun 23 12:01:42 PDT 2018 ON: 20.02 +20.0 19.70 - 4.6 32.9 0D 13 462A 0922 Alarm State:  0
Sat Jun 23 12:00:40 PDT 2018 ON: 20.01 +20.0 19.65 - 4.0 33.2 00 14 4623 0920 Alarm State:  0
Sat Jun 23 11:59:39 PDT 2018 ON: 19.98 +20.0 19.64 - 3.7 33.2 00 14 461F 0A0B Alarm State:  0
Sat Jun 23 11:58:37 PDT 2018 ON: 20.02 +20.0 19.67 - 4.0 33.3 00 14 470D 0928 Alarm State:  0
Sat Jun 23 11:57:36 PDT 2018 ON: 19.98 +20.0 19.62 - 2.9 34.0 05 14 462E 0925 Alarm State:  0
Sat Jun 23 11:56:34 PDT 2018 ON: 19.98 +20.0 19.68 - 3.9 33.6 05 14 4621 0927 Alarm State:  0
Sat Jun 23 11:55:33 PDT 2018 ON: 20.03 +20.0 19.71 - 4.5 33.0 0D 13 4625 091C Alarm State:  0
Sat Jun 23 11:54:31 PDT 2018 ON: 20.03 +20.0 19.64 - 3.9 33.3 02 14 4701 090A Alarm State:  0
Sat Jun 23 11:53:30 PDT 2018 ON: 19.98 +20.0 19.61 - 2.6 34.1 05 14 4709 0927 Alarm State:  0
Sat Jun 23 11:52:28 PDT 2018 ON: 20.00 +20.0 19.70 - 4.3 32.9 0D 13 462D 091D Alarm State:  0
Sat Jun 23 11:51:27 PDT 2018 ON: 20.03 +20.0 19.68 - 3.3 33.7 00 14 471A 091F Alarm State:  0
Sat Jun 23 11:50:25 PDT 2018 ON: 20.02 +20.0 19.69 - 3.6 33.8 05 14 461C 090A Alarm State:  0
Sat Jun 23 11:49:24 PDT 2018 ON: 20.00 +20.0 19.71 - 4.9 32.9 0D 13 452B 0915 Alarm State:  0
Sat Jun 23 11:48:22 PDT 2018 ON: 19.99 +20.0 19.59 - 2.6 33.9 00 14 460F 0920 Alarm State:  0
Sat Jun 23 11:47:21 PDT 2018 ON: 20.01 +20.0 19.69 - 4.1 33.1 07 14 4526 092F Alarm State:  0
Sat Jun 23 11:46:19 PDT 2018 ON: 20.03 +20.0 19.67 - 3.9 33.2 00 14 461A 0902 Alarm State:  0
Sat Jun 23 11:45:18 PDT 2018 ON: 19.98 +20.0 19.64 - 3.2 34.0 02 14 4616 0918 Alarm State:  0
Sat Jun 23 11:44:16 PDT 2018 ON: 19.99 +20.0 19.70 - 4.3 33.0 0D 14 461F 0A02 Alarm State:  0
Sat Jun 23 11:43:15 PDT 2018 ON: 20.03 +20.0 19.64 - 3.5 33.4 00 14 4716 0924 Alarm State:  0
Sat Jun 23 11:42:13 PDT 2018 ON: 19.99 +20.0 19.64 - 3.2 34.0 05 14 4719 0916 Alarm State:  0
Sat Jun 23 11:41:12 PDT 2018 ON: 20.00 +20.0 19.69 - 4.1 33.4 0D 14 471B 0928 Alarm State:  0
Sat Jun 23 11:40:10 PDT 2018 ON: 20.01 +20.0 19.70 - 4.0 33.4 0D 13 4712 0901 Alarm State:  0
Sat Jun 23 11:39:09 PDT 2018 ON: 20.04 +20.0 19.72 - 4.9 32.8 0A 12 4621 090C Alarm State:  0
Sat Jun 23 11:38:08 PDT 2018 ON: 20.00 +20.0 19.62 - 2.6 34.1 07 14 462C 091F Alarm State:  0
Sat Jun 23 11:37:06 PDT 2018 ON: 20.02 +20.0 19.68 - 4.4 33.0 00 14 4613 0921 Alarm State:  0
Sat Jun 23 11:36:05 PDT 2018 ON: 20.01 +20.0 19.65 - 3.5 33.4 00 14 4631 0921 Alarm State:  0
Sat Jun 23 11:35:03 PDT 2018 ON: 19.98 +20.0 19.64 - 3.4 33.7 0A 14 462A 0A0B Alarm State:  0
Sat Jun 23 11:34:02 PDT 2018 ON: 20.01 +20.0 19.69 - 4.1 33.4 0D 14 470D 0912 Alarm State:  0
Sat Jun 23 11:33:00 PDT 2018 ON: 20.03 +20.0 19.70 - 4.6 32.8 0D 13 4704 090A Alarm State:  0
Sat Jun 23 11:31:59 PDT 2018 ON: 20.01 +20.0 19.63 - 3.6 33.5 00 14 470A 0926 Alarm State:  0
Sat Jun 23 11:30:57 PDT 2018 ON: 19.99 +20.0 19.63 - 2.8 34.1 05 14 470B 0918 Alarm State:  0
Sat Jun 23 11:29:56 PDT 2018 ON: 20.01 +20.0 19.68 - 3.4 33.9 05 14 4717 0915 Alarm State:  0
Sat Jun 23 11:28:54 PDT 2018 ON: 20.01 +20.0 19.69 - 3.7 33.7 0A 14 4712 0917 Alarm State:  0
Sat Jun 23 11:27:53 PDT 2018 ON: 20.01 +20.0 19.70 - 4.6 33.0 0D 13 462D 0912 Alarm State:  0
Sat Jun 23 11:26:51 PDT 2018 ON: 20.00 +20.0 19.63 - 3.3 33.5 05 14 471B 090B Alarm State:  0
Sat Jun 23 11:25:50 PDT 2018 ON: 19.99 +20.0 19.65 - 3.4 33.7 05 14 4723 0925 Alarm State:  0
Sat Jun 23 11:24:48 PDT 2018 ON: 20.03 +20.0 19.70 - 4.1 33.3 0D 13 4732 0905 Alarm State:  0
Sat Jun 23 11:23:47 PDT 2018 ON: 20.02 +20.0 19.70 - 4.5 32.7 08 13 472A 0904 Alarm State:  0
Sat Jun 23 11:22:45 PDT 2018 ON: 20.01 +20.0 19.67 - 4.0 33.2 00 14 4725 0900 Alarm State:  0
Sat Jun 23 11:21:44 PDT 2018 ON: 19.99 +20.0 19.61 - 2.2 34.2 05 14 4731 090E Alarm State:  0
Sat Jun 23 11:20:42 PDT 2018 ON: 20.01 +20.0 19.65 - 3.2 33.7 00 14 470E 0912 Alarm State:  0
Sat Jun 23 11:19:41 PDT 2018 ON: 19.99 +20.0 19.66 - 4.0 33.3 00 14 461F 091D Alarm State:  0
Sat Jun 23 11:18:39 PDT 2018 ON: 20.02 +20.0 19.63 - 3.3 33.5 00 14 471D 090A Alarm State:  0
Sat Jun 23 11:17:38 PDT 2018 ON: 19.98 +20.0 19.64 - 3.3 33.9 02 14 4711 092F Alarm State:  0
Sat Jun 23 11:16:36 PDT 2018 ON: 20.00 +20.0 19.69 - 3.9 33.5 0D 14 471C 0913 Alarm State:  0
Sat Jun 23 11:15:35 PDT 2018 ON: 20.03 +20.0 19.73 - 4.7 33.0 0D 12 4708 0916 Alarm State:  0
Sat Jun 23 11:14:33 PDT 2018 ON: 20.02 +20.0 19.64 - 2.7 34.0 02 14 470D 0908 Alarm State:  0
Sat Jun 23 11:13:32 PDT 2018 ON: 19.99 +20.0 19.67 - 3.7 33.7 00 14 461E 0911 Alarm State:  0
Sat Jun 23 11:12:30 PDT 2018 ON: 19.99 +20.0 19.70 - 4.1 32.9 0A 14 4623 0A11 Alarm State:  0
Sat Jun 23 11:11:29 PDT 2018 ON: 20.02 +20.0 19.67 - 3.8 33.3 02 14 4714 090A Alarm State:  0
Sat Jun 23 11:10:27 PDT 2018 ON: 20.01 +20.0 19.65 - 3.6 33.6 00 14 4713 0908 Alarm State:  0
Sat Jun 23 11:09:26 PDT 2018 ON: 19.99 +20.0 19.61 - 2.6 33.9 02 14 470D 0928 Alarm State:  0
Sat Jun 23 11:08:24 PDT 2018 ON: 19.99 +20.0 19.67 - 4.3 33.1 05 14 461D 0A07 Alarm State:  0
Sat Jun 23 11:07:23 PDT 2018 ON: 19.98 +20.0 19.60 - 2.1 34.0 07 14 4728 0907 Alarm State:  0
Sat Jun 23 11:06:21 PDT 2018 ON: 19.99 +20.0 19.67 - 3.8 33.5 05 14 4715 0911 Alarm State:  0
Sat Jun 23 11:05:20 PDT 2018 ON: 20.03 +20.0 19.71 - 4.9 32.7 0A 13 471B 091D Alarm State:  0
Sat Jun 23 11:04:18 PDT 2018 ON: 19.99 +20.0 19.57 - 2.0 34.1 01 14 4811 090C Alarm State:  0
Sat Jun 23 11:03:17 PDT 2018 ON: 20.00 +20.0 19.66 - 3.6 33.6 00 14 472A 090D Alarm State:  0
Sat Jun 23 11:02:15 PDT 2018 ON: 20.02 +20.0 19.69 - 3.6 33.8 0D 14 4717 0915 Alarm State:  0
Sat Jun 23 11:01:14 PDT 2018 ON: 20.01 +20.0 19.71 - 4.4 32.8 0D 13 4612 0A01 Alarm State:  0
Sat Jun 23 11:00:12 PDT 2018 ON: 20.01 +20.0 19.61 - 2.9 33.6 00 14 470E 0924 Alarm State:  0
Sat Jun 23 10:59:11 PDT 2018 ON: 20.00 +20.0 19.65 - 3.2 34.0 02 14 4702 0921 Alarm State:  0
Sat Jun 23 10:58:09 PDT 2018 ON: 20.02 +20.0 19.70 - 4.7 32.9 0A 13 4626 0917 Alarm State:  0
Sat Jun 23 10:57:08 PDT 2018 ON: 20.00 +20.0 19.62 - 3.1 33.7 02 14 470B 0901 Alarm State:  0
Sat Jun 23 10:56:06 PDT 2018 ON: 19.97 +20.0 19.65 - 3.6 33.6 0A 14 4700 0922 Alarm State:  0
Sat Jun 23 10:55:05 PDT 2018 ON: 20.01 +20.0 19.73 - 4.6 33.3 0D 12 4709 091F Alarm State:  0
Sat Jun 23 10:54:03 PDT 2018 ON: 20.00 +20.0 19.68 - 4.1 32.9 07 14 4632 0926 Alarm State:  0
Sat Jun 23 10:53:02 PDT 2018 ON: 20.03 +20.0 19.67 - 3.7 33.3 05 14 472C 0909 Alarm State:  0
Sat Jun 23 10:52:00 PDT 2018 ON: 20.02 +20.0 19.69 - 4.2 33.2 08 14 4704 091C Alarm State:  0
Sat Jun 23 10:50:59 PDT 2018 ON: 20.02 +20.0 19.65 - 4.4 33.0 00 14 4616 0903 Alarm State:  0
Sat Jun 23 10:49:58 PDT 2018 ON: 19.98 +20.0 19.65 - 3.5 33.8 0A 14 460A 0927 Alarm State:  0
Sat Jun 23 10:48:56 PDT 2018 ON: 20.02 +20.0 19.72 - 4.8 32.9 0D 13 4607 0A0F Alarm State:  0
Sat Jun 23 10:47:55 PDT 2018 ON: 19.99 +20.0 19.59 - 2.2 34.0 00 14 4625 0A07 Alarm State:  0
Sat Jun 23 10:46:53 PDT 2018 ON: 19.99 +20.0 19.67 - 4.3 32.9 00 14 461C 0A26 Alarm State:  0
Sat Jun 23 10:45:52 PDT 2018 ON: 19.99 +20.0 19.61 - 2.7 33.7 00 14 4727 091E Alarm State:  0
Sat Jun 23 10:44:50 PDT 2018 ON: 19.97 +20.0 19.62 - 3.3 33.5 00 14 4811 092E Alarm State:  0
Sat Jun 23 10:43:49 PDT 2018 ON: 20.04 +20.0 19.69 - 4.2 33.2 0D 14 4821 0926 Alarm State:  0
Sat Jun 23 10:42:47 PDT 2018 ON: 20.03 +20.0 19.68 - 3.8 33.4 02 14 472F 090D Alarm State:  0
Sat Jun 23 10:41:46 PDT 2018 ON: 20.02 +20.0 19.68 - 4.8 32.5 00 14 4626 0922 Alarm State:  0
Sat Jun 23 10:40:44 PDT 2018 ON: 19.98 +20.0 19.65 - 3.1 34.0 05 14 462B 0910 Alarm State:  0
Sat Jun 23 10:39:43 PDT 2018 ON: 20.02 +20.0 19.71 - 4.8 32.7 0D 13 4625 0A05 Alarm State:  0
Sat Jun 23 10:38:41 PDT 2018 ON: 19.99 +20.0 19.61 - 2.4 34.0 02 14 4717 0924 Alarm State:  0
Sat Jun 23 10:37:40 PDT 2018 ON: 20.01 +20.0 19.64 - 3.1 33.8 02 14 4632 090C Alarm State:  0
Sat Jun 23 10:36:38 PDT 2018 ON: 20.00 +20.0 19.66 - 3.9 33.1 07 14 461F 0A0C Alarm State:  0
Sat Jun 23 10:35:37 PDT 2018 ON: 20.01 +20.0 19.67 - 3.9 33.3 00 14 4716 0924 Alarm State:  0
Sat Jun 23 10:34:35 PDT 2018 ON: 20.01 +20.0 19.68 - 4.4 32.8 00 14 4626 090B Alarm State:  0
Sat Jun 23 10:33:34 PDT 2018 ON: 20.00 +20.0 19.64 - 2.7 33.8 00 14 4711 0905 Alarm State:  0
Sat Jun 23 10:32:32 PDT 2018 ON: 20.00 +20.0 19.62 - 2.9 33.8 02 14 4718 091C Alarm State:  0
Sat Jun 23 10:31:31 PDT 2018 ON: 20.00 +20.0 19.63 - 2.9 34.0 00 14 4710 091F Alarm State:  0
Sat Jun 23 10:30:29 PDT 2018 ON: 20.01 +20.0 19.68 - 4.4 33.2 05 14 4622 0929 Alarm State:  0
Sat Jun 23 10:29:28 PDT 2018 ON: 19.98 +20.0 19.60 - 2.4 33.9 00 14 4725 0912 Alarm State:  0
Sat Jun 23 10:28:26 PDT 2018 ON: 19.99 +20.0 19.66 - 3.5 33.6 05 14 4724 0A0C Alarm State:  0
Sat Jun 23 10:27:25 PDT 2018 ON: 20.01 +20.0 19.70 - 4.1 33.3 0D 13 4726 091B Alarm State:  0
Sat Jun 23 10:26:23 PDT 2018 ON: 20.01 +20.0 19.68 - 4.0 33.3 07 14 4719 0921 Alarm State:  0
Sat Jun 23 10:25:22 PDT 2018 ON: 20.03 +20.0 19.66 - 4.1 33.2 00 14 4717 0926 Alarm State:  0
Sat Jun 23 10:24:20 PDT 2018 ON: 19.99 +20.0 19.67 - 3.6 33.7 05 14 4631 092E Alarm State:  0
Sat Jun 23 10:23:19 PDT 2018 ON: 20.02 +20.0 19.74 - 5.1 32.5 0A 11 4631 091B Alarm State:  0
Sat Jun 23 10:22:17 PDT 2018 ON: 19.98 +20.0 19.64 - 2.8 34.1 02 14 4713 0927 Alarm State:  0
Sat Jun 23 10:21:16 PDT 2018 ON: 20.02 +20.0 19.67 - 4.2 33.2 02 14 4709 0918 Alarm State:  0
Sat Jun 23 10:20:14 PDT 2018 ON: 20.02 +20.0 19.61 - 2.4 34.0 00 14 4712 090A Alarm State:  0
Sat Jun 23 10:19:13 PDT 2018 ON: 19.99 +20.0 19.69 - 3.8 33.6 00 14 461D 0919 Alarm State:  0
Sat Jun 23 10:18:11 PDT 2018 ON: 20.01 +20.0 19.72 - 4.9 32.8 0D 12 4614 0915 Alarm State:  0
Sat Jun 23 10:17:10 PDT 2018 ON: 19.98 +20.0 19.62 - 2.6 33.9 00 14 4623 0922 Alarm State:  0
Sat Jun 23 10:16:08 PDT 2018 ON: 20.00 +20.0 19.66 - 3.9 33.2 07 14 4613 0930 Alarm State:  0
Sat Jun 23 10:15:07 PDT 2018 ON: 20.03 +20.0 19.70 - 4.7 32.6 0D 13 462E 0921 Alarm State:  0
Sat Jun 23 10:14:05 PDT 2018 ON: 20.00 +20.0 19.60 - 2.5 33.9 00 14 4717 0920 Alarm State:  0
Sat Jun 23 10:13:04 PDT 2018 ON: 20.00 +20.0 19.64 - 2.7 34.0 07 14 4720 0916 Alarm State:  0
Sat Jun 23 10:12:02 PDT 2018 ON: 19.99 +20.0 19.67 - 3.8 33.4 05 14 4716 0915 Alarm State:  0
Sat Jun 23 10:11:01 PDT 2018 ON: 20.01 +20.0 19.68 - 4.2 32.9 00 14 472F 0918 Alarm State:  0
Sat Jun 23 10:09:59 PDT 2018 ON: 20.01 +20.0 19.62 - 3.0 33.7 02 14 4731 0928 Alarm State:  0
Sat Jun 23 10:08:58 PDT 2018 ON: 20.00 +20.0 19.63 - 2.6 34.0 07 14 4712 0907 Alarm State:  0
Sat Jun 23 10:07:56 PDT 2018 ON: 20.02 +20.0 19.70 - 4.1 33.3 0D 13 461D 091A Alarm State:  0
Sat Jun 23 10:06:55 PDT 2018 ON: 20.02 +20.0 19.64 - 3.7 33.3 00 14 4703 0A00 Alarm State:  0
Sat Jun 23 10:05:53 PDT 2018 ON: 19.98 +20.0 19.66 - 3.5 33.3 07 14 4632 0A14 Alarm State:  0
Sat Jun 23 10:04:52 PDT 2018 ON: 20.02 +20.0 19.65 - 3.4 33.4 00 14 472E 0923 Alarm State:  0
Sat Jun 23 10:03:50 PDT 2018 ON: 20.01 +20.0 19.67 - 3.5 33.6 02 14 470E 090B Alarm State:  0
Sat Jun 23 10:02:49 PDT 2018 ON: 20.01 +20.0 19.66 - 4.0 33.2 02 14 4628 091B Alarm State:  0
Sat Jun 23 10:01:48 PDT 2018 ON: 20.02 +20.0 19.63 - 3.0 33.7 00 14 4703 0908 Alarm State:  0
Sat Jun 23 10:00:46 PDT 2018 ON: 19.99 +20.0 19.64 - 2.9 34.1 05 14 4706 0928 Alarm State:  0
Sat Jun 23 09:59:45 PDT 2018 ON: 20.02 +20.0 19.69 - 4.4 33.1 00 14 4629 091B Alarm State:  0
Sat Jun 23 09:58:43 PDT 2018 ON: 20.02 +20.0 19.68 - 4.6 32.7 00 14 4626 0919 Alarm State:  0
Sat Jun 23 09:57:42 PDT 2018 ON: 19.98 +20.0 19.62 - 2.6 34.1 0A 14 4705 092C Alarm State:  0
Sat Jun 23 09:56:40 PDT 2018 ON: 20.00 +20.0 19.70 - 4.2 33.1 0A 13 4625 0922 Alarm State:  0
Sat Jun 23 09:55:39 PDT 2018 ON: 20.02 +20.0 19.63 - 3.3 33.6 00 14 4710 0908 Alarm State:  0
Sat Jun 23 09:54:37 PDT 2018 ON: 20.00 +20.0 19.65 - 3.1 34.0 0A 14 462A 090C Alarm State:  0
Sat Jun 23 09:53:36 PDT 2018 ON: 20.01 +20.0 19.70 - 4.4 33.1 08 13 4612 090F Alarm State:  0
Sat Jun 23 09:52:34 PDT 2018 ON: 20.02 +20.0 19.63 - 3.0 33.7 02 14 4706 090E Alarm State:  0
Sat Jun 23 09:51:33 PDT 2018 ON: 19.97 +20.0 19.64 - 3.3 33.8 05 14 4708 0A01 Alarm State:  0
Sat Jun 23 09:50:31 PDT 2018 ON: 20.00 +20.0 19.69 - 4.1 33.4 0D 14 471D 090B Alarm State:  0
Sat Jun 23 09:49:30 PDT 2018 ON: 20.00 +20.0 19.69 - 4.0 32.9 0D 14 4715 0916 Alarm State:  0
Sat Jun 23 09:48:28 PDT 2018 ON: 20.03 +20.0 19.68 - 4.1 33.1 00 14 4724 091B Alarm State:  0
Sat Jun 23 09:47:27 PDT 2018 ON: 20.03 +20.0 19.69 - 4.2 33.0 00 14 462F 0907 Alarm State:  0
Sat Jun 23 09:46:25 PDT 2018 ON: 20.01 +20.0 19.62 - 3.0 33.8 02 14 470D 0918 Alarm State:  0
Sat Jun 23 09:45:24 PDT 2018 ON: 20.00 +20.0 19.62 - 2.8 34.0 02 14 462E 091F Alarm State:  0
Sat Jun 23 09:44:22 PDT 2018 ON: 20.01 +20.0 19.70 - 3.9 33.4 0A 13 4617 0904 Alarm State:  0
Sat Jun 23 09:43:21 PDT 2018 ON: 20.02 +20.0 19.71 - 4.8 32.6 0D 13 460F 091A Alarm State:  0
Sat Jun 23 09:42:19 PDT 2018 ON: 19.96 +20.0 19.59 - 2.4 34.2 01 14 462E 0919 Alarm State:  0
Sat Jun 23 09:41:18 PDT 2018 ON: 20.00 +20.0 19.66 - 3.3 33.9 0A 14 4701 0906 Alarm State:  0
Sat Jun 23 09:40:16 PDT 2018 ON: 20.00 +20.0 19.68 - 4.4 32.9 05 14 4615 0912 Alarm State:  0
Sat Jun 23 09:39:15 PDT 2018 ON: 20.03 +20.0 19.67 - 4.0 33.2 00 14 4704 0912 Alarm State:  0
Sat Jun 23 09:38:13 PDT 2018 ON: 20.01 +20.0 19.62 - 2.4 34.0 05 14 470F 0925 Alarm State:  0
Sat Jun 23 09:37:12 PDT 2018 ON: 19.98 +20.0 19.66 - 4.0 33.1 00 14 4624 0A07 Alarm State:  0
Sat Jun 23 09:36:10 PDT 2018 ON: 20.01 +20.0 19.65 - 4.0 33.2 00 14 4710 0907 Alarm State:  0
Sat Jun 23 09:35:09 PDT 2018 ON: 19.98 +20.0 19.64 - 3.0 34.0 02 14 4632 0905 Alarm State:  0
Sat Jun 23 09:34:07 PDT 2018 ON: 20.00 +20.0 19.69 - 4.4 33.1 05 14 462A 0927 Alarm State:  0
Sat Jun 23 09:33:06 PDT 2018 ON: 19.98 +20.0 19.59 - 2.2 34.0 00 14 472E 0904 Alarm State:  0
Sat Jun 23 09:32:04 PDT 2018 ON: 20.00 +20.0 19.66 - 3.4 33.9 0A 14 4714 090B Alarm State:  0
Sat Jun 23 09:31:03 PDT 2018 ON: 20.01 +20.0 19.69 - 4.0 33.6 05 14 4632 0911 Alarm State:  0
Sat Jun 23 09:30:01 PDT 2018 ON: 20.01 +20.0 19.69 - 4.5 32.8 00 14 461A 0920 Alarm State:  0
Sat Jun 23 09:29:00 PDT 2018 ON: 20.01 +20.0 19.60 - 2.9 33.6 00 14 4714 0920 Alarm State:  0
Sat Jun 23 09:27:58 PDT 2018 ON: 19.97 +20.0 19.65 - 3.9 33.2 07 14 4700 0A1D Alarm State:  0
Sat Jun 23 09:26:57 PDT 2018 ON: 20.01 +20.0 19.66 - 3.8 33.3 00 14 472F 0907 Alarm State:  0
Sat Jun 23 09:25:55 PDT 2018 ON: 19.99 +20.0 19.61 - 2.7 34.0 02 14 4723 0904 Alarm State:  0
Sat Jun 23 09:24:54 PDT 2018 ON: 20.00 +20.0 19.64 - 2.9 33.9 02 14 4714 090C Alarm State:  0
Sat Jun 23 09:23:52 PDT 2018 ON: 20.01 +20.0 19.65 - 3.9 33.3 00 14 462F 0919 Alarm State:  0
Sat Jun 23 09:22:51 PDT 2018 ON: 20.03 +20.0 19.68 - 4.5 32.8 00 14 470D 0922 Alarm State:  0
Sat Jun 23 09:21:49 PDT 2018 ON: 19.97 +20.0 19.58 - 2.4 34.1 00 14 4719 0917 Alarm State:  0
Sat Jun 23 09:20:48 PDT 2018 ON: 20.00 +20.0 19.67 - 3.4 33.9 05 14 4706 0919 Alarm State:  0
Sat Jun 23 09:19:46 PDT 2018 ON: 19.99 +20.0 19.67 - 3.8 33.4 05 14 462F 091A Alarm State:  0
Sat Jun 23 09:18:45 PDT 2018 ON: 20.01 +20.0 19.69 - 4.2 33.0 0D 14 4709 0902 Alarm State:  0
Sat Jun 23 09:17:43 PDT 2018 ON: 20.03 +20.0 19.65 - 3.5 33.5 00 14 4711 091E Alarm State:  0
Sat Jun 23 09:16:42 PDT 2018 ON: 20.01 +20.0 19.66 - 3.2 33.8 0A 14 4625 0905 Alarm State:  0
Sat Jun 23 09:15:40 PDT 2018 ON: 19.98 +20.0 19.66 - 3.8 33.3 00 14 4617 0A00 Alarm State:  0
Sat Jun 23 09:14:39 PDT 2018 ON: 20.01 +20.0 19.62 - 3.6 33.4 00 14 4717 0913 Alarm State:  0
Sat Jun 23 09:13:38 PDT 2018 ON: 19.97 +20.0 19.62 - 2.9 34.1 07 14 470F 0930 Alarm State:  0
Sat Jun 23 09:12:36 PDT 2018 ON: 20.00 +20.0 19.69 - 4.3 33.3 0D 14 470A 091E Alarm State:  0
Sat Jun 23 09:11:35 PDT 2018 ON: 20.01 +20.0 19.62 - 2.5 33.9 07 14 4726 091E Alarm State:  0
Sat Jun 23 09:10:33 PDT 2018 ON: 20.00 +20.0 19.69 - 4.0 33.3 07 14 462C 0905 Alarm State:  0
Sat Jun 23 09:09:32 PDT 2018 ON: 20.01 +20.0 19.68 - 4.0 33.2 00 14 4711 0913 Alarm State:  0
Sat Jun 23 09:08:30 PDT 2018 ON: 20.01 +20.0 19.63 - 2.6 33.9 00 14 471C 0926 Alarm State:  0
Sat Jun 23 09:07:29 PDT 2018 ON: 20.01 +20.0 19.63 - 3.1 33.7 00 14 4700 090A Alarm State:  0
Sat Jun 23 09:06:27 PDT 2018 ON: 19.99 +20.0 19.67 - 3.6 33.5 00 14 4614 0912 Alarm State:  0
Sat Jun 23 09:05:26 PDT 2018 ON: 20.03 +20.0 19.71 - 4.6 33.0 0D 13 4614 0926 Alarm State:  0
Sat Jun 23 09:04:24 PDT 2018 ON: 20.00 +20.0 19.62 - 2.6 33.9 00 14 4613 091A Alarm State:  0
Sat Jun 23 09:03:23 PDT 2018 ON: 20.02 +20.0 19.69 - 4.4 32.9 07 14 4519 0927 Alarm State:  0
Sat Jun 23 09:02:21 PDT 2018 ON: 20.04 +20.0 19.66 - 3.8 33.4 00 14 460D 0927 Alarm State:  0
Sat Jun 23 09:01:20 PDT 2018 ON: 19.97 +20.0 19.64 - 3.4 33.8 00 14 460F 0A0E Alarm State:  0
Sat Jun 23 09:00:18 PDT 2018 ON: 20.00 +20.0 19.70 - 4.9 32.6 0D 14 4622 0A1C Alarm State:  0
Sat Jun 23 08:59:17 PDT 2018 ON: 19.96 +20.0 19.61 - 2.3 34.2 02 14 4723 0928 Alarm State:  0
Sat Jun 23 08:58:15 PDT 2018 ON: 20.00 +20.0 19.68 - 3.8 33.6 0A 14 4724 090E Alarm State:  0
Sat Jun 23 08:57:14 PDT 2018 ON: 20.02 +20.0 19.69 - 3.8 33.7 08 14 471E 0911 Alarm State:  0
Sat Jun 23 08:56:12 PDT 2018 ON: 20.04 +20.0 19.73 - 4.9 32.8 0A 12 4701 0919 Alarm State:  0
Sat Jun 23 08:55:11 PDT 2018 ON: 19.99 +20.0 19.62 - 2.9 33.8 00 14 4701 0918 Alarm State:  0
Sat Jun 23 08:54:09 PDT 2018 ON: 19.99 +20.0 19.66 - 3.7 33.7 00 14 461D 091E Alarm State:  0
Sat Jun 23 08:53:08 PDT 2018 ON: 20.00 +20.0 19.72 - 4.7 32.9 0D 12 4629 0924 Alarm State:  0
Sat Jun 23 08:52:06 PDT 2018 ON: 19.98 +20.0 19.57 - 1.8 34.2 01 14 472B 0915 Alarm State:  0
Sat Jun 23 08:51:05 PDT 2018 ON: 20.04 +20.0 19.68 - 3.9 33.5 05 14 4709 091C Alarm State:  0
Sat Jun 23 08:50:03 PDT 2018 ON: 20.00 +20.0 19.61 - 2.4 34.1 02 14 470A 0908 Alarm State:  0
Sat Jun 23 08:49:02 PDT 2018 ON: 20.00 +20.0 19.68 - 3.6 33.8 00 14 4629 0911 Alarm State:  0
Sat Jun 23 08:48:00 PDT 2018 ON: 20.02 +20.0 19.73 - 4.8 32.8 0D 12 4612 0A11 Alarm State:  0
Sat Jun 23 08:46:59 PDT 2018 ON: 19.99 +20.0 19.60 - 2.3 34.1 01 14 4708 0A00 Alarm State:  0
Sat Jun 23 08:45:57 PDT 2018 ON: 19.99 +20.0 19.64 - 2.9 34.0 05 14 470C 0921 Alarm State:  0
Sat Jun 23 08:44:56 PDT 2018 ON: 20.00 +20.0 19.69 - 4.0 33.2 00 14 461E 092B Alarm State:  0
Sat Jun 23 08:43:54 PDT 2018 ON: 20.03 +20.0 19.66 - 3.9 33.2 02 14 470B 0908 Alarm State:  0
Sat Jun 23 08:42:53 PDT 2018 ON: 19.98 +20.0 19.64 - 2.6 34.2 0A 14 470C 092A Alarm State:  0
Sat Jun 23 08:41:51 PDT 2018 ON: 20.01 +20.0 19.68 - 3.7 33.5 05 14 4708 0923 Alarm State:  0
Sat Jun 23 08:40:50 PDT 2018 ON: 20.02 +20.0 19.70 - 4.5 33.0 0D 13 4703 091D Alarm State:  0
Sat Jun 23 08:39:48 PDT 2018 ON: 20.01 +20.0 19.62 - 2.7 33.8 00 14 4717 0921 Alarm State:  0
Sat Jun 23 08:38:47 PDT 2018 ON: 20.00 +20.0 19.67 - 3.9 33.2 07 14 462B 092D Alarm State:  0
Sat Jun 23 08:37:45 PDT 2018 ON: 20.02 +20.0 19.70 - 4.4 32.9 0A 13 4708 090A Alarm State:  0
Sat Jun 23 08:36:44 PDT 2018 ON: 19.99 +20.0 19.65 - 3.2 33.7 02 14 4703 0904 Alarm State:  0
Sat Jun 23 08:35:42 PDT 2018 ON: 19.98 +20.0 19.64 - 2.8 34.1 07 14 4703 092B Alarm State:  0
Sat Jun 23 08:34:41 PDT 2018 ON: 20.01 +20.0 19.69 - 4.5 32.9 05 14 462B 091B Alarm State:  0
Sat Jun 23 08:33:39 PDT 2018 ON: 20.02 +20.0 19.63 - 3.3 33.5 00 14 4714 0907 Alarm State:  0
Sat Jun 23 08:32:38 PDT 2018 ON: 20.01 +20.0 19.64 - 2.9 33.8 05 14 470B 0903 Alarm State:  0
Sat Jun 23 08:31:36 PDT 2018 ON: 19.98 +20.0 19.67 - 3.8 33.3 05 14 462A 0A08 Alarm State:  0
Sat Jun 23 08:30:35 PDT 2018 ON: 20.03 +20.0 19.71 - 4.7 32.7 08 13 4704 0914 Alarm State:  0
Sat Jun 23 08:29:33 PDT 2018 ON: 19.97 +20.0 19.60 - 2.3 34.1 01 14 471E 0925 Alarm State:  0
Sat Jun 23 08:28:32 PDT 2018 ON: 19.98 +20.0 19.66 - 3.9 33.2 00 14 470D 0923 Alarm State:  0
Sat Jun 23 08:27:30 PDT 2018 ON: 20.03 +20.0 19.68 - 3.7 33.4 02 14 472F 0921 Alarm State:  0
Sat Jun 23 08:26:29 PDT 2018 ON: 20.04 +20.0 19.70 - 5.0 32.5 0A 13 4627 090C Alarm State:  0
Sat Jun 23 08:25:27 PDT 2018 ON: 19.99 +20.0 19.63 - 2.9 34.1 02 14 4629 092D Alarm State:  0
Sat Jun 23 08:24:26 PDT 2018 ON: 20.02 +20.0 19.70 - 4.5 32.8 0D 13 461A 0923 Alarm State:  0
Sat Jun 23 08:23:24 PDT 2018 ON: 19.99 +20.0 19.61 - 2.4 33.9 00 14 471B 0901 Alarm State:  0
Sat Jun 23 08:22:23 PDT 2018 ON: 20.00 +20.0 19.62 - 3.0 33.7 00 14 4702 0911 Alarm State:  0
Sat Jun 23 08:21:21 PDT 2018 ON: 20.00 +20.0 19.67 - 3.6 33.4 0C 14 4619 0918 Alarm State:  0
Sat Jun 23 08:20:20 PDT 2018 ON: 20.03 +20.0 19.70 - 4.7 32.7 0A 14 4622 0A04 Alarm State:  0
Sat Jun 23 08:19:18 PDT 2018 ON: 19.98 +20.0 19.62 - 2.4 34.1 00 14 4632 0A04 Alarm State:  0
Sat Jun 23 08:18:17 PDT 2018 ON: 20.00 +20.0 19.67 - 3.8 33.2 00 14 470A 091A Alarm State:  0
Sat Jun 23 08:17:15 PDT 2018 ON: 20.01 +20.0 19.70 - 4.5 32.6 0A 13 4728 0918 Alarm State:  0
Sat Jun 23 08:16:14 PDT 2018 ON: 19.99 +20.0 19.62 - 2.5 34.1 00 14 4808 091F Alarm State:  0
Sat Jun 23 08:15:13 PDT 2018 ON: 20.01 +20.0 19.64 - 3.0 34.0 07 14 4808 091A Alarm State:  0
Sat Jun 23 08:14:11 PDT 2018 ON: 20.00 +20.0 19.67 - 3.8 33.0 07 14 4730 0920 Alarm State:  0
Sat Jun 23 08:13:10 PDT 2018 ON: 20.02 +20.0 19.68 - 4.1 33.3 0A 14 480F 0924 Alarm State:  0
Sat Jun 23 08:12:08 PDT 2018 ON: 20.03 +20.0 19.68 - 4.4 33.0 00 14 470F 090F Alarm State:  0
Sat Jun 23 08:11:07 PDT 2018 ON: 20.02 +20.0 19.66 - 4.0 33.2 02 14 462A 091A Alarm State:  0
Sat Jun 23 08:10:05 PDT 2018 ON: 19.97 +20.0 19.65 - 3.4 33.5 05 14 4631 092E Alarm State:  0
Sat Jun 23 08:09:04 PDT 2018 ON: 20.04 +20.0 19.71 - 4.5 33.0 0D 13 470A 0928 Alarm State:  0
Sat Jun 23 08:08:02 PDT 2018 ON: 20.00 +20.0 19.61 - 2.4 33.9 00 14 4711 0918 Alarm State:  0
Sat Jun 23 08:07:01 PDT 2018 ON: 20.00 +20.0 19.69 - 3.9 33.3 00 14 4620 0925 Alarm State:  0
Sat Jun 23 08:05:59 PDT 2018 ON: 20.02 +20.0 19.66 - 2.9 33.7 00 14 4718 091C Alarm State:  0
Sat Jun 23 08:04:58 PDT 2018 ON: 20.01 +20.0 19.62 - 2.9 33.8 00 14 462C 0901 Alarm State:  0
Sat Jun 23 08:03:56 PDT 2018 ON: 19.97 +20.0 19.64 - 3.6 33.6 00 14 461C 092F Alarm State:  0
Sat Jun 23 08:02:55 PDT 2018 ON: 20.01 +20.0 19.71 - 4.3 33.0 05 13 462B 090B Alarm State:  0
Sat Jun 23 08:01:53 PDT 2018 ON: 20.02 +20.0 19.68 - 4.1 33.0 07 14 461F 0914 Alarm State:  0
Sat Jun 23 08:00:52 PDT 2018 ON: 20.01 +20.0 19.64 - 3.5 33.5 02 14 4618 0918 Alarm State:  0
Sat Jun 23 07:59:50 PDT 2018 ON: 20.00 +20.0 19.64 - 2.9 34.1 02 14 4624 092F Alarm State:  0
Sat Jun 23 07:58:49 PDT 2018 ON: 20.02 +20.0 19.69 - 4.1 33.2 07 14 4625 091D Alarm State:  0
Sat Jun 23 07:57:47 PDT 2018 ON: 20.02 +20.0 19.69 - 4.5 32.7 00 14 4627 0910 Alarm State:  0
Sat Jun 23 07:56:46 PDT 2018 ON: 19.98 +20.0 19.62 - 2.5 34.1 02 14 4632 091D Alarm State:  0
Sat Jun 23 07:55:44 PDT 2018 ON: 19.99 +20.0 19.64 - 3.0 34.1 0A 14 4711 090E Alarm State:  0
Sat Jun 23 07:54:43 PDT 2018 ON: 20.00 +20.0 19.70 - 4.3 33.1 0D 13 470E 092B Alarm State:  0
Sat Jun 23 07:53:41 PDT 2018 ON: 20.00 +20.0 19.59 - 1.9 34.2 09 14 4817 0903 Alarm State:  0
Sat Jun 23 07:52:40 PDT 2018 ON: 20.01 +20.0 19.65 - 3.2 33.9 07 14 4729 090B Alarm State:  0
Sat Jun 23 07:51:38 PDT 2018 ON: 19.98 +20.0 19.64 - 3.1 34.0 07 14 4725 0A04 Alarm State:  0
Sat Jun 23 07:50:37 PDT 2018 ON: 20.03 +20.0 19.69 - 3.8 33.7 0D 14 471A 0926 Alarm State:  0
Sat Jun 23 07:49:35 PDT 2018 ON: 19.99 +20.0 19.67 - 3.3 33.9 05 14 461D 0910 Alarm State:  0
Sat Jun 23 07:48:34 PDT 2018 ON: 20.02 +20.0 19.70 - 4.6 33.1 0D 13 4600 0916 Alarm State:  0
Sat Jun 23 07:47:32 PDT 2018 ON: 20.02 +20.0 19.65 - 3.3 33.6 00 14 460E 0A03 Alarm State:  0
Sat Jun 23 07:46:31 PDT 2018 ON: 19.97 +20.0 19.63 - 3.4 33.4 05 14 4619 0A12 Alarm State:  0
Sat Jun 23 07:45:29 PDT 2018 ON: 20.03 +20.0 19.65 - 3.2 33.5 00 14 471A 091A Alarm State:  0
Sat Jun 23 07:44:28 PDT 2018 ON: 20.03 +20.0 19.68 - 4.3 32.9 00 14 4624 0901 Alarm State:  0
Sat Jun 23 07:43:26 PDT 2018 ON: 20.00 +20.0 19.65 - 3.1 33.7 00 14 4703 0911 Alarm State:  0
Sat Jun 23 07:42:25 PDT 2018 ON: 19.99 +20.0 19.61 - 2.4 33.9 00 14 471C 0920 Alarm State:  0
Sat Jun 23 07:41:23 PDT 2018 ON: 19.99 +20.0 19.66 - 3.6 33.6 05 14 4712 091F Alarm State:  0
Sat Jun 23 07:40:22 PDT 2018 ON: 20.01 +20.0 19.69 - 3.8 33.5 0A 14 4721 0905 Alarm State:  0
Sat Jun 23 07:39:20 PDT 2018 ON: 20.03 +20.0 19.71 - 4.8 32.7 0D 13 470B 090E Alarm State:  0
Sat Jun 23 07:38:19 PDT 2018 ON: 20.00 +20.0 19.62 - 2.4 34.1 02 14 4718 0924 Alarm State:  0
Sat Jun 23 07:37:17 PDT 2018 ON: 19.98 +20.0 19.65 - 3.6 33.6 05 14 4716 091B Alarm State:  0
Sat Jun 23 07:36:16 PDT 2018 ON: 20.00 +20.0 19.71 - 4.1 33.5 08 13 4717 0903 Alarm State:  0
Sat Jun 23 07:35:14 PDT 2018 ON: 19.99 +20.0 19.68 - 3.8 33.5 02 14 470D 092F Alarm State:  0
Sat Jun 23 07:34:13 PDT 2018 ON: 20.01 +20.0 19.73 - 4.7 32.9 0D 12 470A 091D Alarm State:  0
Sat Jun 23 07:33:11 PDT 2018 ON: 19.99 +20.0 19.62 - 2.3 34.2 0C 14 4728 0930 Alarm State:  0
Sat Jun 23 07:32:10 PDT 2018 ON: 20.01 +20.0 19.67 - 3.3 33.8 02 14 4715 0903 Alarm State:  0
Sat Jun 23 07:31:08 PDT 2018 ON: 20.01 +20.0 19.69 - 3.8 33.7 05 14 4622 0918 Alarm State:  0
Sat Jun 23 07:30:07 PDT 2018 ON: 20.05 +20.0 19.72 - 4.6 33.1 0D 12 461B 0916 Alarm State:  0
Sat Jun 23 07:29:05 PDT 2018 ON: 19.98 +20.0 19.63 - 2.4 34.1 05 14 462F 0923 Alarm State:  0
Sat Jun 23 07:28:04 PDT 2018 ON: 20.00 +20.0 19.69 - 4.3 33.0 00 14 4616 0925 Alarm State:  0
Sat Jun 23 07:27:02 PDT 2018 ON: 19.99 +20.0 19.60 - 2.0 34.1 07 14 471B 0905 Alarm State:  0
Sat Jun 23 07:26:01 PDT 2018 ON: 20.00 +20.0 19.67 - 3.5 33.8 0A 14 4706 0909 Alarm State:  0
Sat Jun 23 07:24:59 PDT 2018 ON: 20.03 +20.0 19.71 - 4.4 33.2 0D 13 462F 0902 Alarm State:  0
Sat Jun 23 07:23:58 PDT 2018 ON: 20.01 +20.0 19.60 - 2.5 33.9 01 14 4713 091D Alarm State:  0
Sat Jun 23 07:22:56 PDT 2018 ON: 19.99 +20.0 19.68 - 3.9 33.2 07 14 4624 092C Alarm State:  0
Sat Jun 23 07:21:55 PDT 2018 ON: 20.03 +20.0 19.69 - 4.5 32.7 03 14 4702 0908 Alarm State:  0
Sat Jun 23 07:20:53 PDT 2018 ON: 19.97 +20.0 19.65 - 2.9 34.1 0A 14 4631 0922 Alarm State:  0
Sat Jun 23 07:19:52 PDT 2018 ON: 20.00 +20.0 19.70 - 4.2 33.1 0D 13 462A 0914 Alarm State:  0
Sat Jun 23 07:18:50 PDT 2018 ON: 20.03 +20.0 19.69 - 4.1 33.0 05 14 4628 090D Alarm State:  0
Sat Jun 23 07:17:49 PDT 2018 ON: 20.04 +20.0 19.68 - 4.3 33.1 00 14 461B 0915 Alarm State:  0
Sat Jun 23 07:16:47 PDT 2018 ON: 19.99 +20.0 19.62 - 2.4 34.1 00 14 461B 0A04 Alarm State:  0
Sat Jun 23 07:15:46 PDT 2018 ON: 20.00 +20.0 19.69 - 4.3 33.0 05 14 460C 0A30 Alarm State:  0
Sat Jun 23 07:14:44 PDT 2018 ON: 19.96 +20.0 19.56 - 1.6 34.3 07 14 4717 0928 Alarm State:  0
Sat Jun 23 07:13:43 PDT 2018 ON: 20.00 +20.0 19.67 - 3.5 33.8 00 14 4700 091E Alarm State:  0
Sat Jun 23 07:12:41 PDT 2018 ON: 20.00 +20.0 19.70 - 4.2 33.0 0D 14 461B 0A00 Alarm State:  0
Sat Jun 23 07:11:40 PDT 2018 ON: 20.01 +20.0 19.64 - 3.6 33.4 02 14 470F 0923 Alarm State:  0
Sat Jun 23 07:10:38 PDT 2018 ON: 20.01 +20.0 19.61 - 2.2 34.1 02 14 4715 0914 Alarm State:  0
Sat Jun 23 07:09:37 PDT 2018 ON: 20.02 +20.0 19.68 - 4.1 33.2 05 14 4621 0922 Alarm State:  0
Sat Jun 23 07:08:35 PDT 2018 ON: 20.00 +20.0 19.60 - 2.5 33.8 00 14 4631 090B Alarm State:  0
Sat Jun 23 07:07:34 PDT 2018 ON: 20.00 +20.0 19.69 - 4.0 33.2 05 14 4616 0A13 Alarm State:  0
Sat Jun 23 07:06:32 PDT 2018 ON: 20.02 +20.0 19.71 - 4.6 32.9 0A 13 4628 0914 Alarm State:  0
Sat Jun 23 07:05:31 PDT 2018 ON: 19.97 +20.0 19.65 - 3.3 33.7 05 14 462D 092E Alarm State:  0
Sat Jun 23 07:04:30 PDT 2018 ON: 20.02 +20.0 19.71 - 4.3 33.1 0D 13 4702 0903 Alarm State:  0
Sat Jun 23 07:03:28 PDT 2018 ON: 19.98 +20.0 19.60 - 2.7 33.8 00 14 4701 0922 Alarm State:  0
Sat Jun 23 07:02:27 PDT 2018 ON: 19.99 +20.0 19.67 - 3.9 33.2 07 14 4617 0924 Alarm State:  0
Sat Jun 23 07:01:25 PDT 2018 ON: 20.01 +20.0 19.63 - 3.1 33.6 00 14 471A 0908 Alarm State:  0
Sat Jun 23 07:00:24 PDT 2018 ON: 20.00 +20.0 19.61 - 2.7 34.0 01 14 462A 0916 Alarm State:  0
Sat Jun 23 06:59:22 PDT 2018 ON: 20.02 +20.0 19.71 - 4.1 33.2 0D 13 4608 0A25 Alarm State:  0
Sat Jun 23 06:58:21 PDT 2018 ON: 20.01 +20.0 19.61 - 2.9 33.6 00 14 4708 0A0A Alarm State:  0
Sat Jun 23 06:57:19 PDT 2018 ON: 19.96 +20.0 19.65 - 3.6 33.4 00 14 4704 0A27 Alarm State:  0
Sat Jun 23 06:56:18 PDT 2018 ON: 20.00 +20.0 19.59 - 2.1 33.9 00 14 480C 091E Alarm State:  0
Sat Jun 23 06:55:16 PDT 2018 ON: 20.01 +20.0 19.63 - 3.3 33.6 02 14 4731 0925 Alarm State:  0
Sat Jun 23 06:54:14 PDT 2018 ON: 19.99 +20.0 19.67 - 3.5 33.6 05 14 471A 0929 Alarm State:  0
Sat Jun 23 06:53:13 PDT 2018 ON: 20.04 +20.0 19.71 - 4.3 33.2 0A 13 4722 0915 Alarm State:  0
Sat Jun 23 06:52:12 PDT 2018 ON: 20.03 +20.0 19.72 - 4.5 33.0 0D 12 462C 0925 Alarm State:  0
Sat Jun 23 06:51:10 PDT 2018 ON: 20.01 +20.0 19.61 - 2.8 33.8 00 14 470D 090C Alarm State:  0
Sat Jun 23 06:50:08 PDT 2018 ON: 19.99 +20.0 19.68 - 3.8 33.1 00 14 4629 0A14 Alarm State:  0
Sat Jun 23 06:49:07 PDT 2018 ON: 20.01 +20.0 19.68 - 3.6 33.5 00 14 4720 0905 Alarm State:  0
Sat Jun 23 06:48:06 PDT 2018 ON: 20.00 +20.0 19.68 - 4.2 33.1 02 14 470B 0911 Alarm State:  0
Sat Jun 23 06:47:04 PDT 2018 ON: 20.03 +20.0 19.68 - 4.3 32.9 00 14 4717 0925 Alarm State:  0
Sat Jun 23 06:46:03 PDT 2018 ON: 19.99 +20.0 19.64 - 3.3 33.8 05 14 470E 0917 Alarm State:  0
Sat Jun 23 06:45:01 PDT 2018 ON: 20.03 +20.0 19.72 - 4.6 32.9 0D 12 4712 0921 Alarm State:  0
Sat Jun 23 06:44:00 PDT 2018 ON: 20.01 +20.0 19.60 - 2.8 33.8 00 14 472F 0920 Alarm State:  0
Sat Jun 23 06:42:58 PDT 2018 ON: 19.99 +20.0 19.65 - 3.0 33.9 00 14 471F 0925 Alarm State:  0
Sat Jun 23 06:41:57 PDT 2018 ON: 20.00 +20.0 19.62 - 2.5 33.9 00 14 472A 0913 Alarm State:  0
Sat Jun 23 06:40:55 PDT 2018 ON: 19.99 +20.0 19.65 - 3.6 33.6 00 14 470E 091C Alarm State:  0
Sat Jun 23 06:39:54 PDT 2018 ON: 19.99 +20.0 19.60 - 2.7 33.8 00 14 4723 0929 Alarm State:  0
Sat Jun 23 06:38:52 PDT 2018 ON: 20.01 +20.0 19.66 - 3.7 33.5 00 14 4705 090F Alarm State:  0
Sat Jun 23 06:37:51 PDT 2018 ON: 19.99 +20.0 19.62 - 2.7 33.8 00 14 4631 0901 Alarm State:  0
Sat Jun 23 06:36:49 PDT 2018 ON: 20.00 +20.0 19.68 - 4.1 32.9 07 14 461D 0A08 Alarm State:  0
Sat Jun 23 06:35:48 PDT 2018 ON: 20.02 +20.0 19.69 - 4.1 33.2 0A 14 470D 0901 Alarm State:  0
Sat Jun 23 06:34:46 PDT 2018 ON: 20.03 +20.0 19.67 - 4.1 33.2 00 14 4626 090A Alarm State:  0
Sat Jun 23 06:33:45 PDT 2018 ON: 20.00 +20.0 19.65 - 3.5 33.6 00 14 4627 091B Alarm State:  0
Sat Jun 23 06:32:43 PDT 2018 ON: 20.01 +20.0 19.70 - 4.3 33.0 0D 13 470E 091F Alarm State:  0
Sat Jun 23 06:31:42 PDT 2018 ON: 20.01 +20.0 19.69 - 4.5 32.9 0D 14 470D 0915 Alarm State:  0
Sat Jun 23 06:30:40 PDT 2018 ON: 19.99 +20.0 19.58 - 2.3 34.0 00 14 4723 0920 Alarm State:  0
Sat Jun 23 06:29:39 PDT 2018 ON: 19.99 +20.0 19.65 - 2.9 33.9 02 14 4714 0924 Alarm State:  0
Sat Jun 23 06:28:37 PDT 2018 ON: 19.99 +20.0 19.67 - 3.7 33.8 0A 14 462F 092B Alarm State:  0
Sat Jun 23 06:27:36 PDT 2018 ON: 20.01 +20.0 19.71 - 4.5 33.0 0D 13 462A 091F Alarm State:  0
Sat Jun 23 06:26:34 PDT 2018 ON: 20.00 +20.0 19.60 - 2.5 34.0 04 14 471F 0915 Alarm State:  0
Sat Jun 23 06:25:33 PDT 2018 ON: 20.02 +20.0 19.65 - 3.3 33.8 05 14 462B 0923 Alarm State:  0
Sat Jun 23 06:24:31 PDT 2018 ON: 20.01 +20.0 19.70 - 4.5 32.9 00 14 4526 0A0F Alarm State:  0
Sat Jun 23 06:23:30 PDT 2018 ON: 20.00 +20.0 19.62 - 3.3 33.5 00 14 460E 0A16 Alarm State:  0
Sat Jun 23 06:22:28 PDT 2018 ON: 19.97 +20.0 19.63 - 3.6 33.4 07 14 4614 0A25 Alarm State:  0
Sat Jun 23 06:21:27 PDT 2018 ON: 20.00 +20.0 19.62 - 2.8 33.7 00 14 471E 0920 Alarm State:  0
Sat Jun 23 06:20:25 PDT 2018 ON: 20.00 +20.0 19.66 - 3.7 33.2 07 14 4722 0A15 Alarm State:  0
Sat Jun 23 06:19:24 PDT 2018 ON: 20.02 +20.0 19.70 - 3.7 33.5 0D 13 4814 090B Alarm State:  0
Sat Jun 23 06:18:22 PDT 2018 ON: 20.02 +20.0 19.69 - 3.5 33.8 0D 14 4719 0920 Alarm State:  0
Sat Jun 23 06:17:21 PDT 2018 ON: 20.02 +20.0 19.69 - 4.1 33.3 00 14 461B 090B Alarm State:  0
Sat Jun 23 06:16:19 PDT 2018 ON: 20.00 +20.0 19.62 - 3.2 33.5 00 14 4629 0927 Alarm State:  0
Sat Jun 23 06:15:08 PDT 2018 ON: 19.97 +20.0 19.66 - 3.4 33.5 05 14 462A 0A15 Alarm State:  0
Sat Jun 23 06:14:07 PDT 2018 ON: 20.01 +20.0 19.71 - 4.6 32.8 0D 13 4704 0917 Alarm State:  0
Sat Jun 23 06:13:05 PDT 2018 ON: 20.01 +20.0 19.64 - 3.5 33.4 02 14 4710 0906 Alarm State:  0
Sat Jun 23 06:12:04 PDT 2018 ON: 19.98 +20.0 19.65 - 3.1 33.9 0A 14 471B 0928 Alarm State:  0
Sat Jun 23 06:11:02 PDT 2018 ON: 20.03 +20.0 19.70 - 4.1 33.3 0D 13 4719 090F Alarm State:  0
Sat Jun 23 06:10:01 PDT 2018 ON: 20.03 +20.0 19.70 - 4.0 33.2 0A 13 462F 091B Alarm State:  0
Sat Jun 23 06:08:59 PDT 2018 ON: 20.01 +20.0 19.65 - 3.4 33.5 00 14 4621 091E Alarm State:  0
Sat Jun 23 06:07:58 PDT 2018 ON: 20.00 +20.0 19.67 - 3.2 33.9 02 14 4616 0922 Alarm State:  0
Sat Jun 23 06:06:56 PDT 2018 ON: 20.00 +20.0 19.70 - 4.4 33.0 0D 13 4614 090B Alarm State:  0
Sat Jun 23 06:05:55 PDT 2018 ON: 20.00 +20.0 19.65 - 3.4 33.5 00 14 461F 0918 Alarm State:  0
Sat Jun 23 06:04:53 PDT 2018 ON: 19.98 +20.0 19.65 - 3.6 33.2 05 14 461D 0A0B Alarm State:  0
Sat Jun 23 06:03:52 PDT 2018 ON: 20.02 +20.0 19.71 - 4.7 32.6 08 13 4701 0A09 Alarm State:  0
Sat Jun 23 06:02:50 PDT 2018 ON: 19.98 +20.0 19.64 - 2.9 34.0 02 14 4719 0A05 Alarm State:  0
Sat Jun 23 06:01:49 PDT 2018 ON: 20.02 +20.0 19.70 - 4.1 33.6 0D 13 471A 0917 Alarm State:  0
Sat Jun 23 06:00:47 PDT 2018 ON: 20.03 +20.0 19.72 - 4.6 32.9 0D 12 4621 0928 Alarm State:  0
Sat Jun 23 05:59:46 PDT 2018 ON: 19.99 +20.0 19.59 - 2.2 34.0 00 14 471F 0913 Alarm State:  0
Sat Jun 23 05:58:44 PDT 2018 ON: 20.00 +20.0 19.66 - 3.2 34.0 05 14 470B 0918 Alarm State:  0
Sat Jun 23 05:57:43 PDT 2018 ON: 20.03 +20.0 19.70 - 4.4 33.0 0A 13 4621 0920 Alarm State:  0
Sat Jun 23 05:56:41 PDT 2018 ON: 19.98 +20.0 19.59 - 2.0 34.1 00 14 4716 091A Alarm State:  0
Sat Jun 23 05:55:40 PDT 2018 ON: 20.01 +20.0 19.68 - 3.9 33.3 00 14 4622 0926 Alarm State:  0
Sat Jun 23 05:54:38 PDT 2018 ON: 20.02 +20.0 19.70 - 4.9 32.4 0A 14 461C 0A1B Alarm State:  0
Sat Jun 23 05:53:37 PDT 2018 ON: 19.96 +20.0 19.63 - 3.1 33.8 02 14 4704 0A0E Alarm State:  0
Sat Jun 23 05:52:35 PDT 2018 ON: 20.02 +20.0 19.71 - 4.1 33.2 0D 13 4710 0917 Alarm State:  0
Sat Jun 23 05:51:34 PDT 2018 ON: 20.02 +20.0 19.70 - 4.6 32.9 0D 13 4626 0923 Alarm State:  0
Sat Jun 23 05:50:32 PDT 2018 ON: 19.99 +20.0 19.63 - 2.5 34.2 05 14 4632 090E Alarm State:  0
Sat Jun 23 05:49:31 PDT 2018 ON: 20.00 +20.0 19.68 - 4.2 33.1 07 14 4621 0A0C Alarm State:  0
Sat Jun 23 05:48:29 PDT 2018 ON: 20.01 +20.0 19.60 - 2.4 33.9 00 14 4724 0922 Alarm State:  0
Sat Jun 23 05:47:28 PDT 2018 ON: 20.01 +20.0 19.67 - 3.7 33.5 00 14 462A 0907 Alarm State:  0
Sat Jun 23 05:46:26 PDT 2018 ON: 20.02 +20.0 19.71 - 4.8 32.7 0D 13 4624 0927 Alarm State:  0
Sat Jun 23 05:45:25 PDT 2018 ON: 19.99 +20.0 19.61 - 2.5 33.9 00 14 4631 090B Alarm State:  0
Sat Jun 23 05:44:23 PDT 2018 ON: 19.99 +20.0 19.66 - 3.6 33.3 00 14 4630 0A07 Alarm State:  0
Sat Jun 23 05:43:22 PDT 2018 ON: 20.03 +20.0 19.69 - 3.8 33.4 05 14 4717 090C Alarm State:  0
Sat Jun 23 05:42:20 PDT 2018 ON: 20.01 +20.0 19.65 - 3.3 33.6 02 14 4625 091A Alarm State:  0
Sat Jun 23 05:41:19 PDT 2018 ON: 20.00 +20.0 19.68 - 3.9 33.2 07 14 452A 0927 Alarm State:  0
Sat Jun 23 05:40:17 PDT 2018 ON: 20.02 +20.0 19.68 - 4.0 33.2 00 14 4618 0924 Alarm State:  0
Sat Jun 23 05:39:16 PDT 2018 ON: 20.00 +20.0 19.66 - 3.2 33.7 00 14 460E 0919 Alarm State:  0
Sat Jun 23 05:38:14 PDT 2018 ON: 20.04 +20.0 19.72 - 4.9 32.6 0D 12 4619 0926 Alarm State:  0
Sat Jun 23 05:37:13 PDT 2018 ON: 19.98 +20.0 19.63 - 2.7 34.1 05 14 462D 0907 Alarm State:  0
Sat Jun 23 05:36:11 PDT 2018 ON: 20.00 +20.0 19.68 - 4.1 33.0 00 14 4628 0928 Alarm State:  0
Sat Jun 23 05:35:10 PDT 2018 ON: 20.01 +20.0 19.69 - 3.9 33.2 0A 14 471B 0928 Alarm State:  0
Sat Jun 23 05:34:08 PDT 2018 ON: 19.99 +20.0 19.62 - 2.4 34.0 05 14 4728 0908 Alarm State:  0
Sat Jun 23 05:33:07 PDT 2018 ON: 20.00 +20.0 19.67 - 3.7 33.4 05 14 4708 0913 Alarm State:  0
Sat Jun 23 05:32:05 PDT 2018 ON: 20.00 +20.0 19.62 - 3.0 33.6 00 14 4717 0926 Alarm State:  0
Sat Jun 23 05:31:04 PDT 2018 ON: 19.99 +20.0 19.68 - 3.8 33.2 07 14 462C 092B Alarm State:  0
Sat Jun 23 05:30:02 PDT 2018 ON: 20.02 +20.0 19.68 - 4.6 32.8 00 14 4706 0909 Alarm State:  0
Sat Jun 23 05:29:01 PDT 2018 ON: 19.99 +20.0 19.64 - 3.0 34.0 0A 14 4712 0924 Alarm State:  0
Sat Jun 23 05:27:59 PDT 2018 ON: 20.01 +20.0 19.69 - 4.0 33.4 0D 14 470D 0914 Alarm State:  0
Sat Jun 23 05:26:58 PDT 2018 ON: 20.04 +20.0 19.71 - 4.8 32.6 0A 13 4628 091D Alarm State:  0
Sat Jun 23 05:25:57 PDT 2018 ON: 19.98 +20.0 19.62 - 3.0 34.0 0C 14 4708 0927 Alarm State:  0
Sat Jun 23 05:24:55 PDT 2018 ON: 20.02 +20.0 19.71 - 4.5 33.1 0D 13 4714 0A04 Alarm State:  0
Sat Jun 23 05:23:54 PDT 2018 ON: 20.00 +20.0 19.62 - 2.3 34.0 05 14 4810 091D Alarm State:  0
Sat Jun 23 05:22:52 PDT 2018 ON: 20.02 +20.0 19.67 - 3.7 33.6 02 14 471B 0901 Alarm State:  0
Sat Jun 23 05:21:51 PDT 2018 ON: 19.99 +20.0 19.65 - 3.0 34.0 0A 14 4716 0931 Alarm State:  0
Sat Jun 23 05:20:49 PDT 2018 ON: 20.00 +20.0 19.69 - 4.1 33.6 08 14 4708 0926 Alarm State:  0
Sat Jun 23 05:19:48 PDT 2018 ON: 19.99 +20.0 19.68 - 3.4 33.8 00 14 4705 092D Alarm State:  0
Sat Jun 23 05:18:46 PDT 2018 ON: 20.02 +20.0 19.75 - 5.2 32.4 0A 11 4632 091D Alarm State:  0
Sat Jun 23 05:17:45 PDT 2018 ON: 19.98 +20.0 19.63 - 2.5 34.1 00 14 4716 0929 Alarm State:  0
Sat Jun 23 05:16:43 PDT 2018 ON: 20.00 +20.0 19.67 - 3.3 33.9 0A 14 4704 0928 Alarm State:  0
Sat Jun 23 05:15:42 PDT 2018 ON: 20.00 +20.0 19.70 - 3.9 33.5 0A 13 4622 0909 Alarm State:  0
Sat Jun 23 05:14:40 PDT 2018 ON: 20.02 +20.0 19.71 - 4.5 32.9 0D 13 461A 090C Alarm State:  0
Sat Jun 23 05:13:39 PDT 2018 ON: 20.01 +20.0 19.62 - 3.0 33.7 05 14 462F 0913 Alarm State:  0
Sat Jun 23 05:12:37 PDT 2018 ON: 20.01 +20.0 19.65 - 3.6 33.6 00 14 460B 0924 Alarm State:  0
Sat Jun 23 05:11:36 PDT 2018 ON: 20.02 +20.0 19.71 - 4.2 33.3 0D 13 4610 0914 Alarm State:  0
Sat Jun 23 05:10:34 PDT 2018 ON: 20.02 +20.0 19.71 - 4.9 32.7 0A 13 4606 0919 Alarm State:  0
Sat Jun 23 05:09:33 PDT 2018 ON: 19.98 +20.0 19.59 - 2.1 34.3 04 14 462F 0911 Alarm State:  0
Sat Jun 23 05:08:31 PDT 2018 ON: 20.00 +20.0 19.69 - 4.1 33.3 00 14 461F 090A Alarm State:  0
Sat Jun 23 05:07:30 PDT 2018 ON: 20.00 +20.0 19.69 - 4.0 33.3 0D 14 4701 0925 Alarm State:  0
Sat Jun 23 05:06:28 PDT 2018 ON: 20.01 +20.0 19.70 - 4.2 33.0 0D 13 4707 091C Alarm State:  0
Sat Jun 23 05:05:27 PDT 2018 ON: 20.00 +20.0 19.63 - 2.9 33.8 02 14 4724 091F Alarm State:  0
Sat Jun 23 05:04:25 PDT 2018 ON: 20.02 +20.0 19.67 - 3.4 33.6 02 14 470C 0907 Alarm State:  0
Sat Jun 23 05:03:24 PDT 2018 ON: 19.98 +20.0 19.67 - 3.5 33.5 0C 14 462E 092E Alarm State:  0
Sat Jun 23 05:02:22 PDT 2018 ON: 20.01 +20.0 19.72 - 4.7 32.9 0D 12 4704 0910 Alarm State:  0
Sat Jun 23 05:01:21 PDT 2018 ON: 20.02 +20.0 19.65 - 3.5 33.5 02 14 4704 090D Alarm State:  0
Sat Jun 23 05:00:19 PDT 2018 ON: 19.99 +20.0 19.66 - 3.4 33.5 05 14 462A 092E Alarm State:  0
Sat Jun 23 04:59:18 PDT 2018 ON: 20.04 +20.0 19.71 - 4.4 33.0 0D 13 4703 0913 Alarm State:  0
Sat Jun 23 04:58:16 PDT 2018 ON: 20.02 +20.0 19.64 - 3.4 33.5 00 14 462B 0919 Alarm State:  0
Sat Jun 23 04:57:15 PDT 2018 ON: 19.98 +20.0 19.66 - 3.5 33.7 05 14 4621 091A Alarm State:  0
Sat Jun 23 04:56:13 PDT 2018 ON: 20.02 +20.0 19.69 - 4.3 33.1 07 14 462C 091D Alarm State:  0
Sat Jun 23 04:55:12 PDT 2018 ON: 20.00 +20.0 19.63 - 2.5 33.9 00 14 471D 0903 Alarm State:  0
Sat Jun 23 04:54:10 PDT 2018 ON: 20.00 +20.0 19.66 - 3.5 33.6 00 14 461F 0917 Alarm State:  0
Sat Jun 23 04:53:09 PDT 2018 ON: 19.98 +20.0 19.66 - 3.7 33.3 00 14 4609 091E Alarm State:  0
Sat Jun 23 04:52:07 PDT 2018 ON: 20.03 +20.0 19.69 - 4.6 32.8 00 14 4616 0902 Alarm State:  0
Sat Jun 23 04:51:06 PDT 2018 ON: 19.98 +20.0 19.60 - 2.8 34.0 04 14 4610 091E Alarm State:  0
Sat Jun 23 04:50:04 PDT 2018 ON: 19.97 +20.0 19.68 - 4.0 33.2 00 14 4615 0A0E Alarm State:  0
Sat Jun 23 04:49:03 PDT 2018 ON: 20.01 +20.0 19.61 - 2.3 33.8 00 14 471E 0912 Alarm State:  0
Sat Jun 23 04:48:01 PDT 2018 ON: 19.99 +20.0 19.67 - 3.8 33.3 05 14 4632 091E Alarm State:  0
Sat Jun 23 04:47:00 PDT 2018 ON: 20.05 +20.0 19.70 - 4.5 33.0 0D 13 4630 090B Alarm State:  0
Sat Jun 23 04:45:58 PDT 2018 ON: 20.03 +20.0 19.65 - 4.1 33.2 00 14 4605 091D Alarm State:  0
Sat Jun 23 04:44:57 PDT 2018 ON: 19.99 +20.0 19.66 - 3.9 33.1 00 14 4528 0A12 Alarm State:  0
Sat Jun 23 04:43:55 PDT 2018 ON: 20.04 +20.0 19.71 - 4.6 32.8 0A 13 4614 0A08 Alarm State:  0
Sat Jun 23 04:42:54 PDT 2018 ON: 19.95 +20.0 19.61 - 2.9 34.1 01 14 462E 0A04 Alarm State:  0
Sat Jun 23 04:41:52 PDT 2018 ON: 20.02 +20.0 19.71 - 4.3 33.5 0D 13 4625 091C Alarm State:  0
Sat Jun 23 04:40:51 PDT 2018 ON: 19.99 +20.0 19.69 - 4.2 32.9 00 14 4613 092D Alarm State:  0
Sat Jun 23 04:39:49 PDT 2018 ON: 20.02 +20.0 19.66 - 4.3 33.0 00 14 4703 0925 Alarm State:  0
Sat Jun 23 04:38:48 PDT 2018 ON: 20.00 +20.0 19.64 - 2.8 34.0 07 14 4707 0914 Alarm State:  0
Sat Jun 23 04:37:46 PDT 2018 ON: 19.99 +20.0 19.67 - 3.9 33.2 07 14 470A 092D Alarm State:  0
Sat Jun 23 04:36:45 PDT 2018 ON: 20.02 +20.0 19.63 - 2.8 33.7 00 14 480F 0905 Alarm State:  0
Sat Jun 23 04:35:44 PDT 2018 ON: 20.01 +20.0 19.64 - 3.2 33.7 02 14 4729 090D Alarm State:  0
Sat Jun 23 04:34:42 PDT 2018 ON: 20.04 +20.0 19.68 - 3.8 33.4 00 14 4626 0920 Alarm State:  0
Sat Jun 23 04:33:41 PDT 2018 ON: 20.01 +20.0 19.66 - 3.1 34.0 07 14 4613 0924 Alarm State:  0
Sat Jun 23 04:32:39 PDT 2018 ON: 19.99 +20.0 19.69 - 4.1 33.2 05 14 461B 0A15 Alarm State:  0
Sat Jun 23 04:31:38 PDT 2018 ON: 20.00 +20.0 19.58 - 2.0 34.1 00 14 4723 0914 Alarm State:  0
Sat Jun 23 04:30:36 PDT 2018 ON: 19.98 +20.0 19.65 - 3.4 33.8 02 14 4717 0917 Alarm State:  0
Sat Jun 23 04:29:35 PDT 2018 ON: 20.00 +20.0 19.69 - 4.0 33.5 0A 14 4708 0913 Alarm State:  0
Sat Jun 23 04:28:33 PDT 2018 ON: 20.01 +20.0 19.72 - 4.8 32.7 0D 12 461F 091C Alarm State:  0
Sat Jun 23 04:27:32 PDT 2018 ON: 19.99 +20.0 19.61 - 3.3 33.5 00 14 470B 0921 Alarm State:  0
Sat Jun 23 04:26:30 PDT 2018 ON: 19.99 +20.0 19.60 - 2.4 34.1 07 14 470B 0906 Alarm State:  0
Sat Jun 23 04:25:29 PDT 2018 ON: 19.99 +20.0 19.69 - 4.0 33.3 05 14 4629 092D Alarm State:  0
Sat Jun 23 04:24:27 PDT 2018 ON: 20.02 +20.0 19.63 - 2.8 33.7 00 14 471E 0900 Alarm State:  0
Sat Jun 23 04:23:26 PDT 2018 ON: 19.99 +20.0 19.66 - 3.7 33.5 05 14 4632 0A04 Alarm State:  0
Sat Jun 23 04:22:24 PDT 2018 ON: 20.03 +20.0 19.72 - 4.6 32.8 0D 12 4707 0913 Alarm State:  0
Sat Jun 23 04:21:23 PDT 2018 ON: 20.03 +20.0 19.65 - 3.0 33.7 00 14 4718 091A Alarm State:  0
Sat Jun 23 04:20:21 PDT 2018 ON: 19.98 +20.0 19.62 - 2.3 34.2 05 14 4718 0911 Alarm State:  0
Sat Jun 23 04:19:20 PDT 2018 ON: 20.01 +20.0 19.68 - 3.7 33.8 05 14 462A 0915 Alarm State:  0
Sat Jun 23 04:18:18 PDT 2018 ON: 20.00 +20.0 19.69 - 4.2 33.0 00 14 460C 0920 Alarm State:  0
Sat Jun 23 04:17:17 PDT 2018 ON: 20.00 +20.0 19.61 - 2.5 33.8 00 14 470C 0907 Alarm State:  0
Sat Jun 23 04:16:15 PDT 2018 ON: 20.00 +20.0 19.67 - 3.7 33.5 05 14 4623 0910 Alarm State:  0
Sat Jun 23 04:15:14 PDT 2018 ON: 20.01 +20.0 19.71 - 4.9 32.5 0D 13 4622 0A00 Alarm State:  0
Sat Jun 23 04:14:12 PDT 2018 ON: 19.96 +20.0 19.60 - 2.7 34.1 09 14 470F 0924 Alarm State:  0
Sat Jun 23 04:13:11 PDT 2018 ON: 20.01 +20.0 19.70 - 3.9 33.5 0D 13 4712 0904 Alarm State:  0
Sat Jun 23 04:12:09 PDT 2018 ON: 20.02 +20.0 19.68 - 3.4 33.9 05 14 4700 0913 Alarm State:  0
Sat Jun 23 04:11:08 PDT 2018 ON: 20.02 +20.0 19.70 - 4.6 33.0 0D 13 460E 091F Alarm State:  0
Sat Jun 23 04:10:06 PDT 2018 ON: 20.01 +20.0 19.63 - 2.4 34.0 00 14 4626 0904 Alarm State:  0
Sat Jun 23 04:09:05 PDT 2018 ON: 20.02 +20.0 19.68 - 4.0 33.4 02 14 452C 0916 Alarm State:  0
Sat Jun 23 04:08:03 PDT 2018 ON: 20.04 +20.0 19.69 - 4.6 32.8 02 14 4529 0914 Alarm State:  0
Sat Jun 23 04:07:02 PDT 2018 ON: 19.98 +20.0 19.65 - 3.4 33.7 02 14 452F 092D Alarm State:  0
Sat Jun 23 04:06:00 PDT 2018 ON: 20.04 +20.0 19.72 - 4.8 32.8 0A 13 4605 0A07 Alarm State:  0
Sat Jun 23 04:04:59 PDT 2018 ON: 19.97 +20.0 19.60 - 2.4 34.2 01 14 462F 0929 Alarm State:  0
Sat Jun 23 04:03:57 PDT 2018 ON: 20.00 +20.0 19.70 - 4.6 32.9 08 14 461C 0A17 Alarm State:  0
Sat Jun 23 04:02:56 PDT 2018 ON: 19.96 +20.0 19.59 - 2.1 34.2 04 14 471B 092D Alarm State:  0
Sat Jun 23 04:01:54 PDT 2018 ON: 20.00 +20.0 19.66 - 3.4 33.8 00 14 470C 0925 Alarm State:  0
Sat Jun 23 04:00:53 PDT 2018 ON: 20.00 +20.0 19.67 - 3.8 33.4 05 14 4623 090D Alarm State:  0
Sat Jun 23 03:59:51 PDT 2018 ON: 20.02 +20.0 19.71 - 5.0 32.4 08 13 4624 091C Alarm State:  0
Sat Jun 23 03:58:50 PDT 2018 ON: 19.98 +20.0 19.61 - 2.4 34.1 07 14 4709 0929 Alarm State:  0
Sat Jun 23 03:57:48 PDT 2018 ON: 19.99 +20.0 19.65 - 2.9 34.1 0A 14 4716 090F Alarm State:  0
Sat Jun 23 03:56:47 PDT 2018 ON: 20.02 +20.0 19.69 - 3.6 33.8 0D 14 4710 0908 Alarm State:  0
Sat Jun 23 03:55:45 PDT 2018 ON: 19.99 +20.0 19.66 - 3.1 34.0 0A 14 4713 092B Alarm State:  0
Sat Jun 23 03:54:44 PDT 2018 ON: 20.01 +20.0 19.68 - 3.4 33.9 05 14 470F 091E Alarm State:  0
Sat Jun 23 03:53:42 PDT 2018 ON: 20.03 +20.0 19.70 - 3.9 33.7 0D 13 4619 0905 Alarm State:  0
Sat Jun 23 03:52:41 PDT 2018 ON: 19.99 +20.0 19.71 - 4.7 32.9 0D 13 4528 0916 Alarm State:  0
Sat Jun 23 03:51:39 PDT 2018 ON: 19.97 +20.0 19.60 - 2.1 34.2 00 14 4614 090D Alarm State:  0
Sat Jun 23 03:50:38 PDT 2018 ON: 20.01 +20.0 19.69 - 4.2 33.1 07 14 452D 090E Alarm State:  0
Sat Jun 23 03:49:36 PDT 2018 ON: 20.02 +20.0 19.69 - 4.7 32.8 02 14 4609 091F Alarm State:  0
Sat Jun 23 03:48:35 PDT 2018 ON: 19.99 +20.0 19.64 - 3.5 33.4 0C 14 4617 092A Alarm State:  0
Sat Jun 23 03:47:33 PDT 2018 ON: 20.03 +20.0 19.69 - 4.7 32.6 0D 14 4701 091B Alarm State:  0
Sat Jun 23 03:46:32 PDT 2018 ON: 20.00 +20.0 19.63 - 2.7 34.0 07 14 4711 0923 Alarm State:  0
Sat Jun 23 03:45:30 PDT 2018 ON: 20.01 +20.0 19.68 - 4.0 33.0 05 14 4708 0925 Alarm State:  0
Sat Jun 23 03:44:29 PDT 2018 ON: 20.01 +20.0 19.70 - 4.1 33.3 0D 13 4720 0902 Alarm State:  0
Sat Jun 23 03:43:27 PDT 2018 ON: 20.03 +20.0 19.71 - 4.8 32.8 0A 13 4626 0916 Alarm State:  0
Sat Jun 23 03:42:26 PDT 2018 ON: 19.99 +20.0 19.63 - 2.7 34.0 02 14 4620 090F Alarm State:  0
Sat Jun 23 03:41:25 PDT 2018 ON: 19.99 +20.0 19.64 - 2.9 34.0 00 14 4603 091B Alarm State:  0
Sat Jun 23 03:40:23 PDT 2018 ON: 20.00 +20.0 19.70 - 4.6 33.0 05 14 4510 0A2A Alarm State:  0
Sat Jun 23 03:39:22 PDT 2018 ON: 19.98 +20.0 19.60 - 2.3 34.0 01 14 4618 0A01 Alarm State:  0
Sat Jun 23 03:38:20 PDT 2018 ON: 19.99 +20.0 19.66 - 3.9 33.4 05 14 462C 0A14 Alarm State:  0
Sat Jun 23 03:37:19 PDT 2018 ON: 20.00 +20.0 19.61 - 2.1 34.0 02 14 4803 0911 Alarm State:  0
Sat Jun 23 03:36:17 PDT 2018 ON: 20.00 +20.0 19.66 - 3.2 33.7 00 14 471C 0916 Alarm State:  0
Sat Jun 23 03:35:16 PDT 2018 ON: 20.01 +20.0 19.60 - 2.6 33.9 04 14 470B 091A Alarm State:  0
Sat Jun 23 03:34:14 PDT 2018 ON: 19.99 +20.0 19.69 - 4.2 33.0 00 14 460E 0929 Alarm State:  0
Sat Jun 23 03:33:13 PDT 2018 ON: 20.00 +20.0 19.65 - 3.4 33.5 00 14 470C 091E Alarm State:  0
Sat Jun 23 03:32:11 PDT 2018 ON: 20.00 +20.0 19.66 - 3.1 34.0 05 14 462D 091F Alarm State:  0
Sat Jun 23 03:31:10 PDT 2018 ON: 19.99 +20.0 19.70 - 4.3 32.8 0A 14 462C 0A15 Alarm State:  0
Sat Jun 23 03:30:08 PDT 2018 ON: 20.00 +20.0 19.62 - 3.0 33.6 00 14 4728 0928 Alarm State:  0
Sat Jun 23 03:29:07 PDT 2018 ON: 20.02 +20.0 19.62 - 2.9 33.8 02 14 470E 090C Alarm State:  0
Sat Jun 23 03:28:05 PDT 2018 ON: 20.01 +20.0 19.69 - 4.2 33.1 0A 14 4612 0920 Alarm State:  0
Sat Jun 23 03:27:04 PDT 2018 ON: 20.02 +20.0 19.63 - 3.5 33.5 00 14 4630 0900 Alarm State:  0
Sat Jun 23 03:26:02 PDT 2018 ON: 20.00 +20.0 19.64 - 3.4 33.8 05 14 4623 0928 Alarm State:  0
Sat Jun 23 03:25:01 PDT 2018 ON: 20.03 +20.0 19.74 - 5.1 32.5 0A 11 462B 0914 Alarm State:  0
Sat Jun 23 03:23:59 PDT 2018 ON: 19.98 +20.0 19.60 - 2.2 34.2 07 14 4713 090F Alarm State:  0
Sat Jun 23 03:22:58 PDT 2018 ON: 19.99 +20.0 19.70 - 4.2 33.0 0D 13 4630 090C Alarm State:  0
Sat Jun 23 03:21:56 PDT 2018 ON: 20.02 +20.0 19.65 - 3.5 33.4 00 14 471E 090D Alarm State:  0
Sat Jun 23 03:20:55 PDT 2018 ON: 20.01 +20.0 19.66 - 3.7 33.5 00 14 4704 091C Alarm State:  0
Sat Jun 23 03:19:53 PDT 2018 ON: 20.03 +20.0 19.67 - 4.6 32.8 02 14 460A 0907 Alarm State:  0
Sat Jun 23 03:18:52 PDT 2018 ON: 19.96 +20.0 19.65 - 3.3 33.8 0A 14 4608 092A Alarm State:  0
Sat Jun 23 03:17:50 PDT 2018 ON: 20.01 +20.0 19.71 - 4.8 32.6 0A 13 4613 0A04 Alarm State:  0
Sat Jun 23 03:16:49 PDT 2018 ON: 19.99 +20.0 19.61 - 2.2 34.0 07 14 4706 0920 Alarm State:  0
Sat Jun 23 03:15:47 PDT 2018 ON: 19.99 +20.0 19.62 - 2.8 34.1 0C 14 470D 0910 Alarm State:  0
Sat Jun 23 03:14:46 PDT 2018 ON: 20.03 +20.0 19.68 - 3.9 33.5 00 14 4701 090D Alarm State:  0
Sat Jun 23 03:13:44 PDT 2018 ON: 20.02 +20.0 19.72 - 4.9 32.7 0D 12 4621 0913 Alarm State:  0
Sat Jun 23 03:12:43 PDT 2018 ON: 19.98 +20.0 19.57 - 2.1 34.2 04 14 470A 090D Alarm State:  0
Sat Jun 23 03:11:41 PDT 2018 ON: 20.02 +20.0 19.68 - 4.0 33.5 05 14 4622 090B Alarm State:  0
Sat Jun 23 03:10:40 PDT 2018 ON: 20.01 +20.0 19.73 - 4.8 32.9 0D 12 4608 0912 Alarm State:  0
Sat Jun 23 03:09:38 PDT 2018 ON: 19.99 +20.0 19.61 - 2.4 34.0 01 14 4617 0925 Alarm State:  0
Sat Jun 23 03:08:37 PDT 2018 ON: 19.98 +20.0 19.66 - 4.2 33.1 05 14 4609 0A26 Alarm State:  0
Sat Jun 23 03:07:35 PDT 2018 ON: 19.97 +20.0 19.59 - 1.9 34.2 00 14 4713 091D Alarm State:  0
Sat Jun 23 03:06:34 PDT 2018 ON: 20.03 +20.0 19.70 - 4.1 33.4 0D 13 4624 091C Alarm State:  0
Sat Jun 23 03:05:32 PDT 2018 ON: 19.99 +20.0 19.61 - 2.3 34.1 01 14 462B 090E Alarm State:  0
Sat Jun 23 03:04:31 PDT 2018 ON: 20.01 +20.0 19.68 - 4.2 33.0 07 14 461B 0A11 Alarm State:  0
Sat Jun 23 03:03:29 PDT 2018 ON: 20.02 +20.0 19.62 - 3.1 33.6 00 14 471D 0920 Alarm State:  0
Sat Jun 23 03:02:28 PDT 2018 ON: 19.99 +20.0 19.67 - 3.6 33.5 05 14 4632 092B Alarm State:  0
Sat Jun 23 03:01:26 PDT 2018 ON: 20.03 +20.0 19.72 - 4.8 32.8 0A 12 4700 0915 Alarm State:  0
Sat Jun 23 03:00:25 PDT 2018 ON: 20.00 +20.0 19.62 - 3.4 33.4 00 14 4631 090E Alarm State:  0
Sat Jun 23 02:59:23 PDT 2018 ON: 19.97 +20.0 19.61 - 2.7 34.0 00 14 4628 0906 Alarm State:  0
Sat Jun 23 02:58:22 PDT 2018 ON: 19.99 +20.0 19.69 - 3.8 33.4 05 14 4622 092A Alarm State:  0
Sat Jun 23 02:57:20 PDT 2018 ON: 20.01 +20.0 19.73 - 4.7 32.9 0D 12 4623 091B Alarm State:  0
Sat Jun 23 02:56:19 PDT 2018 ON: 19.98 +20.0 19.60 - 2.3 34.2 04 14 4708 0913 Alarm State:  0
Sat Jun 23 02:55:18 PDT 2018 ON: 20.01 +20.0 19.69 - 4.4 33.1 07 14 4624 0909 Alarm State:  0
Sat Jun 23 02:54:16 PDT 2018 ON: 20.01 +20.0 19.60 - 2.3 34.0 00 14 4717 0909 Alarm State:  0
Sat Jun 23 02:53:15 PDT 2018 ON: 20.01 +20.0 19.68 - 4.0 33.2 07 14 4625 0911 Alarm State:  0
Sat Jun 23 02:52:13 PDT 2018 ON: 20.02 +20.0 19.69 - 4.4 33.0 0D 14 4706 0915 Alarm State:  0
Sat Jun 23 02:51:12 PDT 2018 ON: 20.01 +20.0 19.63 - 2.4 34.1 00 14 4717 091C Alarm State:  0
Sat Jun 23 02:50:10 PDT 2018 ON: 20.00 +20.0 19.68 - 3.4 33.9 02 14 462E 0925 Alarm State:  0
Sat Jun 23 02:49:09 PDT 2018 ON: 20.02 +20.0 19.70 - 4.3 33.1 0D 13 460B 0908 Alarm State:  0
Sat Jun 23 02:48:07 PDT 2018 ON: 20.05 +20.0 19.68 - 4.7 32.7 00 14 4600 0906 Alarm State:  0
Sat Jun 23 02:47:06 PDT 2018 ON: 19.98 +20.0 19.66 - 3.6 33.5 05 14 452D 0920 Alarm State:  0
Sat Jun 23 02:46:04 PDT 2018 ON: 20.00 +20.0 19.70 - 4.8 32.7 08 13 4609 091B Alarm State:  0
Sat Jun 23 02:45:03 PDT 2018 ON: 19.97 +20.0 19.61 - 2.5 34.1 07 14 4627 091C Alarm State:  0
Sat Jun 23 02:44:01 PDT 2018 ON: 19.99 +20.0 19.67 - 3.5 33.8 02 14 4701 090A Alarm State:  0
Sat Jun 23 02:43:00 PDT 2018 ON: 20.01 +20.0 19.69 - 4.4 33.2 00 14 4630 0926 Alarm State:  0
Sat Jun 23 02:41:58 PDT 2018 ON: 20.01 +20.0 19.72 - 5.0 32.6 0A 12 461B 0926 Alarm State:  0
Sat Jun 23 02:40:57 PDT 2018 ON: 19.98 +20.0 19.61 - 2.7 34.1 02 14 470E 091D Alarm State:  0
Sat Jun 23 02:39:55 PDT 2018 ON: 20.01 +20.0 19.70 - 3.9 33.7 0D 13 470B 0928 Alarm State:  0
Sat Jun 23 02:38:54 PDT 2018 ON: 20.01 +20.0 19.69 - 4.2 32.9 07 14 4622 0912 Alarm State:  0
Sat Jun 23 02:37:52 PDT 2018 ON: 20.04 +20.0 19.69 - 4.6 33.0 05 14 4704 0927 Alarm State:  0
Sat Jun 23 02:36:51 PDT 2018 ON: 20.00 +20.0 19.65 - 3.3 34.0 0A 14 4627 0924 Alarm State:  0
Sat Jun 23 02:35:49 PDT 2018 ON: 20.03 +20.0 19.71 - 4.5 33.0 0A 13 460E 0920 Alarm State:  0
Sat Jun 23 02:34:48 PDT 2018 ON: 20.00 +20.0 19.61 - 2.6 33.8 00 14 4630 0921 Alarm State:  0
Sat Jun 23 02:33:46 PDT 2018 ON: 19.98 +20.0 19.68 - 4.0 33.0 07 14 4619 0929 Alarm State:  0
Sat Jun 23 02:32:45 PDT 2018 ON: 20.02 +20.0 19.69 - 4.1 33.2 05 14 4706 091D Alarm State:  0
Sat Jun 23 02:31:43 PDT 2018 ON: 20.01 +20.0 19.69 - 4.4 33.0 00 14 4618 0900 Alarm State:  0
Sat Jun 23 02:30:42 PDT 2018 ON: 20.00 +20.0 19.62 - 2.8 33.8 00 14 462A 0908 Alarm State:  0
Sat Jun 23 02:29:40 PDT 2018 ON: 19.98 +20.0 19.67 - 3.8 33.2 05 14 4623 0929 Alarm State:  0
Sat Jun 23 02:28:39 PDT 2018 ON: 20.03 +20.0 19.71 - 4.5 33.0 0D 13 4708 0901 Alarm State:  0
Sat Jun 23 02:27:37 PDT 2018 ON: 20.01 +20.0 19.61 - 2.9 33.9 05 14 4709 091A Alarm State:  0
Sat Jun 23 02:26:36 PDT 2018 ON: 19.99 +20.0 19.67 - 3.7 33.4 00 14 4632 0927 Alarm State:  0
Sat Jun 23 02:25:34 PDT 2018 ON: 20.02 +20.0 19.69 - 4.4 33.1 0A 14 4708 0907 Alarm State:  0
Sat Jun 23 02:24:33 PDT 2018 ON: 20.02 +20.0 19.67 - 4.3 33.0 00 14 4627 0912 Alarm State:  0
Sat Jun 23 02:23:31 PDT 2018 ON: 19.97 +20.0 19.66 - 3.4 33.5 00 14 462A 092C Alarm State:  0
Sat Jun 23 02:22:30 PDT 2018 ON: 20.02 +20.0 19.71 - 4.5 33.1 0D 13 4703 0903 Alarm State:  0
Sat Jun 23 02:21:28 PDT 2018 ON: 20.01 +20.0 19.71 - 4.2 33.2 0D 13 461D 0913 Alarm State:  0
Sat Jun 23 02:20:27 PDT 2018 ON: 20.03 +20.0 19.72 - 4.8 32.9 0D 12 4613 091E Alarm State:  0
Sat Jun 23 02:19:25 PDT 2018 ON: 19.99 +20.0 19.61 - 2.4 34.1 09 14 4624 0906 Alarm State:  0
Sat Jun 23 02:18:24 PDT 2018 ON: 20.00 +20.0 19.68 - 4.4 32.9 05 14 4612 092A Alarm State:  0
Sat Jun 23 02:17:22 PDT 2018 ON: 20.03 +20.0 19.70 - 4.3 33.1 0D 13 4704 0901 Alarm State:  0
Sat Jun 23 02:16:21 PDT 2018 ON: 19.98 +20.0 19.61 - 2.3 34.0 05 14 471A 090F Alarm State:  0
Sat Jun 23 02:15:19 PDT 2018 ON: 20.00 +20.0 19.65 - 3.1 33.9 07 14 4703 0913 Alarm State:  0
Sat Jun 23 02:14:18 PDT 2018 ON: 19.99 +20.0 19.68 - 3.9 33.3 07 14 4622 091E Alarm State:  0
Sat Jun 23 02:13:16 PDT 2018 ON: 20.01 +20.0 19.66 - 3.6 33.5 00 14 471A 090D Alarm State:  0
Sat Jun 23 02:12:15 PDT 2018 ON: 20.03 +20.0 19.66 - 4.2 33.1 00 14 461D 0922 Alarm State:  0
Sat Jun 23 02:11:13 PDT 2018 ON: 19.99 +20.0 19.64 - 3.0 34.0 0C 14 4618 091A Alarm State:  0
Sat Jun 23 02:10:12 PDT 2018 ON: 20.01 +20.0 19.70 - 4.4 32.8 0D 14 460E 0A15 Alarm State:  0
Sat Jun 23 02:09:10 PDT 2018 ON: 20.03 +20.0 19.68 - 4.2 33.2 00 14 4702 0909 Alarm State:  0
Sat Jun 23 02:08:09 PDT 2018 ON: 19.99 +20.0 19.65 - 3.3 33.9 02 14 4706 092A Alarm State:  0
Sat Jun 23 02:07:07 PDT 2018 ON: 20.05 +20.0 19.71 - 4.8 32.9 0D 13 4703 090A Alarm State:  0
Sat Jun 23 02:06:06 PDT 2018 ON: 19.99 +20.0 19.61 - 2.7 33.9 00 14 470B 0920 Alarm State:  0
Sat Jun 23 02:05:04 PDT 2018 ON: 20.00 +20.0 19.69 - 4.1 33.1 05 14 4618 092A Alarm State:  0
Sat Jun 23 02:04:03 PDT 2018 ON: 20.01 +20.0 19.69 - 4.6 32.9 08 14 4701 090A Alarm State:  0
Sat Jun 23 02:03:01 PDT 2018 ON: 19.97 +20.0 19.64 - 3.3 33.7 00 14 470C 091F Alarm State:  0
Sat Jun 23 02:02:00 PDT 2018 ON: 20.03 +20.0 19.71 - 4.8 32.9 0A 13 4708 090A Alarm State:  0
Sat Jun 23 02:00:58 PDT 2018 ON: 19.98 +20.0 19.64 - 2.8 34.0 07 14 4709 0927 Alarm State:  0
Sat Jun 23 01:59:57 PDT 2018 ON: 20.01 +20.0 19.70 - 4.2 33.2 0D 13 462A 0905 Alarm State:  0
Sat Jun 23 01:58:55 PDT 2018 ON: 20.02 +20.0 19.71 - 4.8 32.8 0D 13 4629 0920 Alarm State:  0
Sat Jun 23 01:57:54 PDT 2018 ON: 19.99 +20.0 19.59 - 2.1 34.1 01 14 4712 0910 Alarm State:  0
Sat Jun 23 01:56:52 PDT 2018 ON: 20.01 +20.0 19.69 - 4.3 33.2 02 14 462E 0914 Alarm State:  0
Sat Jun 23 01:55:51 PDT 2018 ON: 20.00 +20.0 19.64 - 3.3 33.5 00 14 472D 0904 Alarm State:  0
Sat Jun 23 01:54:49 PDT 2018 ON: 19.98 +20.0 19.66 - 3.7 33.2 00 14 472A 0930 Alarm State:  0
Sat Jun 23 01:53:48 PDT 2018 ON: 20.02 +20.0 19.70 - 4.1 33.3 0D 13 480F 0905 Alarm State:  0
Sat Jun 23 01:52:46 PDT 2018 ON: 20.00 +20.0 19.68 - 3.9 33.4 07 14 4729 090D Alarm State:  0
Sat Jun 23 01:51:45 PDT 2018 ON: 20.03 +20.0 19.70 - 4.2 33.1 0D 13 4719 0920 Alarm State:  0
Sat Jun 23 01:50:43 PDT 2018 ON: 20.03 +20.0 19.68 - 3.8 33.6 00 14 4710 091E Alarm State:  0
Sat Jun 23 01:49:42 PDT 2018 ON: 20.01 +20.0 19.65 - 2.8 33.9 05 14 462C 0926 Alarm State:  0
Sat Jun 23 01:48:40 PDT 2018 ON: 20.00 +20.0 19.67 - 4.0 33.3 00 14 4602 090C Alarm State:  0
Sat Jun 23 01:47:39 PDT 2018 ON: 20.05 +20.0 19.72 - 4.6 32.9 0A 12 460D 091B Alarm State:  0
Sat Jun 23 01:46:37 PDT 2018 ON: 19.99 +20.0 19.60 - 2.4 33.9 04 14 461D 0927 Alarm State:  0
Sat Jun 23 01:45:36 PDT 2018 ON: 19.98 +20.0 19.66 - 3.7 33.4 00 14 4614 0A17 Alarm State:  0
Sat Jun 23 01:44:34 PDT 2018 ON: 20.02 +20.0 19.62 - 2.6 33.8 05 14 4717 0923 Alarm State:  0
Sat Jun 23 01:43:33 PDT 2018 ON: 19.99 +20.0 19.65 - 3.3 33.9 0A 14 4627 0929 Alarm State:  0
Sat Jun 23 01:42:31 PDT 2018 ON: 20.02 +20.0 19.69 - 4.2 33.1 00 14 4617 0926 Alarm State:  0
Sat Jun 23 01:41:30 PDT 2018 ON: 20.05 +20.0 19.68 - 4.6 32.7 02 14 461C 0924 Alarm State:  0
Sat Jun 23 01:40:29 PDT 2018 ON: 19.97 +20.0 19.61 - 2.5 34.1 07 14 4620 0915 Alarm State:  0
Sat Jun 23 01:39:27 PDT 2018 ON: 19.99 +20.0 19.67 - 3.2 33.9 05 14 460B 091B Alarm State:  0
Sat Jun 23 01:38:26 PDT 2018 ON: 20.00 +20.0 19.70 - 4.2 33.2 00 13 4520 092A Alarm State:  0
Sat Jun 23 01:37:24 PDT 2018 ON: 19.99 +20.0 19.61 - 2.6 33.8 00 14 4624 0913 Alarm State:  0
Sat Jun 23 01:36:23 PDT 2018 ON: 20.00 +20.0 19.66 - 3.9 33.1 07 14 461A 0A10 Alarm State:  0
Sat Jun 23 01:35:21 PDT 2018 ON: 20.01 +20.0 19.64 - 3.3 33.5 00 14 4720 0919 Alarm State:  0
Sat Jun 23 01:34:20 PDT 2018 ON: 20.02 +20.0 19.66 - 3.9 33.3 00 14 4631 0924 Alarm State:  0
Sat Jun 23 01:33:18 PDT 2018 ON: 20.01 +20.0 19.61 - 2.4 33.9 04 14 4630 0916 Alarm State:  0
Sat Jun 23 01:32:17 PDT 2018 ON: 19.99 +20.0 19.68 - 4.1 32.9 05 14 4618 0A19 Alarm State:  0
Sat Jun 23 01:31:15 PDT 2018 ON: 20.01 +20.0 19.68 - 4.1 33.1 00 14 470C 0A0B Alarm State:  0
Sat Jun 23 01:30:14 PDT 2018 ON: 19.96 +20.0 19.60 - 2.5 34.2 01 14 472C 0A01 Alarm State:  0
Sat Jun 23 01:29:12 PDT 2018 ON: 20.00 +20.0 19.67 - 3.3 33.9 00 14 4725 0919 Alarm State:  0
Sat Jun 23 01:28:11 PDT 2018 ON: 20.00 +20.0 19.67 - 3.2 34.0 0A 14 4719 0922 Alarm State:  0
Sat Jun 23 01:27:09 PDT 2018 ON: 20.01 +20.0 19.68 - 4.0 33.4 00 14 462F 0905 Alarm State:  0
Sat Jun 23 01:26:08 PDT 2018 ON: 20.02 +20.0 19.69 - 3.8 33.6 0D 14 4708 0908 Alarm State:  0
Sat Jun 23 01:25:06 PDT 2018 ON: 20.03 +20.0 19.70 - 4.3 33.2 0D 13 462A 090C Alarm State:  0
Sat Jun 23 01:24:05 PDT 2018 ON: 20.03 +20.0 19.67 - 4.0 33.2 00 14 4610 091B Alarm State:  0
Sat Jun 23 01:23:03 PDT 2018 ON: 20.00 +20.0 19.68 - 3.9 33.1 00 14 452C 0A19 Alarm State:  0
Sat Jun 23 01:22:02 PDT 2018 ON: 20.00 +20.0 19.68 - 4.4 32.9 00 14 4621 0A0F Alarm State:  0
Sat Jun 23 01:21:00 PDT 2018 ON: 19.97 +20.0 19.63 - 3.4 33.3 00 14 462E 0A0E Alarm State:  0
Sat Jun 23 01:19:59 PDT 2018 ON: 20.02 +20.0 19.70 - 4.3 33.0 0A 13 471B 0901 Alarm State:  0
Sat Jun 23 01:18:57 PDT 2018 ON: 19.99 +20.0 19.59 - 2.4 34.0 00 14 4728 090E Alarm State:  0
Sat Jun 23 01:17:56 PDT 2018 ON: 19.99 +20.0 19.68 - 3.8 33.4 05 14 470E 0919 Alarm State:  0
Sat Jun 23 01:16:54 PDT 2018 ON: 20.02 +20.0 19.70 - 4.4 33.1 0D 13 4711 0928 Alarm State:  0
Sat Jun 23 01:15:53 PDT 2018 ON: 20.02 +20.0 19.62 - 2.5 33.9 02 14 4723 0915 Alarm State:  0
Sat Jun 23 01:14:51 PDT 2018 ON: 20.02 +20.0 19.70 - 3.8 33.5 0D 13 4629 0900 Alarm State:  0
Sat Jun 23 01:13:50 PDT 2018 ON: 20.02 +20.0 19.71 - 4.8 32.8 0D 13 4615 0901 Alarm State:  0
Sat Jun 23 01:12:48 PDT 2018 ON: 20.01 +20.0 19.63 - 3.4 33.5 00 14 462C 0912 Alarm State:  0
Sat Jun 23 01:11:47 PDT 2018 ON: 19.97 +20.0 19.64 - 2.9 34.0 05 14 4622 0A0B Alarm State:  0
Sat Jun 23 01:10:45 PDT 2018 ON: 19.98 +20.0 19.68 - 4.2 33.1 05 14 462D 0A1E Alarm State:  0
Sat Jun 23 01:09:44 PDT 2018 ON: 19.98 +20.0 19.58 - 1.7 34.2 09 14 4805 0912 Alarm State:  0
Sat Jun 23 01:08:42 PDT 2018 ON: 20.00 +20.0 19.68 - 3.6 33.7 05 14 4727 0912 Alarm State:  0
Sat Jun 23 01:07:41 PDT 2018 ON: 20.03 +20.0 19.71 - 4.0 33.7 0D 13 4709 0919 Alarm State:  0
Sat Jun 23 01:06:39 PDT 2018 ON: 20.00 +20.0 19.69 - 4.0 33.3 07 14 461B 0A02 Alarm State:  0
Sat Jun 23 01:05:38 PDT 2018 ON: 20.03 +20.0 19.72 - 4.8 32.8 08 12 462B 0913 Alarm State:  0
Sat Jun 23 01:04:36 PDT 2018 ON: 19.99 +20.0 19.62 - 2.8 34.1 05 14 4711 0929 Alarm State:  0
Sat Jun 23 01:03:35 PDT 2018 ON: 20.01 +20.0 19.71 - 4.6 33.0 0D 13 4701 0922 Alarm State:  0
Sat Jun 23 01:02:33 PDT 2018 ON: 20.02 +20.0 19.64 - 3.3 33.5 00 14 4712 090A Alarm State:  0
Sat Jun 23 01:01:32 PDT 2018 ON: 20.00 +20.0 19.63 - 3.4 33.6 00 14 4631 0913 Alarm State:  0
Sat Jun 23 01:00:30 PDT 2018 ON: 19.97 +20.0 19.62 - 2.9 34.0 07 14 4632 0909 Alarm State:  0
Sat Jun 23 00:59:29 PDT 2018 ON: 19.99 +20.0 19.68 - 3.8 33.4 05 14 4632 092F Alarm State:  0
Sat Jun 23 00:58:27 PDT 2018 ON: 20.01 +20.0 19.72 - 4.6 33.0 0D 12 4702 0915 Alarm State:  0
Sat Jun 23 00:57:26 PDT 2018 ON: 20.03 +20.0 19.66 - 4.1 33.3 00 14 4629 0918 Alarm State:  0
Sat Jun 23 00:56:24 PDT 2018 ON: 20.00 +20.0 19.66 - 3.5 33.8 05 14 461A 0912 Alarm State:  0
Sat Jun 23 00:55:23 PDT 2018 ON: 20.03 +20.0 19.71 - 5.2 32.7 0A 13 460C 0907 Alarm State:  0
Sat Jun 23 00:54:21 PDT 2018 ON: 20.00 +20.0 19.63 - 2.9 34.0 07 14 4619 0912 Alarm State:  0
Sat Jun 23 00:53:20 PDT 2018 ON: 19.98 +20.0 19.67 - 4.2 32.8 07 14 4617 0A0B Alarm State:  0
Sat Jun 23 00:52:18 PDT 2018 ON: 20.03 +20.0 19.68 - 4.1 33.2 02 14 4711 0920 Alarm State:  0
Sat Jun 23 00:51:17 PDT 2018 ON: 20.00 +20.0 19.70 - 4.2 33.2 0D 13 4705 0906 Alarm State:  0
Sat Jun 23 00:50:15 PDT 2018 ON: 20.02 +20.0 19.69 - 4.6 33.1 08 14 4708 0923 Alarm State:  0
Sat Jun 23 00:49:14 PDT 2018 ON: 20.00 +20.0 19.70 - 4.3 33.3 0D 13 4621 090B Alarm State:  0
Sat Jun 23 00:48:12 PDT 2018 ON: 20.00 +20.0 19.70 - 4.4 32.9 0D 13 4620 0907 Alarm State:  0
Sat Jun 23 00:47:11 PDT 2018 ON: 20.02 +20.0 19.70 - 4.6 32.9 08 13 462A 091F Alarm State:  0
Sat Jun 23 00:46:09 PDT 2018 ON: 20.02 +20.0 19.69 - 4.6 32.9 00 14 460D 0900 Alarm State:  0
Sat Jun 23 00:45:08 PDT 2018 ON: 20.02 +20.0 19.61 - 3.2 33.5 00 14 461F 090E Alarm State:  0
Sat Jun 23 00:44:06 PDT 2018 ON: 19.99 +20.0 19.69 - 4.4 33.1 07 14 4531 0A1C Alarm State:  0
Sat Jun 23 00:43:05 PDT 2018 ON: 20.00 +20.0 19.60 - 2.5 33.9 00 14 4709 091C Alarm State:  0
Sat Jun 23 00:42:03 PDT 2018 ON: 20.00 +20.0 19.67 - 3.7 33.6 0A 14 462D 0920 Alarm State:  0
Sat Jun 23 00:41:02 PDT 2018 ON: 19.98 +20.0 19.62 - 2.7 33.9 00 14 4716 090B Alarm State:  0
Sat Jun 23 00:40:00 PDT 2018 ON: 20.02 +20.0 19.62 - 3.0 33.7 00 14 4723 0905 Alarm State:  0
Sat Jun 23 00:38:59 PDT 2018 ON: 20.02 +20.0 19.67 - 3.8 33.7 05 14 4702 0915 Alarm State:  0
Sat Jun 23 00:37:57 PDT 2018 ON: 20.01 +20.0 19.71 - 5.1 32.6 08 13 4627 0A14 Alarm State:  0
Sat Jun 23 00:36:56 PDT 2018 ON: 19.98 +20.0 19.60 - 2.8 34.1 01 14 4721 092B Alarm State:  0
Sat Jun 23 00:35:54 PDT 2018 ON: 20.01 +20.0 19.69 - 3.7 33.8 0D 14 471F 0914 Alarm State:  0
Sat Jun 23 00:34:53 PDT 2018 ON: 19.99 +20.0 19.66 - 3.4 33.9 02 14 4702 0922 Alarm State:  0
Sat Jun 23 00:33:51 PDT 2018 ON: 20.00 +20.0 19.69 - 4.7 32.8 05 14 461F 092B Alarm State:  0
Sat Jun 23 00:32:50 PDT 2018 ON: 19.99 +20.0 19.62 - 2.4 33.9 07 14 471F 0904 Alarm State:  0
Sat Jun 23 00:31:48 PDT 2018 ON: 20.01 +20.0 19.67 - 3.8 33.2 05 14 471D 0A01 Alarm State:  0
Sat Jun 23 00:30:47 PDT 2018 ON: 20.04 +20.0 19.69 - 4.4 33.1 0D 14 472C 0903 Alarm State:  0
Sat Jun 23 00:29:45 PDT 2018 ON: 20.01 +20.0 19.69 - 4.2 33.1 0A 14 471A 0912 Alarm State:  0
Sat Jun 23 00:28:44 PDT 2018 ON: 20.03 +20.0 19.68 - 3.9 33.4 00 14 4725 0904 Alarm State:  0
Sat Jun 23 00:27:42 PDT 2018 ON: 20.02 +20.0 19.71 - 5.2 32.4 08 13 4628 0919 Alarm State:  0
Sat Jun 23 00:26:41 PDT 2018 ON: 19.97 +20.0 19.64 - 3.2 33.9 00 14 4700 0931 Alarm State:  0
Sat Jun 23 00:25:39 PDT 2018 ON: 20.01 +20.0 19.72 - 4.4 32.8 0D 12 4704 0914 Alarm State:  0
Sat Jun 23 00:24:38 PDT 2018 ON: 20.02 +20.0 19.64 - 3.9 33.2 00 14 4719 0900 Alarm State:  0
Sat Jun 23 00:23:36 PDT 2018 ON: 19.99 +20.0 19.64 - 3.2 34.0 0A 14 4709 092B Alarm State:  0
Sat Jun 23 00:22:35 PDT 2018 ON: 20.01 +20.0 19.67 - 3.4 33.9 0C 14 470C 0913 Alarm State:  0
Sat Jun 23 00:21:33 PDT 2018 ON: 20.02 +20.0 19.71 - 4.8 32.7 0A 13 4611 0920 Alarm State:  0
Sat Jun 23 00:20:32 PDT 2018 ON: 20.01 +20.0 19.62 - 3.4 33.5 00 14 470D 090F Alarm State:  0
Sat Jun 23 00:19:30 PDT 2018 ON: 19.97 +20.0 19.65 - 2.8 34.2 07 14 4727 092B Alarm State:  0
Sat Jun 23 00:18:29 PDT 2018 ON: 20.01 +20.0 19.69 - 3.9 33.7 08 14 471E 0915 Alarm State:  0
Sat Jun 23 00:17:27 PDT 2018 ON: 20.00 +20.0 19.68 - 3.9 33.4 07 14 4706 0928 Alarm State:  0
Sat Jun 23 00:16:26 PDT 2018 ON: 20.02 +20.0 19.72 - 4.5 33.4 0A 12 4701 0922 Alarm State:  0
Sat Jun 23 00:15:24 PDT 2018 ON: 20.01 +20.0 19.71 - 4.6 32.9 0D 13 4531 090E Alarm State:  0
Sat Jun 23 00:14:23 PDT 2018 ON: 20.01 +20.0 19.69 - 4.4 32.9 00 14 461F 090F Alarm State:  0
Sat Jun 23 00:13:21 PDT 2018 ON: 20.00 +20.0 19.61 - 2.4 34.0 00 14 4706 0919 Alarm State:  0
Sat Jun 23 00:12:20 PDT 2018 ON: 20.00 +20.0 19.68 - 4.1 33.2 00 14 462C 091B Alarm State:  0
Sat Jun 23 00:11:18 PDT 2018 ON: 20.03 +20.0 19.68 - 4.4 32.9 00 14 471D 0917 Alarm State:  0
Sat Jun 23 00:10:17 PDT 2018 ON: 19.99 +20.0 19.63 - 3.3 33.8 0C 14 4730 0916 Alarm State:  0
Sat Jun 23 00:09:15 PDT 2018 ON: 20.02 +20.0 19.70 - 4.6 33.2 0D 13 4801 0924 Alarm State:  0
Sat Jun 23 00:08:14 PDT 2018 ON: 20.00 +20.0 19.68 - 3.9 33.5 05 14 472B 0903 Alarm State:  0
Sat Jun 23 00:07:12 PDT 2018 ON: 20.02 +20.0 19.67 - 3.8 33.7 00 14 471D 0925 Alarm State:  0
Sat Jun 23 00:06:11 PDT 2018 ON: 20.00 +20.0 19.68 - 4.6 33.0 00 14 4615 0910 Alarm State:  0
Sat Jun 23 00:05:10 PDT 2018 ON: 20.01 +20.0 19.65 - 3.7 33.4 02 14 462D 0922 Alarm State:  0
Sat Jun 23 00:04:08 PDT 2018 ON: 20.00 +20.0 19.65 - 3.3 33.6 00 14 4618 0901 Alarm State:  0
Sat Jun 23 00:03:07 PDT 2018 ON: 20.00 +20.0 19.65 - 4.1 33.2 07 14 4608 0929 Alarm State:  0
Sat Jun 23 00:02:05 PDT 2018 ON: 20.02 +20.0 19.65 - 3.8 33.3 00 14 4702 091F Alarm State:  0
Sat Jun 23 00:01:04 PDT 2018 ON: 19.98 +20.0 19.65 - 3.8 33.1 05 14 4700 0A08 Alarm State:  0
Sat Jun 23 00:00:02 PDT 2018 ON: 20.04 +20.0 19.68 - 4.2 33.0 00 14 471B 0900 Alarm State:  0
Fri Jun 22 23:59:01 PDT 2018 ON: 20.01 +20.0 19.69 - 4.3 33.0 0D 14 4707 090F Alarm State:  0
Fri Jun 22 23:57:59 PDT 2018 ON: 20.01 +20.0 19.66 - 3.8 33.6 00 14 4712 0928 Alarm State:  0
Fri Jun 22 23:56:58 PDT 2018 ON: 19.99 +20.0 19.64 - 3.0 34.0 05 14 462B 090A Alarm State:  0
Fri Jun 22 23:55:56 PDT 2018 ON: 19.99 +20.0 19.69 - 3.9 33.6 02 14 460E 0912 Alarm State:  0
Fri Jun 22 23:54:55 PDT 2018 ON: 20.00 +20.0 19.71 - 4.4 33.0 0D 13 460E 0A0B Alarm State:  0
Fri Jun 22 23:53:53 PDT 2018 ON: 20.01 +20.0 19.66 - 3.9 33.2 02 14 470A 0928 Alarm State:  0
Fri Jun 22 23:52:52 PDT 2018 ON: 19.99 +20.0 19.61 - 2.7 34.1 0C 14 472A 0921 Alarm State:  0
Fri Jun 22 23:51:50 PDT 2018 ON: 20.02 +20.0 19.70 - 4.2 33.1 0D 13 471F 0911 Alarm State:  0
Fri Jun 22 23:50:49 PDT 2018 ON: 20.02 +20.0 19.68 - 4.2 33.2 00 14 4725 0906 Alarm State:  0
Fri Jun 22 23:49:47 PDT 2018 ON: 20.02 +20.0 19.70 - 4.8 32.8 0D 13 4629 091A Alarm State:  0
Fri Jun 22 23:48:46 PDT 2018 ON: 19.98 +20.0 19.62 - 2.6 34.0 05 14 4712 091D Alarm State:  0
Fri Jun 22 23:47:44 PDT 2018 ON: 19.98 +20.0 19.62 - 2.8 33.9 05 14 470F 091D Alarm State:  0
Fri Jun 22 23:46:43 PDT 2018 ON: 20.00 +20.0 19.68 - 4.4 32.9 07 14 461C 0A05 Alarm State:  0
Fri Jun 22 23:45:41 PDT 2018 ON: 20.02 +20.0 19.67 - 4.0 33.2 00 14 4710 0909 Alarm State:  0
Fri Jun 22 23:44:40 PDT 2018 ON: 19.98 +20.0 19.67 - 3.6 33.5 05 14 4707 092C Alarm State:  0
Fri Jun 22 23:43:38 PDT 2018 ON: 20.03 +20.0 19.70 - 4.6 33.2 0A 13 4713 090B Alarm State:  0
Fri Jun 22 23:42:37 PDT 2018 ON: 20.02 +20.0 19.70 - 4.9 32.8 0A 13 4625 091B Alarm State:  0
Fri Jun 22 23:41:35 PDT 2018 ON: 19.97 +20.0 19.58 - 2.2 34.2 00 14 4718 0907 Alarm State:  0
Fri Jun 22 23:40:34 PDT 2018 ON: 20.01 +20.0 19.68 - 4.2 33.1 00 14 462E 0907 Alarm State:  0
Fri Jun 22 23:39:32 PDT 2018 ON: 20.02 +20.0 19.68 - 4.4 33.1 00 14 470D 0925 Alarm State:  0
Fri Jun 22 23:38:31 PDT 2018 ON: 19.97 +20.0 19.63 - 2.9 34.0 05 14 4706 091B Alarm State:  0
Fri Jun 22 23:37:29 PDT 2018 ON: 20.01 +20.0 19.69 - 4.3 33.2 05 14 462D 0912 Alarm State:  0
Fri Jun 22 23:36:28 PDT 2018 ON: 20.01 +20.0 19.70 - 4.2 33.4 0D 13 4709 091F Alarm State:  0
Fri Jun 22 23:35:26 PDT 2018 ON: 20.03 +20.0 19.71 - 4.9 32.8 0A 13 4628 0920 Alarm State:  0
Fri Jun 22 23:34:25 PDT 2018 ON: 20.01 +20.0 19.63 - 2.9 33.7 02 14 4714 0928 Alarm State:  0
Fri Jun 22 23:33:23 PDT 2018 ON: 19.99 +20.0 19.67 - 4.1 33.2 00 14 4700 0A00 Alarm State:  0
Fri Jun 22 23:32:22 PDT 2018 ON: 20.02 +20.0 19.70 - 4.3 33.5 05 13 4711 090A Alarm State:  0
Fri Jun 22 23:31:20 PDT 2018 ON: 20.00 +20.0 19.71 - 4.3 33.4 0D 13 4616 091F Alarm State:  0
Fri Jun 22 23:30:18 PDT 2018 ON: 20.02 +20.0 19.69 - 4.3 33.3 05 14 4614 091E Alarm State:  0
Fri Jun 22 23:29:17 PDT 2018 ON: 20.02 +20.0 19.71 - 4.8 32.9 0A 13 4605 091C Alarm State:  0
Fri Jun 22 23:28:15 PDT 2018 ON: 20.02 +20.0 19.62 - 3.2 33.6 00 14 4621 0922 Alarm State:  0
Fri Jun 22 23:27:14 PDT 2018 ON: 20.01 +20.0 19.68 - 4.1 32.9 07 14 4618 092F Alarm State:  0
Fri Jun 22 23:26:12 PDT 2018 ON: 20.02 +20.0 19.69 - 4.2 33.2 05 14 4701 0923 Alarm State:  0
Fri Jun 22 23:25:11 PDT 2018 ON: 20.00 +20.0 19.63 - 3.4 33.6 00 14 4621 0927 Alarm State:  0
Fri Jun 22 23:24:09 PDT 2018 ON: 19.97 +20.0 19.67 - 4.1 33.0 05 14 461B 0928 Alarm State:  0
Fri Jun 22 23:23:08 PDT 2018 ON: 20.02 +20.0 19.71 - 4.4 33.4 0D 13 4630 091B Alarm State:  0
Fri Jun 22 23:22:06 PDT 2018 ON: 20.00 +20.0 19.69 - 4.0 33.5 02 14 4604 0901 Alarm State:  0
Fri Jun 22 23:21:05 PDT 2018 ON: 20.03 +20.0 19.73 - 5.2 32.6 0D 12 452A 0924 Alarm State:  0
Fri Jun 22 23:20:04 PDT 2018 ON: 20.00 +20.0 19.63 - 2.9 34.0 07 14 460D 0907 Alarm State:  0
Fri Jun 22 23:19:02 PDT 2018 ON: 20.01 +20.0 19.69 - 4.4 33.0 05 14 460A 0928 Alarm State:  0
Fri Jun 22 23:18:01 PDT 2018 ON: 19.99 +20.0 19.63 - 2.7 33.8 00 14 470F 090D Alarm State:  0
Fri Jun 22 23:16:59 PDT 2018 ON: 20.01 +20.0 19.64 - 2.9 34.0 07 14 4702 090D Alarm State:  0
Fri Jun 22 23:15:58 PDT 2018 ON: 19.99 +20.0 19.69 - 4.0 33.2 00 14 460F 0918 Alarm State:  0
Fri Jun 22 23:14:56 PDT 2018 ON: 20.02 +20.0 19.67 - 4.0 33.2 00 14 4624 091F Alarm State:  0
Fri Jun 22 23:13:55 PDT 2018 ON: 19.98 +20.0 19.65 - 2.9 34.1 0A 14 461C 0912 Alarm State:  0
Fri Jun 22 23:12:53 PDT 2018 ON: 20.00 +20.0 19.71 - 4.7 32.8 0D 13 4611 0A08 Alarm State:  0
Fri Jun 22 23:11:52 PDT 2018 ON: 20.00 +20.0 19.60 - 2.3 34.0 00 14 4714 0916 Alarm State:  0
Fri Jun 22 23:10:50 PDT 2018 ON: 20.00 +20.0 19.61 - 2.8 34.1 07 14 4715 0912 Alarm State:  0
Fri Jun 22 23:09:49 PDT 2018 ON: 19.99 +20.0 19.66 - 3.3 34.0 05 14 462C 091B Alarm State:  0
Fri Jun 22 23:08:47 PDT 2018 ON: 19.99 +20.0 19.68 - 4.5 32.8 05 14 460B 0927 Alarm State:  0
Fri Jun 22 23:07:46 PDT 2018 ON: 20.02 +20.0 19.67 - 4.2 33.1 02 14 4627 0903 Alarm State:  0
Fri Jun 22 23:06:44 PDT 2018 ON: 19.98 +20.0 19.64 - 3.3 33.9 02 14 462E 091E Alarm State:  0
Fri Jun 22 23:05:43 PDT 2018 ON: 20.02 +20.0 19.73 - 5.3 32.5 0D 12 4626 090C Alarm State:  0
Fri Jun 22 23:04:41 PDT 2018 ON: 19.99 +20.0 19.62 - 2.6 34.1 0C 14 4705 0914 Alarm State:  0
Fri Jun 22 23:03:40 PDT 2018 ON: 20.01 +20.0 19.69 - 4.1 33.5 05 14 4627 0916 Alarm State:  0
Fri Jun 22 23:02:38 PDT 2018 ON: 20.03 +20.0 19.71 - 4.6 33.2 0D 13 4621 0913 Alarm State:  0
Fri Jun 22 23:01:37 PDT 2018 ON: 20.01 +20.0 19.69 - 4.2 32.9 0D 14 4705 0926 Alarm State:  0
Fri Jun 22 23:00:35 PDT 2018 ON: 20.03 +20.0 19.69 - 4.2 33.0 05 14 4721 0914 Alarm State:  0
Fri Jun 22 22:59:34 PDT 2018 ON: 20.01 +20.0 19.62 - 3.0 33.7 00 14 4728 0904 Alarm State:  0
Fri Jun 22 22:58:32 PDT 2018 ON: 20.01 +20.0 19.67 - 3.8 33.5 05 14 4708 0917 Alarm State:  0
Fri Jun 22 22:57:31 PDT 2018 ON: 20.02 +20.0 19.64 - 4.2 33.2 00 14 4620 0921 Alarm State:  0
Fri Jun 22 22:56:29 PDT 2018 ON: 19.99 +20.0 19.66 - 3.6 33.8 07 14 4608 0A05 Alarm State:  0
Fri Jun 22 22:55:28 PDT 2018 ON: 20.01 +20.0 19.72 - 5.3 32.5 0D 13 4530 0A26 Alarm State:  0
Fri Jun 22 22:54:26 PDT 2018 ON: 19.98 +20.0 19.62 - 3.1 33.9 07 14 462B 0A0D Alarm State:  0
Fri Jun 22 22:53:25 PDT 2018 ON: 20.03 +20.0 19.71 - 4.8 32.8 0D 13 4701 091B Alarm State:  0
Fri Jun 22 22:52:23 PDT 2018 ON: 20.01 +20.0 19.65 - 3.5 33.6 00 14 4713 0902 Alarm State:  0
Fri Jun 22 22:51:22 PDT 2018 ON: 20.00 +20.0 19.61 - 2.5 33.9 00 14 472A 0919 Alarm State:  0
Fri Jun 22 22:50:20 PDT 2018 ON: 19.99 +20.0 19.68 - 4.0 33.0 00 14 471C 0A18 Alarm State:  0
Fri Jun 22 22:49:19 PDT 2018 ON: 20.02 +20.0 19.65 - 3.4 33.5 00 14 4810 0908 Alarm State:  0
Fri Jun 22 22:48:17 PDT 2018 ON: 20.03 +20.0 19.69 - 3.8 33.6 0A 14 470B 091D Alarm State:  0
Fri Jun 22 22:47:16 PDT 2018 ON: 19.99 +20.0 19.66 - 3.6 33.7 05 14 4625 0923 Alarm State:  0
Fri Jun 22 22:46:14 PDT 2018 ON: 20.03 +20.0 19.70 - 4.6 32.8 0D 13 4629 090E Alarm State:  0
Fri Jun 22 22:45:13 PDT 2018 ON: 20.04 +20.0 19.66 - 4.2 33.1 05 14 4632 0919 Alarm State:  0
Fri Jun 22 22:44:01 PDT 2018 ON: 20.00 +20.0 19.70 - 4.4 32.9 0D 14 4604 0A0D Alarm State:  0
Fri Jun 22 22:43:00 PDT 2018 ON: 19.99 +20.0 19.62 - 3.0 33.7 00 14 4706 0926 Alarm State:  0
Fri Jun 22 22:41:58 PDT 2018 ON: 19.99 +20.0 19.66 - 3.9 33.1 05 14 462F 0A00 Alarm State:  0
Fri Jun 22 22:40:57 PDT 2018 ON: 20.03 +20.0 19.70 - 4.7 32.9 0D 13 470F 0900 Alarm State:  0
Fri Jun 22 22:39:55 PDT 2018 ON: 20.02 +20.0 19.63 - 3.3 33.6 00 14 4630 0907 Alarm State:  0
Fri Jun 22 22:38:54 PDT 2018 ON: 20.00 +20.0 19.68 - 3.9 33.3 05 14 461B 0A03 Alarm State:  0
Fri Jun 22 22:37:53 PDT 2018 ON: 20.01 +20.0 19.71 - 4.7 32.9 0A 13 462D 0915 Alarm State:  0
Fri Jun 22 22:36:51 PDT 2018 ON: 20.02 +20.0 19.64 - 4.0 33.2 00 14 4701 0905 Alarm State:  0
Fri Jun 22 22:35:50 PDT 2018 ON: 19.97 +20.0 19.65 - 3.6 33.5 0A 14 4632 0925 Alarm State:  0
Fri Jun 22 22:34:48 PDT 2018 ON: 20.02 +20.0 19.72 - 4.9 32.7 0D 12 470E 0924 Alarm State:  0
Fri Jun 22 22:33:47 PDT 2018 ON: 19.99 +20.0 19.62 - 2.8 33.9 05 14 4710 0917 Alarm State:  0
Fri Jun 22 22:32:45 PDT 2018 ON: 20.01 +20.0 19.64 - 3.3 33.7 05 14 4701 0917 Alarm State:  0
Fri Jun 22 22:31:44 PDT 2018 ON: 19.99 +20.0 19.64 - 3.1 34.0 0A 14 462B 0919 Alarm State:  0
Fri Jun 22 22:30:42 PDT 2018 ON: 20.02 +20.0 19.69 - 4.5 33.0 07 14 461D 0916 Alarm State:  0
Fri Jun 22 22:29:41 PDT 2018 ON: 20.01 +20.0 19.62 - 2.8 33.8 02 14 4719 0907 Alarm State:  0
Fri Jun 22 22:28:39 PDT 2018 ON: 20.00 +20.0 19.64 - 3.5 33.6 00 14 470F 0908 Alarm State:  0
Fri Jun 22 22:27:38 PDT 2018 ON: 19.98 +20.0 19.58 - 2.4 34.0 01 14 472A 090B Alarm State:  0
Fri Jun 22 22:26:36 PDT 2018 ON: 19.99 +20.0 19.64 - 3.3 33.8 02 14 471A 0906 Alarm State:  0
Fri Jun 22 22:25:35 PDT 2018 ON: 20.00 +20.0 19.70 - 4.4 32.9 0A 13 4622 0918 Alarm State:  0
Fri Jun 22 22:24:33 PDT 2018 ON: 20.03 +20.0 19.69 - 4.0 33.5 05 14 470B 091C Alarm State:  0
Fri Jun 22 22:23:32 PDT 2018 ON: 19.98 +20.0 19.66 - 3.3 34.0 0A 14 462B 091E Alarm State:  0
Fri Jun 22 22:22:30 PDT 2018 ON: 20.01 +20.0 19.71 - 4.8 32.8 0D 13 461F 0919 Alarm State:  0
Fri Jun 22 22:21:29 PDT 2018 ON: 20.02 +20.0 19.65 - 3.8 33.4 00 14 4719 0906 Alarm State:  0
Fri Jun 22 22:20:27 PDT 2018 ON: 19.99 +20.0 19.61 - 2.5 34.0 05 14 4727 0918 Alarm State:  0
Fri Jun 22 22:19:26 PDT 2018 ON: 20.00 +20.0 19.65 - 3.4 33.8 02 14 470A 0922 Alarm State:  0
Fri Jun 22 22:18:24 PDT 2018 ON: 19.99 +20.0 19.67 - 3.5 33.9 05 14 4623 0929 Alarm State:  0
Fri Jun 22 22:17:23 PDT 2018 ON: 19.99 +20.0 19.68 - 4.3 33.0 00 14 461A 092B Alarm State:  0
Fri Jun 22 22:16:21 PDT 2018 ON: 20.04 +20.0 19.65 - 3.8 33.3 00 14 4703 0904 Alarm State:  0
Fri Jun 22 22:15:20 PDT 2018 ON: 20.00 +20.0 19.66 - 3.7 33.5 07 14 4627 0930 Alarm State:  0
Fri Jun 22 22:14:18 PDT 2018 ON: 20.01 +20.0 19.72 - 4.5 32.9 0A 12 4704 090F Alarm State:  0
Fri Jun 22 22:13:17 PDT 2018 ON: 20.03 +20.0 19.68 - 4.1 33.2 00 14 4711 0926 Alarm State:  0
Fri Jun 22 22:12:15 PDT 2018 ON: 20.01 +20.0 19.70 - 4.2 33.3 0A 13 4632 0908 Alarm State:  0
Fri Jun 22 22:11:14 PDT 2018 ON: 19.98 +20.0 19.60 - 2.3 34.1 01 14 470C 091D Alarm State:  0
Fri Jun 22 22:10:12 PDT 2018 ON: 20.01 +20.0 19.69 - 4.5 32.9 07 14 4617 0928 Alarm State:  0
Fri Jun 22 22:09:11 PDT 2018 ON: 20.00 +20.0 19.67 - 3.9 33.3 02 14 4622 0918 Alarm State:  0
Fri Jun 22 22:08:09 PDT 2018 ON: 20.00 +20.0 19.62 - 3.0 33.7 00 14 4620 090B Alarm State:  0
Fri Jun 22 22:07:08 PDT 2018 ON: 19.98 +20.0 19.66 - 3.8 33.4 0A 14 4621 0931 Alarm State:  0
Fri Jun 22 22:06:06 PDT 2018 ON: 20.03 +20.0 19.67 - 4.0 33.2 00 14 4712 0921 Alarm State:  0
Fri Jun 22 22:05:05 PDT 2018 ON: 20.01 +20.0 19.66 - 3.6 33.4 00 14 4703 0919 Alarm State:  0
Fri Jun 22 22:04:03 PDT 2018 ON: 20.01 +20.0 19.72 - 4.8 32.7 0D 12 4709 0923 Alarm State:  0
Fri Jun 22 22:03:02 PDT 2018 ON: 20.00 +20.0 19.61 - 3.0 33.8 00 14 4712 0915 Alarm State:  0
Fri Jun 22 22:02:00 PDT 2018 ON: 20.00 +20.0 19.64 - 2.9 33.8 00 14 462F 0918 Alarm State:  0
Fri Jun 22 22:00:59 PDT 2018 ON: 19.97 +20.0 19.66 - 4.0 33.1 07 14 4616 0A1C Alarm State:  0
Fri Jun 22 21:59:57 PDT 2018 ON: 20.03 +20.0 19.66 - 3.6 33.5 05 14 4715 0928 Alarm State:  0
Fri Jun 22 21:58:56 PDT 2018 ON: 19.99 +20.0 19.68 - 3.3 33.9 0A 14 4702 0931 Alarm State:  0
Fri Jun 22 21:57:54 PDT 2018 ON: 20.01 +20.0 19.70 - 4.6 33.1 0A 13 4627 0922 Alarm State:  0
Fri Jun 22 21:56:53 PDT 2018 ON: 20.00 +20.0 19.61 - 2.6 33.9 00 14 4715 0921 Alarm State:  0
Fri Jun 22 21:55:51 PDT 2018 ON: 19.99 +20.0 19.70 - 4.3 33.0 0A 13 462E 092A Alarm State:  0
Fri Jun 22 21:54:50 PDT 2018 ON: 20.01 +20.0 19.68 - 4.2 33.2 00 14 4720 091B Alarm State:  0
Fri Jun 22 21:53:48 PDT 2018 ON: 20.00 +20.0 19.66 - 3.4 33.9 0A 14 4720 091A Alarm State:  0
Fri Jun 22 21:52:47 PDT 2018 ON: 20.01 +20.0 19.71 - 4.5 33.2 0D 13 471F 0906 Alarm State:  0
Fri Jun 22 21:51:45 PDT 2018 ON: 20.02 +20.0 19.69 - 4.0 33.3 0D 14 4725 0922 Alarm State:  0
Fri Jun 22 21:50:44 PDT 2018 ON: 20.04 +20.0 19.70 - 4.7 33.1 0D 13 4722 0912 Alarm State:  0
Fri Jun 22 21:49:42 PDT 2018 ON: 20.00 +20.0 19.71 - 4.6 33.0 08 13 4621 0925 Alarm State:  0
Fri Jun 22 21:48:41 PDT 2018 ON: 19.99 +20.0 19.60 - 2.2 34.1 00 14 471F 0912 Alarm State:  0
Fri Jun 22 21:47:40 PDT 2018 ON: 20.02 +20.0 19.69 - 4.1 33.4 00 14 462B 091A Alarm State:  0
Fri Jun 22 21:46:38 PDT 2018 ON: 19.99 +20.0 19.62 - 2.7 34.0 05 14 4700 090B Alarm State:  0
Fri Jun 22 21:45:37 PDT 2018 ON: 19.99 +20.0 19.68 - 4.5 33.0 00 14 4616 0A11 Alarm State:  0
Fri Jun 22 21:44:35 PDT 2018 ON: 20.02 +20.0 19.64 - 3.8 33.3 00 14 470F 0908 Alarm State:  0
Fri Jun 22 21:43:34 PDT 2018 ON: 19.99 +20.0 19.67 - 3.9 33.3 07 14 4627 0A0A Alarm State:  0
Fri Jun 22 21:42:32 PDT 2018 ON: 20.02 +20.0 19.70 - 4.2 33.2 0A 13 4712 090B Alarm State:  0
Fri Jun 22 21:41:31 PDT 2018 ON: 20.03 +20.0 19.71 - 4.8 32.6 0D 13 470B 0905 Alarm State:  0
Fri Jun 22 21:40:29 PDT 2018 ON: 20.02 +20.0 19.67 - 4.1 33.2 02 14 470B 0906 Alarm State:  0
Fri Jun 22 21:39:28 PDT 2018 ON: 20.03 +20.0 19.71 - 4.6 32.8 0D 13 462B 090C Alarm State:  0
Fri Jun 22 21:38:26 PDT 2018 ON: 20.01 +20.0 19.65 - 3.7 33.4 00 14 4704 0920 Alarm State:  0
Fri Jun 22 21:37:25 PDT 2018 ON: 19.99 +20.0 19.66 - 3.3 33.9 00 14 460E 0907 Alarm State:  0
Fri Jun 22 21:36:23 PDT 2018 ON: 20.02 +20.0 19.73 - 5.2 32.5 0D 12 4521 0A10 Alarm State:  0
Fri Jun 22 21:35:22 PDT 2018 ON: 19.98 +20.0 19.60 - 2.6 34.1 00 14 461B 092D Alarm State:  0
Fri Jun 22 21:34:20 PDT 2018 ON: 20.02 +20.0 19.70 - 4.4 32.9 0D 13 4611 0926 Alarm State:  0
Fri Jun 22 21:33:19 PDT 2018 ON: 20.02 +20.0 19.67 - 3.7 33.4 00 14 4709 0913 Alarm State:  0
Fri Jun 22 21:32:17 PDT 2018 ON: 19.98 +20.0 19.60 - 2.3 34.0 00 14 4721 0921 Alarm State:  0
Fri Jun 22 21:31:16 PDT 2018 ON: 20.00 +20.0 19.67 - 4.0 33.3 00 14 462B 0902 Alarm State:  0
Fri Jun 22 21:30:14 PDT 2018 ON: 20.03 +20.0 19.71 - 4.9 32.7 0D 13 4629 091E Alarm State:  0
Fri Jun 22 21:29:13 PDT 2018 ON: 19.98 +20.0 19.62 - 2.7 34.0 0A 14 4632 0908 Alarm State:  0
Fri Jun 22 21:28:11 PDT 2018 ON: 20.01 +20.0 19.68 - 4.4 33.0 00 14 461E 0A0F Alarm State:  0
Fri Jun 22 21:27:10 PDT 2018 ON: 20.01 +20.0 19.60 - 2.3 33.9 01 14 4726 0910 Alarm State:  0
Fri Jun 22 21:26:08 PDT 2018 ON: 20.00 +20.0 19.64 - 3.1 33.9 02 14 4704 091D Alarm State:  0
Fri Jun 22 21:25:07 PDT 2018 ON: 19.99 +20.0 19.69 - 4.2 33.0 00 14 4618 092D Alarm State:  0
Fri Jun 22 21:24:05 PDT 2018 ON: 20.02 +20.0 19.65 - 3.6 33.4 00 14 4711 0917 Alarm State:  0
Fri Jun 22 21:23:04 PDT 2018 ON: 19.97 +20.0 19.65 - 3.5 33.8 0A 14 4706 0A05 Alarm State:  0
Fri Jun 22 21:22:02 PDT 2018 ON: 20.03 +20.0 19.71 - 4.5 33.0 0A 13 4704 091A Alarm State:  0
Fri Jun 22 21:21:01 PDT 2018 ON: 20.02 +20.0 19.65 - 3.7 33.4 00 14 4717 0900 Alarm State:  0
Fri Jun 22 21:19:59 PDT 2018 ON: 20.01 +20.0 19.66 - 3.6 33.5 00 14 470B 0909 Alarm State:  0
Fri Jun 22 21:18:58 PDT 2018 ON: 19.98 +20.0 19.63 - 3.1 34.0 02 14 462F 0907 Alarm State:  0
Fri Jun 22 21:17:56 PDT 2018 ON: 19.99 +20.0 19.70 - 4.4 32.9 0D 14 4627 0A02 Alarm State:  0
Fri Jun 22 21:16:55 PDT 2018 ON: 20.02 +20.0 19.65 - 4.2 33.1 00 14 4711 0904 Alarm State:  0
Fri Jun 22 21:15:53 PDT 2018 ON: 20.00 +20.0 19.63 - 3.1 34.0 05 14 4701 092F Alarm State:  0
Fri Jun 22 21:14:52 PDT 2018 ON: 20.01 +20.0 19.69 - 4.1 33.3 07 14 462D 0929 Alarm State:  0
Fri Jun 22 21:13:50 PDT 2018 ON: 20.00 +20.0 19.69 - 4.3 33.1 05 14 470C 090E Alarm State:  0
Fri Jun 22 21:12:49 PDT 2018 ON: 20.01 +20.0 19.66 - 4.1 33.1 00 14 4713 0923 Alarm State:  0
Fri Jun 22 21:11:47 PDT 2018 ON: 19.99 +20.0 19.61 - 2.6 33.9 05 14 4711 090C Alarm State:  0
Fri Jun 22 21:10:46 PDT 2018 ON: 19.99 +20.0 19.67 - 3.8 33.3 00 14 4706 090C Alarm State:  0
Fri Jun 22 21:09:44 PDT 2018 ON: 20.05 +20.0 19.71 - 4.6 33.0 08 13 470C 0922 Alarm State:  0
Fri Jun 22 21:08:43 PDT 2018 ON: 20.01 +20.0 19.61 - 2.7 33.9 05 14 4705 0920 Alarm State:  0
Fri Jun 22 21:07:41 PDT 2018 ON: 20.00 +20.0 19.68 - 4.1 33.3 07 14 460C 0908 Alarm State:  0
Fri Jun 22 21:06:40 PDT 2018 ON: 20.03 +20.0 19.66 - 3.7 33.4 00 14 4621 0919 Alarm State:  0
Fri Jun 22 21:05:38 PDT 2018 ON: 19.99 +20.0 19.65 - 3.5 33.8 07 14 4532 091A Alarm State:  0
Fri Jun 22 21:04:37 PDT 2018 ON: 19.99 +20.0 19.72 - 5.0 32.6 0D 13 4602 0A0E Alarm State:  0
Fri Jun 22 21:03:35 PDT 2018 ON: 20.01 +20.0 19.60 - 2.7 33.8 00 14 4707 0916 Alarm State:  0
Fri Jun 22 21:02:34 PDT 2018 ON: 20.01 +20.0 19.66 - 3.1 34.0 0C 14 4718 0908 Alarm State:  0
Fri Jun 22 21:01:32 PDT 2018 ON: 20.01 +20.0 19.67 - 3.4 33.8 0A 14 4711 0900 Alarm State:  0
Fri Jun 22 21:00:31 PDT 2018 ON: 20.00 +20.0 19.67 - 3.7 33.7 02 14 4701 090B Alarm State:  0
Fri Jun 22 20:59:29 PDT 2018 ON: 20.01 +20.0 19.69 - 4.2 33.1 0A 14 4702 092A Alarm State:  0
Fri Jun 22 20:58:28 PDT 2018 ON: 20.02 +20.0 19.72 - 4.8 32.7 0D 12 4704 0913 Alarm State:  0
Fri Jun 22 20:57:26 PDT 2018 ON: 19.98 +20.0 19.60 - 2.6 34.0 07 14 4711 0926 Alarm State:  0
Fri Jun 22 20:56:25 PDT 2018 ON: 20.01 +20.0 19.65 - 3.1 33.8 05 14 4703 0927 Alarm State:  0
Fri Jun 22 20:55:23 PDT 2018 ON: 20.00 +20.0 19.64 - 3.8 33.4 07 14 461F 092B Alarm State:  0
Fri Jun 22 20:54:22 PDT 2018 ON: 20.02 +20.0 19.66 - 4.0 33.2 00 14 4712 091D Alarm State:  0
Fri Jun 22 20:53:20 PDT 2018 ON: 20.01 +20.0 19.66 - 3.7 33.4 00 14 462C 0923 Alarm State:  0
Fri Jun 22 20:52:19 PDT 2018 ON: 19.98 +20.0 19.66 - 3.8 33.2 05 14 4628 0A10 Alarm State:  0
Fri Jun 22 20:51:18 PDT 2018 ON: 20.02 +20.0 19.68 - 3.9 33.3 00 14 471E 0927 Alarm State:  0
Fri Jun 22 20:50:16 PDT 2018 ON: 20.05 +20.0 19.67 - 4.0 33.5 00 14 462B 0913 Alarm State:  0
Fri Jun 22 20:49:15 PDT 2018 ON: 19.99 +20.0 19.64 - 3.9 33.3 07 14 461E 0A11 Alarm State:  0
Fri Jun 22 20:48:13 PDT 2018 ON: 20.00 +20.0 19.70 - 4.7 32.8 0A 13 4705 0914 Alarm State:  0
Fri Jun 22 20:47:12 PDT 2018 ON: 19.99 +20.0 19.61 - 3.1 33.6 00 14 472C 090D Alarm State:  0
Fri Jun 22 20:46:10 PDT 2018 ON: 20.02 +20.0 19.67 - 3.4 33.7 07 14 4716 0916 Alarm State:  0
Fri Jun 22 20:45:09 PDT 2018 ON: 19.99 +20.0 19.67 - 4.0 33.3 07 14 4628 0920 Alarm State:  0
Fri Jun 22 20:44:07 PDT 2018 ON: 20.01 +20.0 19.71 - 4.8 33.0 05 13 4705 0924 Alarm State:  0
Fri Jun 22 20:43:06 PDT 2018 ON: 20.00 +20.0 19.68 - 3.9 33.4 05 14 4702 0922 Alarm State:  0
Fri Jun 22 20:42:04 PDT 2018 ON: 20.02 +20.0 19.71 - 4.7 33.0 0D 13 4708 0907 Alarm State:  0
Fri Jun 22 20:41:03 PDT 2018 ON: 20.01 +20.0 19.69 - 4.8 32.7 02 14 4626 0917 Alarm State:  0
Fri Jun 22 20:40:01 PDT 2018 ON: 20.00 +20.0 19.63 - 2.5 34.1 07 14 4717 0907 Alarm State:  0
Fri Jun 22 20:39:00 PDT 2018 ON: 20.01 +20.0 19.67 - 3.8 33.4 07 14 4716 092A Alarm State:  0
Fri Jun 22 20:37:58 PDT 2018 ON: 20.01 +20.0 19.70 - 3.9 33.6 0D 13 4714 0915 Alarm State:  0
Fri Jun 22 20:36:57 PDT 2018 ON: 20.00 +20.0 19.71 - 4.4 32.9 0D 13 4614 0929 Alarm State:  0
Fri Jun 22 20:35:55 PDT 2018 ON: 20.02 +20.0 19.62 - 3.2 33.6 00 14 470B 0923 Alarm State:  0
Fri Jun 22 20:34:54 PDT 2018 ON: 20.03 +20.0 19.68 - 4.6 32.9 00 14 4603 090E Alarm State:  0
Fri Jun 22 20:33:52 PDT 2018 ON: 20.00 +20.0 19.66 - 3.3 33.9 00 14 460F 0925 Alarm State:  0
Fri Jun 22 20:32:51 PDT 2018 ON: 20.02 +20.0 19.71 - 4.9 32.7 0D 13 460E 0A0F Alarm State:  0
Fri Jun 22 20:31:49 PDT 2018 ON: 19.97 +20.0 19.59 - 2.4 34.2 07 14 470D 0927 Alarm State:  0
Fri Jun 22 20:30:48 PDT 2018 ON: 20.01 +20.0 19.68 - 4.0 33.5 0C 14 4702 091D Alarm State:  0
Fri Jun 22 20:29:46 PDT 2018 ON: 20.01 +20.0 19.69 - 4.4 33.0 0D 14 4702 0920 Alarm State:  0
Fri Jun 22 20:28:45 PDT 2018 ON: 20.02 +20.0 19.66 - 3.7 33.3 00 14 471B 0903 Alarm State:  0
Fri Jun 22 20:27:43 PDT 2018 ON: 19.99 +20.0 19.62 - 2.9 33.8 00 14 4727 0917 Alarm State:  0
Fri Jun 22 20:26:42 PDT 2018 ON: 20.00 +20.0 19.64 - 2.8 33.9 00 14 471E 0919 Alarm State:  0
Fri Jun 22 20:25:40 PDT 2018 ON: 20.00 +20.0 19.67 - 3.9 33.4 05 14 462D 0901 Alarm State:  0
Fri Jun 22 20:24:39 PDT 2018 ON: 20.02 +20.0 19.71 - 4.8 32.7 0D 13 462E 0920 Alarm State:  0
Fri Jun 22 20:23:37 PDT 2018 ON: 19.98 +20.0 19.60 - 2.4 34.1 07 14 4712 092A Alarm State:  0
Fri Jun 22 20:22:26 PDT 2018 ON: 19.99 +20.0 19.68 - 4.1 33.0 07 14 4629 092F Alarm State:  0
Fri Jun 22 20:21:24 PDT 2018 ON: 20.02 +20.0 19.69 - 3.9 33.3 0D 14 4717 0920 Alarm State:  0
Fri Jun 22 20:20:23 PDT 2018 ON: 20.03 +20.0 19.66 - 3.8 33.4 07 14 462C 090A Alarm State:  0
Fri Jun 22 20:19:22 PDT 2018 ON: 20.02 +20.0 19.63 - 2.7 33.8 00 14 461F 090E Alarm State:  0
Fri Jun 22 20:18:20 PDT 2018 ON: 19.98 +20.0 19.68 - 3.9 33.5 02 14 4524 0921 Alarm State:  0
Fri Jun 22 20:17:19 PDT 2018 ON: 20.00 +20.0 19.73 - 5.2 32.6 0D 12 451B 0A13 Alarm State:  0
Fri Jun 22 20:16:17 PDT 2018 ON: 19.98 +20.0 19.60 - 2.6 34.2 04 14 4610 092F Alarm State:  0
Fri Jun 22 20:15:16 PDT 2018 ON: 20.01 +20.0 19.70 - 4.4 33.1 0D 14 4609 0A19 Alarm State:  0
Fri Jun 22 20:14:14 PDT 2018 ON: 19.97 +20.0 19.60 - 2.2 34.2 04 14 4710 091D Alarm State:  0
Fri Jun 22 20:13:13 PDT 2018 ON: 19.99 +20.0 19.70 - 4.5 33.0 0D 14 4628 0A1B Alarm State:  0
Fri Jun 22 20:12:11 PDT 2018 ON: 19.99 +20.0 19.60 - 2.2 34.0 00 14 472F 0925 Alarm State:  0
Fri Jun 22 20:11:10 PDT 2018 ON: 20.00 +20.0 19.67 - 3.7 33.5 07 14 471E 0927 Alarm State:  0
Fri Jun 22 20:10:08 PDT 2018 ON: 20.01 +20.0 19.71 - 4.5 33.0 0A 13 471C 0916 Alarm State:  0
Fri Jun 22 20:09:07 PDT 2018 ON: 20.01 +20.0 19.61 - 2.9 33.7 00 14 4719 0910 Alarm State:  0
Fri Jun 22 20:08:05 PDT 2018 ON: 20.00 +20.0 19.68 - 3.9 33.4 07 14 461A 0923 Alarm State:  0
Fri Jun 22 20:07:04 PDT 2018 ON: 20.04 +20.0 19.70 - 4.8 32.8 08 13 460B 091F Alarm State:  0
Fri Jun 22 20:06:02 PDT 2018 ON: 20.01 +20.0 19.64 - 3.0 33.9 02 14 4601 091C Alarm State:  0
Fri Jun 22 20:05:01 PDT 2018 ON: 20.00 +20.0 19.70 - 4.3 33.1 00 14 4529 0A16 Alarm State:  0
Fri Jun 22 20:03:59 PDT 2018 ON: 19.96 +20.0 19.58 - 1.8 34.2 01 14 4701 090E Alarm State:  0
Fri Jun 22 20:02:58 PDT 2018 ON: 19.99 +20.0 19.67 - 4.2 32.9 05 14 462B 0A04 Alarm State:  0
Fri Jun 22 20:01:56 PDT 2018 ON: 20.03 +20.0 19.68 - 4.1 33.2 00 14 471C 0926 Alarm State:  0
Fri Jun 22 20:00:55 PDT 2018 ON: 20.03 +20.0 19.71 - 4.8 32.8 0D 13 4622 090F Alarm State:  0
Fri Jun 22 19:59:53 PDT 2018 ON: 19.98 +20.0 19.60 - 2.6 34.1 04 14 4703 090F Alarm State:  0
Fri Jun 22 19:58:52 PDT 2018 ON: 19.99 +20.0 19.69 - 4.0 33.5 05 14 461D 090D Alarm State:  0
Fri Jun 22 19:57:50 PDT 2018 ON: 20.03 +20.0 19.73 - 5.1 32.5 0D 12 4603 0916 Alarm State:  0
Fri Jun 22 19:56:49 PDT 2018 ON: 20.00 +20.0 19.60 - 2.8 33.7 01 14 4620 0911 Alarm State:  0
Fri Jun 22 19:55:47 PDT 2018 ON: 19.97 +20.0 19.64 - 3.4 33.7 02 14 462A 0930 Alarm State:  0
Fri Jun 22 19:54:46 PDT 2018 ON: 20.02 +20.0 19.70 - 4.9 32.6 0A 13 462D 0912 Alarm State:  0
Fri Jun 22 19:53:44 PDT 2018 ON: 20.01 +20.0 19.64 - 3.0 33.7 00 14 4707 0919 Alarm State:  0
Fri Jun 22 19:52:43 PDT 2018 ON: 19.99 +20.0 19.65 - 3.3 33.9 0A 14 4632 091A Alarm State:  0
Fri Jun 22 19:51:41 PDT 2018 ON: 20.02 +20.0 19.71 - 4.5 33.0 0D 13 4700 0908 Alarm State:  0
Fri Jun 22 19:50:40 PDT 2018 ON: 20.01 +20.0 19.68 - 4.5 32.8 00 14 4712 091E Alarm State:  0
Fri Jun 22 19:49:38 PDT 2018 ON: 19.98 +20.0 19.63 - 2.8 34.1 00 14 4725 092A Alarm State:  0
Fri Jun 22 19:48:37 PDT 2018 ON: 20.02 +20.0 19.70 - 4.3 33.3 0D 13 471B 091D Alarm State:  0
Fri Jun 22 19:47:35 PDT 2018 ON: 20.00 +20.0 19.70 - 4.2 33.2 0D 14 4710 0A00 Alarm State:  0
Fri Jun 22 19:46:34 PDT 2018 ON: 20.00 +20.0 19.60 - 2.2 34.0 00 14 4813 090C Alarm State:  0
Fri Jun 22 19:45:32 PDT 2018 ON: 20.01 +20.0 19.61 - 2.7 34.0 02 14 4723 0918 Alarm State:  0
Fri Jun 22 19:44:31 PDT 2018 ON: 20.02 +20.0 19.65 - 3.5 33.7 07 14 4628 0904 Alarm State:  0
Fri Jun 22 19:43:29 PDT 2018 ON: 19.99 +20.0 19.67 - 3.4 33.9 05 14 460B 090A Alarm State:  0
Fri Jun 22 19:42:28 PDT 2018 ON: 20.02 +20.0 19.70 - 4.3 33.2 0D 13 4607 0928 Alarm State:  0
Fri Jun 22 19:41:26 PDT 2018 ON: 20.02 +20.0 19.60 - 2.3 34.0 04 14 4632 0913 Alarm State:  0
Fri Jun 22 19:40:25 PDT 2018 ON: 19.98 +20.0 19.68 - 4.3 32.9 00 14 4614 0A1A Alarm State:  0
Fri Jun 22 19:39:23 PDT 2018 ON: 20.00 +20.0 19.62 - 3.2 33.6 00 14 4718 0925 Alarm State:  0
Fri Jun 22 19:38:22 PDT 2018 ON: 19.99 +20.0 19.62 - 2.7 34.1 05 14 4716 091E Alarm State:  0
Fri Jun 22 19:37:21 PDT 2018 ON: 20.00 +20.0 19.65 - 3.4 33.9 05 14 4703 0920 Alarm State:  0
Fri Jun 22 19:36:19 PDT 2018 ON: 19.99 +20.0 19.68 - 4.3 33.3 05 14 4614 092D Alarm State:  0
Fri Jun 22 19:35:17 PDT 2018 ON: 20.02 +20.0 19.67 - 4.4 32.9 00 14 462F 090B Alarm State:  0
Fri Jun 22 19:34:16 PDT 2018 ON: 19.98 +20.0 19.62 - 2.6 34.1 0A 14 470A 0921 Alarm State:  0
Fri Jun 22 19:33:14 PDT 2018 ON: 20.02 +20.0 19.69 - 4.1 33.5 05 14 462C 0919 Alarm State:  0
Fri Jun 22 19:32:13 PDT 2018 ON: 20.02 +20.0 19.71 - 4.8 32.9 0A 13 4620 091C Alarm State:  0
Fri Jun 22 19:31:11 PDT 2018 ON: 19.99 +20.0 19.60 - 2.4 34.0 01 14 470A 091D Alarm State:  0
Fri Jun 22 19:30:10 PDT 2018 ON: 19.99 +20.0 19.68 - 4.2 33.1 00 14 4700 0A16 Alarm State:  0
Fri Jun 22 19:29:08 PDT 2018 ON: 19.99 +20.0 19.61 - 2.6 33.8 00 14 4806 0917 Alarm State:  0
Fri Jun 22 19:28:07 PDT 2018 ON: 19.99 +20.0 19.65 - 3.4 33.8 05 14 4729 0916 Alarm State:  0
Fri Jun 22 19:27:05 PDT 2018 ON: 20.04 +20.0 19.71 - 4.2 33.6 0D 13 4722 0927 Alarm State:  0
Fri Jun 22 19:26:04 PDT 2018 ON: 19.99 +20.0 19.70 - 4.6 33.0 0D 13 4621 090F Alarm State:  0
Fri Jun 22 19:25:02 PDT 2018 ON: 20.00 +20.0 19.61 - 2.6 33.8 00 14 4717 090A Alarm State:  0
Fri Jun 22 19:24:01 PDT 2018 ON: 20.00 +20.0 19.65 - 3.2 34.0 05 14 4628 091B Alarm State:  0
Fri Jun 22 19:22:59 PDT 2018 ON: 20.01 +20.0 19.69 - 4.5 32.8 00 14 4609 0923 Alarm State:  0
Fri Jun 22 19:21:58 PDT 2018 ON: 20.04 +20.0 19.67 - 4.3 33.0 00 14 461F 0905 Alarm State:  0
Fri Jun 22 19:20:56 PDT 2018 ON: 20.00 +20.0 19.63 - 2.9 34.0 07 14 4630 090C Alarm State:  0
Fri Jun 22 19:19:55 PDT 2018 ON: 20.00 +20.0 19.70 - 4.3 33.1 0D 13 462E 0926 Alarm State:  0
Fri Jun 22 19:18:54 PDT 2018 ON: 20.01 +20.0 19.69 - 4.5 32.7 08 14 470A 0918 Alarm State:  0
Fri Jun 22 19:17:52 PDT 2018 ON: 20.02 +20.0 19.63 - 2.9 33.7 00 14 4720 0925 Alarm State:  0
Fri Jun 22 19:16:51 PDT 2018 ON: 19.99 +20.0 19.61 - 2.8 34.1 0C 14 470F 091F Alarm State:  0
Fri Jun 22 19:15:49 PDT 2018 ON: 19.99 +20.0 19.63 - 3.2 34.0 00 14 470D 0918 Alarm State:  0
Fri Jun 22 19:14:48 PDT 2018 ON: 20.00 +20.0 19.71 - 4.4 33.0 0A 13 4623 0922 Alarm State:  0
Fri Jun 22 19:13:46 PDT 2018 ON: 20.00 +20.0 19.61 - 2.6 33.9 02 14 4724 0906 Alarm State:  0
Fri Jun 22 19:12:45 PDT 2018 ON: 19.99 +20.0 19.62 - 2.8 34.0 00 14 4717 0904 Alarm State:  0
Fri Jun 22 19:11:43 PDT 2018 ON: 20.01 +20.0 19.63 - 3.0 33.9 02 14 470B 0907 Alarm State:  0
Fri Jun 22 19:10:42 PDT 2018 ON: 20.01 +20.0 19.68 - 3.9 33.5 05 14 461D 0917 Alarm State:  0
Fri Jun 22 19:09:40 PDT 2018 ON: 20.01 +20.0 19.70 - 4.8 32.9 0D 13 4613 090A Alarm State:  0
Fri Jun 22 19:08:39 PDT 2018 ON: 20.00 +20.0 19.63 - 3.3 33.6 00 14 4632 090D Alarm State:  0
Fri Jun 22 19:07:37 PDT 2018 ON: 19.99 +20.0 19.66 - 3.8 33.3 07 14 4626 0A00 Alarm State:  0
Fri Jun 22 19:06:36 PDT 2018 ON: 20.02 +20.0 19.70 - 4.7 32.8 08 13 4716 091F Alarm State:  0
Fri Jun 22 19:05:34 PDT 2018 ON: 19.98 +20.0 19.59 - 2.2 34.2 07 14 480D 0916 Alarm State:  0
Fri Jun 22 19:04:33 PDT 2018 ON: 20.01 +20.0 19.65 - 3.0 33.9 02 14 4802 0910 Alarm State:  0
Fri Jun 22 19:03:31 PDT 2018 ON: 20.01 +20.0 19.65 - 3.4 33.7 00 14 470B 0923 Alarm State:  0
Fri Jun 22 19:02:30 PDT 2018 ON: 19.99 +20.0 19.68 - 3.9 33.2 07 14 4627 0929 Alarm State:  0
Fri Jun 22 19:01:28 PDT 2018 ON: 20.04 +20.0 19.70 - 4.4 33.1 0D 13 470E 090D Alarm State:  0
Fri Jun 22 19:00:27 PDT 2018 ON: 19.99 +20.0 19.59 - 2.2 34.1 01 14 471B 091A Alarm State:  0
Fri Jun 22 18:59:25 PDT 2018 ON: 20.00 +20.0 19.66 - 3.6 33.8 0A 14 462E 091D Alarm State:  0
Fri Jun 22 18:58:24 PDT 2018 ON: 20.01 +20.0 19.69 - 4.7 32.8 05 14 4611 0A02 Alarm State:  0
Fri Jun 22 18:57:22 PDT 2018 ON: 19.97 +20.0 19.57 - 2.0 34.0 00 14 4716 0908 Alarm State:  0
Fri Jun 22 18:56:21 PDT 2018 ON: 19.98 +20.0 19.66 - 4.0 32.8 00 14 4703 0A04 Alarm State:  0
Fri Jun 22 18:55:19 PDT 2018 ON: 20.03 +20.0 19.69 - 3.9 33.5 0A 14 4723 0926 Alarm State:  0
Fri Jun 22 18:54:18 PDT 2018 ON: 20.02 +20.0 19.69 - 4.6 32.9 02 14 4621 0911 Alarm State:  0
Fri Jun 22 18:53:16 PDT 2018 ON: 20.03 +20.0 19.64 - 4.0 33.3 00 14 461B 0912 Alarm State:  0
Fri Jun 22 18:52:15 PDT 2018 ON: 20.00 +20.0 19.65 - 3.3 33.9 02 14 4610 0916 Alarm State:  0
Fri Jun 22 18:51:13 PDT 2018 ON: 20.01 +20.0 19.72 - 5.1 32.6 0D 13 460C 0A09 Alarm State:  0
Fri Jun 22 18:50:12 PDT 2018 ON: 19.97 +20.0 19.61 - 2.3 34.2 05 14 470E 0916 Alarm State:  0
Fri Jun 22 18:49:10 PDT 2018 ON: 20.01 +20.0 19.68 - 4.3 33.1 00 14 4629 090B Alarm State:  0
Fri Jun 22 18:48:09 PDT 2018 ON: 20.04 +20.0 19.71 - 4.7 32.9 0D 13 4624 0926 Alarm State:  0
Fri Jun 22 18:47:07 PDT 2018 ON: 19.99 +20.0 19.61 - 2.7 33.9 01 14 4626 0917 Alarm State:  0
Fri Jun 22 18:46:06 PDT 2018 ON: 19.98 +20.0 19.68 - 4.3 33.0 00 14 4619 0A15 Alarm State:  0
Fri Jun 22 18:45:04 PDT 2018 ON: 20.01 +20.0 19.62 - 2.9 33.7 00 14 4722 0919 Alarm State:  0
Fri Jun 22 18:44:03 PDT 2018 ON: 20.01 +20.0 19.67 - 4.3 33.0 00 14 462E 0904 Alarm State:  0
Fri Jun 22 18:43:01 PDT 2018 ON: 19.99 +20.0 19.60 - 2.6 34.0 00 14 470D 0908 Alarm State:  0
Fri Jun 22 18:42:00 PDT 2018 ON: 19.99 +20.0 19.62 - 2.9 34.0 07 14 4718 0927 Alarm State:  0
Fri Jun 22 18:40:58 PDT 2018 ON: 20.00 +20.0 19.67 - 3.8 33.6 00 14 4708 0928 Alarm State:  0
Fri Jun 22 18:39:57 PDT 2018 ON: 20.01 +20.0 19.71 - 4.8 32.7 0D 13 4701 0928 Alarm State:  0
Fri Jun 22 18:38:55 PDT 2018 ON: 20.01 +20.0 19.61 - 2.9 33.7 00 14 4723 0909 Alarm State:  0
Fri Jun 22 18:37:54 PDT 2018 ON: 20.00 +20.0 19.62 - 3.0 33.8 05 14 4716 090D Alarm State:  0
Fri Jun 22 18:36:52 PDT 2018 ON: 20.02 +20.0 19.63 - 3.2 33.6 02 14 4701 091B Alarm State:  0
Fri Jun 22 18:35:51 PDT 2018 ON: 19.99 +20.0 19.67 - 4.2 33.0 07 14 4616 0A22 Alarm State:  0
Fri Jun 22 18:34:49 PDT 2018 ON: 20.02 +20.0 19.62 - 3.2 33.5 00 14 471A 0900 Alarm State:  0
Fri Jun 22 18:33:48 PDT 2018 ON: 19.98 +20.0 19.61 - 2.7 34.0 05 14 4716 0920 Alarm State:  0
Fri Jun 22 18:32:46 PDT 2018 ON: 19.99 +20.0 19.66 - 3.3 33.9 05 14 4707 0922 Alarm State:  0
Fri Jun 22 18:31:45 PDT 2018 ON: 20.00 +20.0 19.69 - 4.5 33.0 07 14 461C 0929 Alarm State:  0
Fri Jun 22 18:30:43 PDT 2018 ON: 20.00 +20.0 19.63 - 3.1 33.6 00 14 471E 091B Alarm State:  0
Fri Jun 22 18:29:42 PDT 2018 ON: 19.98 +20.0 19.64 - 3.2 33.9 02 14 471C 0914 Alarm State:  0
Fri Jun 22 18:28:40 PDT 2018 ON: 20.02 +20.0 19.70 - 4.2 33.6 0D 13 4711 0902 Alarm State:  0
Fri Jun 22 18:27:29 PDT 2018 ON: 20.00 +20.0 19.70 - 4.3 33.1 0D 13 461C 091F Alarm State:  0
Fri Jun 22 18:26:27 PDT 2018 ON: 20.00 +20.0 19.62 - 2.7 33.8 00 14 471E 0902 Alarm State:  0
Fri Jun 22 18:25:26 PDT 2018 ON: 20.01 +20.0 19.64 - 3.0 34.0 02 14 4708 090F Alarm State:  0
Fri Jun 22 18:24:24 PDT 2018 ON: 20.01 +20.0 19.68 - 4.4 33.0 07 14 4618 0A19 Alarm State:  0
Fri Jun 22 18:23:23 PDT 2018 ON: 20.00 +20.0 19.60 - 3.0 33.6 00 14 4719 0A04 Alarm State:  0
Fri Jun 22 18:22:21 PDT 2018 ON: 19.96 +20.0 19.64 - 4.0 33.0 00 14 4714 0A26 Alarm State:  0
Fri Jun 22 18:21:20 PDT 2018 ON: 20.01 +20.0 19.62 - 2.9 33.7 00 14 4819 0901 Alarm State:  0
Fri Jun 22 18:20:18 PDT 2018 ON: 20.01 +20.0 19.68 - 4.0 33.3 00 14 471B 0915 Alarm State:  0
Fri Jun 22 18:19:17 PDT 2018 ON: 20.02 +20.0 19.65 - 3.7 33.4 00 14 4711 0918 Alarm State:  0
Fri Jun 22 18:18:15 PDT 2018 ON: 20.02 +20.0 19.65 - 4.3 33.1 00 14 4629 0926 Alarm State:  0
Fri Jun 22 18:17:14 PDT 2018 ON: 19.98 +20.0 19.66 - 3.4 33.9 0A 14 4619 091F Alarm State:  0
Fri Jun 22 18:16:12 PDT 2018 ON: 20.02 +20.0 19.71 - 4.7 33.0 0D 13 460C 0911 Alarm State:  0
Fri Jun 22 18:15:11 PDT 2018 ON: 20.02 +20.0 19.63 - 3.5 33.5 00 14 460E 0A00 Alarm State:  0
Fri Jun 22 18:14:09 PDT 2018 ON: 19.98 +20.0 19.65 - 4.0 33.2 07 14 4607 0A19 Alarm State:  0
Fri Jun 22 18:13:08 PDT 2018 ON: 20.01 +20.0 19.69 - 4.7 32.6 00 14 462F 0A08 Alarm State:  0
Fri Jun 22 18:12:06 PDT 2018 ON: 19.96 +20.0 19.63 - 3.2 33.5 00 14 471D 0929 Alarm State:  0
Fri Jun 22 18:11:05 PDT 2018 ON: 20.02 +20.0 19.71 - 4.2 33.6 0D 13 472F 0923 Alarm State:  0
Fri Jun 22 18:10:03 PDT 2018 ON: 19.99 +20.0 19.68 - 4.0 33.1 00 14 470E 092F Alarm State:  0
Fri Jun 22 18:09:02 PDT 2018 ON: 20.03 +20.0 19.70 - 4.0 33.6 0D 13 4720 090A Alarm State:  0
Fri Jun 22 18:08:00 PDT 2018 ON: 20.01 +20.0 19.69 - 4.1 33.1 07 14 4626 091C Alarm State:  0
Fri Jun 22 18:06:59 PDT 2018 ON: 20.03 +20.0 19.69 - 4.5 33.0 03 14 4701 0903 Alarm State:  0
Fri Jun 22 18:05:57 PDT 2018 ON: 20.00 +20.0 19.61 - 2.8 33.9 00 14 4619 090D Alarm State:  0
Fri Jun 22 18:04:56 PDT 2018 ON: 20.00 +20.0 19.70 - 4.3 33.3 07 13 4520 0922 Alarm State:  0
Fri Jun 22 18:03:54 PDT 2018 ON: 20.02 +20.0 19.70 - 5.1 32.3 00 14 4527 0A1A Alarm State:  0
Fri Jun 22 18:02:53 PDT 2018 ON: 19.98 +20.0 19.62 - 3.2 33.9 0A 14 460A 0A0E Alarm State:  0
Fri Jun 22 18:01:51 PDT 2018 ON: 20.04 +20.0 19.70 - 4.9 32.7 0A 13 4619 0916 Alarm State:  0
Fri Jun 22 18:00:50 PDT 2018 ON: 19.99 +20.0 19.63 - 3.4 33.6 00 14 461B 0911 Alarm State:  0
Fri Jun 22 17:59:48 PDT 2018 ON: 19.98 +20.0 19.61 - 2.8 34.0 07 14 461E 092D Alarm State:  0
Fri Jun 22 17:58:47 PDT 2018 ON: 20.00 +20.0 19.69 - 3.9 33.6 05 14 4610 0926 Alarm State:  0
Fri Jun 22 17:57:46 PDT 2018 ON: 20.01 +20.0 19.72 - 5.0 32.7 0D 12 4603 0926 Alarm State:  0
Fri Jun 22 17:56:44 PDT 2018 ON: 20.00 +20.0 19.57 - 2.3 34.0 04 14 4623 0927 Alarm State:  0
Fri Jun 22 17:55:43 PDT 2018 ON: 20.02 +20.0 19.68 - 4.2 33.2 07 14 4606 0906 Alarm State:  0
Fri Jun 22 17:54:41 PDT 2018 ON: 20.03 +20.0 19.69 - 4.8 32.8 00 14 460E 0920 Alarm State:  0
Fri Jun 22 17:53:40 PDT 2018 ON: 19.97 +20.0 19.65 - 3.8 33.3 05 14 4615 0A02 Alarm State:  0
Fri Jun 22 17:52:38 PDT 2018 ON: 20.02 +20.0 19.71 - 4.9 32.7 0D 13 462F 0926 Alarm State:  0
Fri Jun 22 17:51:37 PDT 2018 ON: 19.98 +20.0 19.60 - 2.5 34.0 07 14 470F 0906 Alarm State:  0
Fri Jun 22 17:50:35 PDT 2018 ON: 19.99 +20.0 19.66 - 3.5 33.9 05 14 4708 0904 Alarm State:  0
Fri Jun 22 17:49:34 PDT 2018 ON: 20.01 +20.0 19.69 - 4.5 32.9 0D 14 4704 092E Alarm State:  0
Fri Jun 22 17:48:32 PDT 2018 ON: 20.02 +20.0 19.63 - 3.1 33.7 00 14 4808 090D Alarm State:  0
Fri Jun 22 17:47:31 PDT 2018 ON: 19.98 +20.0 19.64 - 3.3 34.0 02 14 472B 0910 Alarm State:  0
Fri Jun 22 17:46:29 PDT 2018 ON: 20.00 +20.0 19.69 - 4.5 33.0 0D 14 471C 0902 Alarm State:  0
Fri Jun 22 17:45:28 PDT 2018 ON: 20.03 +20.0 19.68 - 4.3 33.1 05 14 4726 091A Alarm State:  0
Fri Jun 22 17:44:26 PDT 2018 ON: 20.03 +20.0 19.67 - 4.8 32.8 02 14 4701 0901 Alarm State:  0
Fri Jun 22 17:43:25 PDT 2018 ON: 20.00 +20.0 19.65 - 3.6 33.8 05 14 4626 0925 Alarm State:  0
Fri Jun 22 17:42:23 PDT 2018 ON: 20.03 +20.0 19.70 - 4.8 32.9 0D 13 4627 0911 Alarm State:  0
Fri Jun 22 17:41:22 PDT 2018 ON: 20.01 +20.0 19.62 - 3.1 33.6 00 14 4706 0921 Alarm State:  0
Fri Jun 22 17:40:20 PDT 2018 ON: 19.99 +20.0 19.69 - 4.0 33.1 00 14 4624 0A00 Alarm State:  0
Fri Jun 22 17:39:19 PDT 2018 ON: 20.03 +20.0 19.68 - 4.2 33.1 02 14 4711 0924 Alarm State:  0
Fri Jun 22 17:38:17 PDT 2018 ON: 20.01 +20.0 19.64 - 3.6 33.5 00 14 4625 0909 Alarm State:  0
Fri Jun 22 17:37:16 PDT 2018 ON: 20.00 +20.0 19.63 - 3.1 34.0 0A 14 461F 0929 Alarm State:  0
Fri Jun 22 17:36:14 PDT 2018 ON: 20.02 +20.0 19.70 - 4.5 33.0 0D 13 460C 0925 Alarm State:  0
Fri Jun 22 17:35:13 PDT 2018 ON: 20.00 +20.0 19.62 - 3.2 33.6 00 14 4703 0922 Alarm State:  0
Fri Jun 22 17:34:11 PDT 2018 ON: 19.98 +20.0 19.62 - 3.0 33.9 00 14 462B 0922 Alarm State:  0
Fri Jun 22 17:33:10 PDT 2018 ON: 19.99 +20.0 19.69 - 4.4 33.0 07 14 4621 0921 Alarm State:  0
Fri Jun 22 17:32:08 PDT 2018 ON: 20.00 +20.0 19.64 - 3.7 33.3 00 14 471B 090C Alarm State:  0
Fri Jun 22 17:31:07 PDT 2018 ON: 20.00 +20.0 19.66 - 3.9 33.2 05 14 4723 0925 Alarm State:  0
Fri Jun 22 17:30:05 PDT 2018 ON: 20.04 +20.0 19.71 - 4.6 32.9 0D 13 4803 091A Alarm State:  0
Fri Jun 22 17:29:04 PDT 2018 ON: 20.02 +20.0 19.68 - 4.8 32.7 00 14 4718 0927 Alarm State:  0
Fri Jun 22 17:28:02 PDT 2018 ON: 19.97 +20.0 19.63 - 2.7 34.0 00 14 4729 0909 Alarm State:  0
Fri Jun 22 17:27:01 PDT 2018 ON: 20.00 +20.0 19.67 - 4.2 33.5 05 14 470D 0908 Alarm State:  0
Fri Jun 22 17:25:59 PDT 2018 ON: 19.99 +20.0 19.68 - 4.3 32.9 05 14 4712 092D Alarm State:  0
Fri Jun 22 17:24:58 PDT 2018 ON: 20.04 +20.0 19.69 - 4.6 32.8 0D 14 4726 0927 Alarm State:  0
Fri Jun 22 17:23:56 PDT 2018 ON: 20.02 +20.0 19.65 - 3.8 33.4 02 14 472D 0917 Alarm State:  0
Fri Jun 22 17:22:55 PDT 2018 ON: 20.02 +20.0 19.64 - 4.1 33.2 00 14 4715 0922 Alarm State:  0
Fri Jun 22 17:21:53 PDT 2018 ON: 19.99 +20.0 19.66 - 3.8 33.5 05 14 462B 092A Alarm State:  0
Fri Jun 22 17:20:52 PDT 2018 ON: 20.02 +20.0 19.72 - 5.0 32.7 0D 12 462F 091A Alarm State:  0
Fri Jun 22 17:19:50 PDT 2018 ON: 19.98 +20.0 19.61 - 2.8 33.8 00 14 462E 0906 Alarm State:  0
Fri Jun 22 17:18:49 PDT 2018 ON: 20.00 +20.0 19.70 - 4.3 32.9 0D 13 461E 0928 Alarm State:  0
Fri Jun 22 17:17:47 PDT 2018 ON: 20.02 +20.0 19.64 - 3.6 33.4 00 14 4720 0917 Alarm State:  0
Fri Jun 22 17:16:46 PDT 2018 ON: 20.01 +20.0 19.65 - 3.3 33.9 00 14 470A 0922 Alarm State:  0
Fri Jun 22 17:15:44 PDT 2018 ON: 20.02 +20.0 19.68 - 4.2 33.1 07 14 462E 0922 Alarm State:  0
Fri Jun 22 17:14:43 PDT 2018 ON: 20.01 +20.0 19.63 - 3.2 33.7 00 14 4725 090C Alarm State:  0
Fri Jun 22 17:13:41 PDT 2018 ON: 20.00 +20.0 19.69 - 4.4 33.0 00 14 4621 0920 Alarm State:  0
Fri Jun 22 17:12:40 PDT 2018 ON: 20.02 +20.0 19.68 - 4.4 33.0 00 14 4615 0923 Alarm State:  0
Fri Jun 22 17:11:38 PDT 2018 ON: 19.97 +20.0 19.65 - 4.0 33.2 07 14 4612 0A05 Alarm State:  0
Fri Jun 22 17:10:37 PDT 2018 ON: 20.02 +20.0 19.65 - 3.5 33.4 00 14 4713 090D Alarm State:  0
Fri Jun 22 17:09:35 PDT 2018 ON: 19.99 +20.0 19.67 - 3.7 33.5 07 14 470C 0924 Alarm State:  0
Fri Jun 22 17:08:34 PDT 2018 ON: 20.00 +20.0 19.70 - 4.5 33.1 0A 13 471E 0920 Alarm State:  0
Fri Jun 22 17:07:32 PDT 2018 ON: 20.00 +20.0 19.70 - 4.3 33.1 0A 13 472D 0912 Alarm State:  0
Fri Jun 22 17:06:31 PDT 2018 ON: 20.02 +20.0 19.66 - 4.1 33.3 02 14 4802 0928 Alarm State:  0
Fri Jun 22 17:05:29 PDT 2018 ON: 20.01 +20.0 19.68 - 4.2 33.1 00 14 471E 0911 Alarm State:  0
Fri Jun 22 17:04:28 PDT 2018 ON: 20.03 +20.0 19.68 - 4.5 33.3 02 14 471A 090A Alarm State:  0
Fri Jun 22 17:03:26 PDT 2018 ON: 20.01 +20.0 19.70 - 5.0 32.7 0A 13 461A 091E Alarm State:  0
Fri Jun 22 17:02:25 PDT 2018 ON: 19.99 +20.0 19.68 - 4.3 32.9 05 14 4707 0922 Alarm State:  0
Fri Jun 22 17:01:23 PDT 2018 ON: 20.01 +20.0 19.66 - 3.5 33.4 00 14 472E 0926 Alarm State:  0
Fri Jun 22 17:00:22 PDT 2018 ON: 20.03 +20.0 19.66 - 3.6 33.5 00 14 471C 0921 Alarm State:  0
Fri Jun 22 16:59:20 PDT 2018 ON: 20.01 +20.0 19.63 - 2.8 33.8 00 14 4719 0917 Alarm State:  0
Fri Jun 22 16:58:19 PDT 2018 ON: 19.99 +20.0 19.67 - 4.1 33.0 05 14 462E 0924 Alarm State:  0
Fri Jun 22 16:57:17 PDT 2018 ON: 20.03 +20.0 19.69 - 4.6 33.0 03 14 470A 0904 Alarm State:  0
Fri Jun 22 16:56:16 PDT 2018 ON: 20.01 +20.0 19.61 - 3.2 33.6 00 14 462E 0900 Alarm State:  0
Fri Jun 22 16:55:15 PDT 2018 ON: 19.99 +20.0 19.68 - 4.3 33.3 07 14 4602 090D Alarm State:  0
Fri Jun 22 16:54:13 PDT 2018 ON: 20.01 +20.0 19.71 - 5.3 32.3 0D 13 460D 0920 Alarm State:  0
Fri Jun 22 16:53:12 PDT 2018 ON: 19.98 +20.0 19.60 - 2.6 34.0 01 14 462B 091D Alarm State:  0
Fri Jun 22 16:52:10 PDT 2018 ON: 19.99 +20.0 19.66 - 3.8 33.5 05 14 4719 091C Alarm State:  0
Fri Jun 22 16:51:09 PDT 2018 ON: 20.01 +20.0 19.70 - 4.4 33.3 08 13 4725 091C Alarm State:  0
Fri Jun 22 16:50:07 PDT 2018 ON: 20.00 +20.0 19.70 - 3.9 33.7 0D 13 4708 0905 Alarm State:  0
Fri Jun 22 16:49:06 PDT 2018 ON: 20.01 +20.0 19.72 - 4.6 32.8 0D 13 4629 0A0E Alarm State:  0
Fri Jun 22 16:48:04 PDT 2018 ON: 20.01 +20.0 19.61 - 3.4 33.5 00 14 471F 0923 Alarm State:  0
Fri Jun 22 16:47:03 PDT 2018 ON: 20.02 +20.0 19.62 - 3.3 33.6 02 14 470D 0905 Alarm State:  0
Fri Jun 22 16:46:01 PDT 2018 ON: 20.00 +20.0 19.67 - 4.0 33.2 05 14 4629 0A09 Alarm State:  0
Fri Jun 22 16:45:00 PDT 2018 ON: 20.01 +20.0 19.71 - 4.8 32.8 0A 13 4706 0914 Alarm State:  0
Fri Jun 22 16:43:58 PDT 2018 ON: 19.99 +20.0 19.59 - 2.8 33.8 00 14 4719 091F Alarm State:  0
Fri Jun 22 16:42:57 PDT 2018 ON: 19.99 +20.0 19.66 - 4.3 32.9 07 14 4630 092A Alarm State:  0
Fri Jun 22 16:41:55 PDT 2018 ON: 20.02 +20.0 19.66 - 4.0 33.2 05 14 4722 0913 Alarm State:  0
Fri Jun 22 16:40:54 PDT 2018 ON: 20.00 +20.0 19.61 - 2.8 33.9 00 14 4722 0904 Alarm State:  0
Fri Jun 22 16:39:52 PDT 2018 ON: 20.00 +20.0 19.64 - 3.1 34.0 05 14 4713 0908 Alarm State:  0
Fri Jun 22 16:38:51 PDT 2018 ON: 19.99 +20.0 19.69 - 4.2 33.3 07 14 4630 090F Alarm State:  0
Fri Jun 22 16:37:49 PDT 2018 ON: 20.01 +20.0 19.72 - 5.3 32.4 08 12 4625 0928 Alarm State:  0
Fri Jun 22 16:36:48 PDT 2018 ON: 19.98 +20.0 19.63 - 3.4 33.7 07 14 470E 0929 Alarm State:  0
Fri Jun 22 16:35:46 PDT 2018 ON: 20.04 +20.0 19.72 - 5.3 32.4 0D 12 4717 0901 Alarm State:  0
Fri Jun 22 16:34:45 PDT 2018 ON: 19.98 +20.0 19.64 - 3.0 34.1 02 14 4721 090D Alarm State:  0
Fri Jun 22 16:33:43 PDT 2018 ON: 20.02 +20.0 19.69 - 3.9 33.8 08 14 4712 0903 Alarm State:  0
Fri Jun 22 16:32:42 PDT 2018 ON: 20.00 +20.0 19.70 - 4.3 33.2 0A 13 461D 0916 Alarm State:  0
Fri Jun 22 16:31:40 PDT 2018 ON: 20.02 +20.0 19.68 - 5.0 32.6 00 14 461A 090E Alarm State:  0
Fri Jun 22 16:30:39 PDT 2018 ON: 19.99 +20.0 19.66 - 3.4 33.9 02 14 4626 091C Alarm State:  0
Fri Jun 22 16:29:37 PDT 2018 ON: 20.02 +20.0 19.72 - 4.9 32.7 0D 13 4625 0A02 Alarm State:  0
Fri Jun 22 16:28:36 PDT 2018 ON: 19.97 +20.0 19.58 - 2.3 34.1 00 14 4720 0918 Alarm State:  0
Fri Jun 22 16:27:34 PDT 2018 ON: 20.00 +20.0 19.66 - 4.1 33.2 05 14 4705 0912 Alarm State:  0
Fri Jun 22 16:26:33 PDT 2018 ON: 20.02 +20.0 19.69 - 4.6 32.9 0A 14 4711 091A Alarm State:  0
Fri Jun 22 16:25:31 PDT 2018 ON: 20.00 +20.0 19.68 - 4.5 33.0 00 14 4629 0901 Alarm State:  0
Fri Jun 22 16:24:30 PDT 2018 ON: 20.01 +20.0 19.62 - 2.6 33.9 05 14 4712 0909 Alarm State:  0
Fri Jun 22 16:23:28 PDT 2018 ON: 20.01 +20.0 19.67 - 4.3 33.2 02 14 4620 0919 Alarm State:  0
Fri Jun 22 16:22:27 PDT 2018 ON: 20.02 +20.0 19.63 - 3.8 33.4 00 14 470F 0913 Alarm State:  0
Fri Jun 22 16:21:25 PDT 2018 ON: 19.98 +20.0 19.66 - 3.8 33.5 00 14 462B 0913 Alarm State:  0
Fri Jun 22 16:20:24 PDT 2018 ON: 20.02 +20.0 19.72 - 5.1 32.7 0D 12 462F 0925 Alarm State:  0
Fri Jun 22 16:19:22 PDT 2018 ON: 19.98 +20.0 19.60 - 2.6 34.0 07 14 4717 092B Alarm State:  0
Fri Jun 22 16:18:21 PDT 2018 ON: 20.01 +20.0 19.66 - 3.7 33.8 0A 14 471B 091A Alarm State:  0
Fri Jun 22 16:17:19 PDT 2018 ON: 20.03 +20.0 19.69 - 4.5 32.9 0D 14 4712 0912 Alarm State:  0
Fri Jun 22 16:16:18 PDT 2018 ON: 20.05 +20.0 19.68 - 4.5 32.9 02 14 4725 091F Alarm State:  0
Fri Jun 22 16:15:16 PDT 2018 ON: 20.01 +20.0 19.67 - 4.4 33.0 02 14 4705 0905 Alarm State:  0
Fri Jun 22 16:14:15 PDT 2018 ON: 19.98 +20.0 19.63 - 2.8 34.1 05 14 4708 0924 Alarm State:  0
Fri Jun 22 16:13:13 PDT 2018 ON: 20.01 +20.0 19.67 - 4.6 32.8 07 14 461F 0925 Alarm State:  0
Fri Jun 22 16:12:12 PDT 2018 ON: 20.01 +20.0 19.64 - 3.8 33.4 00 14 470B 0923 Alarm State:  0
Fri Jun 22 16:11:10 PDT 2018 ON: 20.00 +20.0 19.65 - 3.7 33.6 05 14 462A 0924 Alarm State:  0
Fri Jun 22 16:10:09 PDT 2018 ON: 20.04 +20.0 19.72 - 4.8 32.9 0A 12 462D 0902 Alarm State:  0
Fri Jun 22 16:09:07 PDT 2018 ON: 20.01 +20.0 19.65 - 3.5 33.4 00 14 462D 0922 Alarm State:  0
Fri Jun 22 16:08:06 PDT 2018 ON: 19.99 +20.0 19.64 - 3.2 33.7 00 14 4616 0903 Alarm State:  0
Fri Jun 22 16:07:05 PDT 2018 ON: 19.98 +20.0 19.65 - 4.2 33.1 05 14 4614 0923 Alarm State:  0
Fri Jun 22 16:06:03 PDT 2018 ON: 20.03 +20.0 19.71 - 5.0 32.6 0A 13 4700 0912 Alarm State:  0
Fri Jun 22 16:05:02 PDT 2018 ON: 19.99 +20.0 19.64 - 3.5 33.6 05 14 4714 091D Alarm State:  0
Fri Jun 22 16:04:00 PDT 2018 ON: 20.03 +20.0 19.71 - 4.6 33.0 0A 13 471F 091A Alarm State:  0
Fri Jun 22 16:02:59 PDT 2018 ON: 20.01 +20.0 19.68 - 4.7 32.9 00 14 4713 091B Alarm State:  0
Fri Jun 22 16:01:57 PDT 2018 ON: 19.97 +20.0 19.64 - 3.0 34.0 02 14 4710 090D Alarm State:  0
Fri Jun 22 16:00:56 PDT 2018 ON: 20.01 +20.0 19.68 - 4.1 33.4 05 14 4702 0906 Alarm State:  0
Fri Jun 22 15:59:54 PDT 2018 ON: 20.02 +20.0 19.71 - 5.1 32.8 0D 13 4620 0908 Alarm State:  0
Fri Jun 22 15:58:53 PDT 2018 ON: 19.99 +20.0 19.62 - 2.7 34.1 05 14 4709 0914 Alarm State:  0
Fri Jun 22 15:57:51 PDT 2018 ON: 20.02 +20.0 19.69 - 4.8 32.8 05 14 4623 0910 Alarm State:  0
Fri Jun 22 15:56:50 PDT 2018 ON: 19.99 +20.0 19.61 - 2.8 33.8 02 14 471A 0902 Alarm State:  0
Fri Jun 22 15:55:48 PDT 2018 ON: 20.00 +20.0 19.67 - 3.9 33.4 07 14 4703 0908 Alarm State:  0
Fri Jun 22 15:54:47 PDT 2018 ON: 20.05 +20.0 19.71 - 5.0 32.7 05 13 4703 0922 Alarm State:  0
Fri Jun 22 15:53:45 PDT 2018 ON: 20.01 +20.0 19.64 - 2.9 34.0 07 14 4706 0916 Alarm State:  0
Fri Jun 22 15:52:44 PDT 2018 ON: 20.00 +20.0 19.66 - 3.6 33.7 02 14 460F 0923 Alarm State:  0
Fri Jun 22 15:51:42 PDT 2018 ON: 19.99 +20.0 19.68 - 4.4 33.0 00 14 451F 0A06 Alarm State:  0
Fri Jun 22 15:50:41 PDT 2018 ON: 20.02 +20.0 19.70 - 4.8 32.8 0D 14 460E 0A03 Alarm State:  0
Fri Jun 22 15:49:39 PDT 2018 ON: 19.97 +20.0 19.61 - 3.1 34.0 09 14 4625 092C Alarm State:  0
Fri Jun 22 15:48:38 PDT 2018 ON: 20.02 +20.0 19.73 - 5.1 32.7 0D 12 4629 0A0D Alarm State:  0
Fri Jun 22 15:47:36 PDT 2018 ON: 19.99 +20.0 19.59 - 2.2 34.1 01 14 4721 0922 Alarm State:  0
Fri Jun 22 15:46:35 PDT 2018 ON: 19.99 +20.0 19.66 - 4.1 33.3 05 14 4713 0921 Alarm State:  0
Fri Jun 22 15:45:33 PDT 2018 ON: 20.03 +20.0 19.72 - 5.1 32.6 0D 12 4716 0903 Alarm State:  0
Fri Jun 22 15:44:32 PDT 2018 ON: 20.01 +20.0 19.63 - 2.6 34.0 0A 14 4720 0917 Alarm State:  0
Fri Jun 22 15:43:30 PDT 2018 ON: 20.01 +20.0 19.68 - 4.4 33.1 07 14 4701 091D Alarm State:  0
Fri Jun 22 15:42:29 PDT 2018 ON: 20.02 +20.0 19.66 - 4.2 33.1 00 14 471B 0923 Alarm State:  0
Fri Jun 22 15:41:27 PDT 2018 ON: 20.00 +20.0 19.66 - 4.3 32.9 00 14 4716 0923 Alarm State:  0
Fri Jun 22 15:40:26 PDT 2018 ON: 19.99 +20.0 19.60 - 2.4 33.9 02 14 480B 090F Alarm State:  0
Fri Jun 22 15:39:24 PDT 2018 ON: 19.99 +20.0 19.66 - 3.3 33.9 05 14 4727 0919 Alarm State:  0
Fri Jun 22 15:38:23 PDT 2018 ON: 19.99 +20.0 19.65 - 3.7 33.7 05 14 4727 091A Alarm State:  0
Fri Jun 22 15:37:21 PDT 2018 ON: 20.02 +20.0 19.71 - 4.6 33.3 0A 13 471E 090A Alarm State:  0
Fri Jun 22 15:36:20 PDT 2018 ON: 20.03 +20.0 19.72 - 5.0 32.7 08 12 4622 091E Alarm State:  0
Fri Jun 22 15:35:18 PDT 2018 ON: 19.99 +20.0 19.60 - 2.4 34.1 01 14 470F 0925 Alarm State:  0
Fri Jun 22 15:34:17 PDT 2018 ON: 20.00 +20.0 19.68 - 4.3 33.1 00 14 461F 0A06 Alarm State:  0
Fri Jun 22 15:33:15 PDT 2018 ON: 20.02 +20.0 19.63 - 3.5 33.5 00 14 470C 0907 Alarm State:  0
Fri Jun 22 15:32:14 PDT 2018 ON: 20.00 +20.0 19.65 - 3.5 33.9 00 14 462C 0905 Alarm State:  0
Fri Jun 22 15:31:12 PDT 2018 ON: 20.01 +20.0 19.74 - 5.3 32.4 0D 12 4620 0A00 Alarm State:  0
Fri Jun 22 15:30:11 PDT 2018 ON: 19.96 +20.0 19.58 - 2.4 34.2 09 14 471C 0915 Alarm State:  0
Fri Jun 22 15:29:09 PDT 2018 ON: 20.01 +20.0 19.68 - 4.1 33.6 0A 14 4718 0925 Alarm State:  0
Fri Jun 22 15:28:08 PDT 2018 ON: 20.02 +20.0 19.68 - 3.9 33.5 05 14 4723 091B Alarm State:  0
Fri Jun 22 15:27:06 PDT 2018 ON: 20.01 +20.0 19.70 - 4.3 33.5 0D 13 4721 090C Alarm State:  0
Fri Jun 22 15:26:05 PDT 2018 ON: 20.01 +20.0 19.71 - 4.3 33.5 0D 13 4631 091E Alarm State:  0
Fri Jun 22 15:25:03 PDT 2018 ON: 20.02 +20.0 19.71 - 4.9 32.7 0D 13 461F 0929 Alarm State:  0
Fri Jun 22 15:24:02 PDT 2018 ON: 20.00 +20.0 19.58 - 2.5 33.9 01 14 471D 090C Alarm State:  0
Fri Jun 22 15:23:00 PDT 2018 ON: 19.98 +20.0 19.63 - 2.9 33.9 02 14 471B 090F Alarm State:  0
Fri Jun 22 15:21:59 PDT 2018 ON: 19.99 +20.0 19.65 - 3.4 33.9 05 14 4708 0915 Alarm State:  0
Fri Jun 22 15:20:58 PDT 2018 ON: 20.01 +20.0 19.70 - 4.6 33.0 0A 13 4627 0918 Alarm State:  0
Fri Jun 22 15:19:56 PDT 2018 ON: 20.00 +20.0 19.61 - 2.8 33.8 00 14 4711 0925 Alarm State:  0
Fri Jun 22 15:18:55 PDT 2018 ON: 20.01 +20.0 19.67 - 3.5 33.9 05 14 461C 090D Alarm State:  0
Fri Jun 22 15:17:53 PDT 2018 ON: 20.01 +20.0 19.70 - 4.7 32.9 0D 14 4609 0A11 Alarm State:  0
Fri Jun 22 15:16:52 PDT 2018 ON: 19.97 +20.0 19.57 - 2.2 34.0 00 14 4712 090F Alarm State:  0
Fri Jun 22 15:15:50 PDT 2018 ON: 19.99 +20.0 19.66 - 3.9 33.4 05 14 4701 0911 Alarm State:  0
Fri Jun 22 15:14:49 PDT 2018 ON: 20.03 +20.0 19.71 - 4.6 33.0 0D 13 470B 091B Alarm State:  0
Fri Jun 22 15:13:47 PDT 2018 ON: 20.01 +20.0 19.70 - 4.6 32.9 0D 13 462D 0925 Alarm State:  0
Fri Jun 22 15:12:46 PDT 2018 ON: 20.03 +20.0 19.68 - 4.7 32.8 02 14 4627 091A Alarm State:  0
Fri Jun 22 15:11:44 PDT 2018 ON: 19.98 +20.0 19.63 - 3.0 34.0 00 14 4701 092C Alarm State:  0
Fri Jun 22 15:10:43 PDT 2018 ON: 20.00 +20.0 19.71 - 4.6 32.9 0D 13 4628 091B Alarm State:  0
Fri Jun 22 15:09:41 PDT 2018 ON: 20.00 +20.0 19.60 - 3.0 33.7 00 14 471A 0922 Alarm State:  0
Fri Jun 22 15:08:40 PDT 2018 ON: 20.00 +20.0 19.66 - 4.1 33.2 05 14 462D 092D Alarm State:  0
Fri Jun 22 15:07:38 PDT 2018 ON: 20.04 +20.0 19.69 - 4.6 32.9 0D 14 470F 0905 Alarm State:  0
Fri Jun 22 15:06:37 PDT 2018 ON: 20.01 +20.0 19.63 - 3.5 33.5 00 14 470B 090A Alarm State:  0
Fri Jun 22 15:05:35 PDT 2018 ON: 19.97 +20.0 19.65 - 3.8 33.4 05 14 462B 0A06 Alarm State:  0
Fri Jun 22 15:04:34 PDT 2018 ON: 20.03 +20.0 19.71 - 4.6 32.8 0D 13 4702 0913 Alarm State:  0
Fri Jun 22 15:03:32 PDT 2018 ON: 20.03 +20.0 19.68 - 4.6 33.0 00 14 4624 0915 Alarm State:  0
Fri Jun 22 15:02:31 PDT 2018 ON: 19.99 +20.0 19.64 - 3.0 34.0 05 14 4618 091A Alarm State:  0
Fri Jun 22 15:01:29 PDT 2018 ON: 20.01 +20.0 19.73 - 5.0 32.7 0D 12 4605 0A1E Alarm State:  0
Fri Jun 22 15:00:28 PDT 2018 ON: 19.97 +20.0 19.59 - 2.2 34.2 00 14 470C 091C Alarm State:  0
Fri Jun 22 14:59:26 PDT 2018 ON: 20.00 +20.0 19.68 - 3.7 33.7 07 14 4701 0914 Alarm State:  0
Fri Jun 22 14:58:25 PDT 2018 ON: 20.01 +20.0 19.66 - 3.1 34.0 07 14 470F 0909 Alarm State:  0
Fri Jun 22 14:57:23 PDT 2018 ON: 20.03 +20.0 19.69 - 4.5 32.9 00 14 462D 090B Alarm State:  0
Fri Jun 22 14:56:22 PDT 2018 ON: 20.04 +20.0 19.69 - 4.6 32.9 0A 14 470D 0912 Alarm State:  0
Fri Jun 22 14:55:20 PDT 2018 ON: 19.98 +20.0 19.62 - 2.8 34.0 00 14 470F 090B Alarm State:  0
Fri Jun 22 14:54:19 PDT 2018 ON: 20.01 +20.0 19.69 - 4.5 32.9 00 14 4624 0914 Alarm State:  0
Fri Jun 22 14:53:17 PDT 2018 ON: 20.02 +20.0 19.64 - 3.2 33.6 00 14 4718 0909 Alarm State:  0
Fri Jun 22 14:52:16 PDT 2018 ON: 20.02 +20.0 19.67 - 4.1 33.4 00 14 4616 091D Alarm State:  0
Fri Jun 22 14:51:14 PDT 2018 ON: 20.00 +20.0 19.68 - 3.6 33.8 00 14 4606 091A Alarm State:  0
Fri Jun 22 14:50:13 PDT 2018 ON: 20.03 +20.0 19.74 - 5.4 32.5 0D 12 452C 0A12 Alarm State:  0
Fri Jun 22 14:49:11 PDT 2018 ON: 19.97 +20.0 19.64 - 3.1 34.0 02 14 4617 0A04 Alarm State:  0
Fri Jun 22 14:48:10 PDT 2018 ON: 20.00 +20.0 19.71 - 5.0 32.7 0D 13 461C 0A1E Alarm State:  0
Fri Jun 22 14:47:08 PDT 2018 ON: 19.99 +20.0 19.61 - 2.6 34.2 05 14 4721 091E Alarm State:  0
Fri Jun 22 14:46:07 PDT 2018 ON: 20.03 +20.0 19.68 - 3.7 33.8 05 14 471A 090E Alarm State:  0
Fri Jun 22 14:45:05 PDT 2018 ON: 20.01 +20.0 19.70 - 4.6 32.9 0D 13 4625 091F Alarm State:  0
Fri Jun 22 14:44:04 PDT 2018 ON: 20.00 +20.0 19.65 - 4.0 33.3 02 14 470B 0905 Alarm State:  0
Fri Jun 22 14:43:02 PDT 2018 ON: 19.99 +20.0 19.61 - 2.4 34.1 02 14 4727 0909 Alarm State:  0
Fri Jun 22 14:42:01 PDT 2018 ON: 20.00 +20.0 19.66 - 3.7 33.6 07 14 4724 0903 Alarm State:  0
Fri Jun 22 14:40:59 PDT 2018 ON: 20.03 +20.0 19.69 - 4.6 33.2 0A 14 4726 091B Alarm State:  0
Fri Jun 22 14:39:58 PDT 2018 ON: 20.03 +20.0 19.74 - 5.2 32.7 08 11 4624 0904 Alarm State:  0
Fri Jun 22 14:38:56 PDT 2018 ON: 19.97 +20.0 19.61 - 2.4 34.0 02 14 4709 0910 Alarm State:  0
Fri Jun 22 14:37:55 PDT 2018 ON: 19.99 +20.0 19.68 - 4.2 33.2 07 14 4623 0910 Alarm State:  0
Fri Jun 22 14:36:53 PDT 2018 ON: 20.04 +20.0 19.66 - 3.6 33.4 00 14 4714 090E Alarm State:  0
Fri Jun 22 14:35:52 PDT 2018 ON: 20.00 +20.0 19.65 - 3.6 33.7 05 14 462C 0912 Alarm State:  0
Fri Jun 22 14:34:50 PDT 2018 ON: 20.01 +20.0 19.71 - 4.9 32.7 0A 13 462E 0928 Alarm State:  0
Fri Jun 22 14:33:49 PDT 2018 ON: 19.99 +20.0 19.61 - 3.2 33.7 00 14 4710 090C Alarm State:  0
Fri Jun 22 14:32:47 PDT 2018 ON: 19.97 +20.0 19.65 - 3.5 33.6 0A 14 4722 091E Alarm State:  0
Fri Jun 22 14:31:46 PDT 2018 ON: 20.03 +20.0 19.71 - 4.5 33.1 0A 13 4727 0923 Alarm State:  0
Fri Jun 22 14:30:45 PDT 2018 ON: 20.01 +20.0 19.69 - 4.0 33.6 0D 14 4707 090D Alarm State:  0
Fri Jun 22 14:29:43 PDT 2018 ON: 20.00 +20.0 19.69 - 4.1 33.2 08 14 4700 0915 Alarm State:  0
Fri Jun 22 14:28:42 PDT 2018 ON: 20.02 +20.0 19.64 - 3.5 33.5 02 14 471C 091D Alarm State:  0
Fri Jun 22 14:27:40 PDT 2018 ON: 19.99 +20.0 19.63 - 2.6 34.0 02 14 4711 0919 Alarm State:  0
Fri Jun 22 14:26:39 PDT 2018 ON: 20.01 +20.0 19.69 - 4.3 33.2 00 14 4619 0928 Alarm State:  0
Fri Jun 22 14:25:37 PDT 2018 ON: 20.04 +20.0 19.69 - 4.6 32.8 00 14 4620 0912 Alarm State:  0
Fri Jun 22 14:24:36 PDT 2018 ON: 19.96 +20.0 19.61 - 2.7 34.1 01 14 4630 0927 Alarm State:  0
Fri Jun 22 14:23:34 PDT 2018 ON: 20.01 +20.0 19.71 - 4.5 33.0 0D 13 4627 0917 Alarm State:  0
Fri Jun 22 14:22:33 PDT 2018 ON: 20.01 +20.0 19.63 - 3.3 33.6 00 14 470C 0913 Alarm State:  0
Fri Jun 22 14:21:31 PDT 2018 ON: 19.99 +20.0 19.61 - 2.8 34.0 05 14 4709 0909 Alarm State:  0
Fri Jun 22 14:20:30 PDT 2018 ON: 20.00 +20.0 19.68 - 4.2 33.0 05 14 462A 0A08 Alarm State:  0
Fri Jun 22 14:19:28 PDT 2018 ON: 20.02 +20.0 19.70 - 4.3 33.1 08 13 4714 090C Alarm State:  0
Fri Jun 22 14:18:27 PDT 2018 ON: 20.02 +20.0 19.66 - 4.2 33.1 05 14 4702 090B Alarm State:  0
Fri Jun 22 14:17:25 PDT 2018 ON: 19.98 +20.0 19.63 - 3.4 33.7 07 14 4632 0924 Alarm State:  0
Fri Jun 22 14:16:24 PDT 2018 ON: 20.03 +20.0 19.69 - 4.5 33.2 0D 14 4709 0907 Alarm State:  0
Fri Jun 22 14:15:22 PDT 2018 ON: 20.02 +20.0 19.71 - 4.9 32.8 0D 13 461B 0917 Alarm State:  0
Fri Jun 22 14:14:21 PDT 2018 ON: 19.99 +20.0 19.60 - 2.3 34.2 04 14 470B 090C Alarm State:  0
Fri Jun 22 14:13:19 PDT 2018 ON: 20.00 +20.0 19.68 - 4.4 33.2 07 14 462A 0905 Alarm State:  0
Fri Jun 22 14:12:18 PDT 2018 ON: 20.02 +20.0 19.71 - 4.7 32.7 0D 13 4625 0922 Alarm State:  0
Fri Jun 22 14:11:16 PDT 2018 ON: 19.99 +20.0 19.61 - 2.4 34.0 02 14 4716 0925 Alarm State:  0
Fri Jun 22 14:10:15 PDT 2018 ON: 19.99 +20.0 19.67 - 4.0 33.1 07 14 470F 091F Alarm State:  0
Fri Jun 22 14:09:13 PDT 2018 ON: 20.04 +20.0 19.68 - 4.1 33.3 02 14 472D 091D Alarm State:  0
Fri Jun 22 14:08:12 PDT 2018 ON: 20.04 +20.0 19.64 - 3.4 33.7 02 14 4714 0927 Alarm State:  0
Fri Jun 22 14:07:10 PDT 2018 ON: 20.00 +20.0 19.65 - 3.5 33.5 00 14 461B 090D Alarm State:  0
Fri Jun 22 14:06:09 PDT 2018 ON: 19.98 +20.0 19.66 - 4.0 33.1 00 14 4612 0A01 Alarm State:  0
Fri Jun 22 14:05:07 PDT 2018 ON: 20.02 +20.0 19.67 - 4.1 33.2 02 14 470B 0911 Alarm State:  0
Fri Jun 22 14:04:06 PDT 2018 ON: 19.99 +20.0 19.62 - 3.0 33.9 07 14 4708 0905 Alarm State:  0
Fri Jun 22 14:03:04 PDT 2018 ON: 20.00 +20.0 19.66 - 4.0 33.3 07 14 462F 0929 Alarm State:  0
Fri Jun 22 14:02:03 PDT 2018 ON: 20.02 +20.0 19.63 - 3.0 33.6 00 14 4804 0906 Alarm State:  0
Fri Jun 22 14:01:01 PDT 2018 ON: 19.98 +20.0 19.62 - 2.7 34.0 07 14 4800 0926 Alarm State:  0
Fri Jun 22 14:00:00 PDT 2018 ON: 19.98 +20.0 19.65 - 3.6 33.6 02 14 4728 0A01 Alarm State:  0
Fri Jun 22 13:58:58 PDT 2018 ON: 20.03 +20.0 19.71 - 4.4 33.5 0D 13 4720 0920 Alarm State:  0
Fri Jun 22 13:57:57 PDT 2018 ON: 20.01 +20.0 19.68 - 3.9 33.7 05 14 4620 090B Alarm State:  0
Fri Jun 22 13:56:55 PDT 2018 ON: 20.02 +20.0 19.70 - 4.9 32.8 0D 13 4610 090E Alarm State:  0
Fri Jun 22 13:55:54 PDT 2018 ON: 20.00 +20.0 19.58 - 2.6 33.8 00 14 470A 0903 Alarm State:  0
Fri Jun 22 13:54:52 PDT 2018 ON: 19.98 +20.0 19.66 - 3.9 33.2 05 14 4702 0925 Alarm State:  0
Fri Jun 22 13:53:51 PDT 2018 ON: 20.00 +20.0 19.67 - 3.8 33.4 02 14 472B 0910 Alarm State:  0
Fri Jun 22 13:52:49 PDT 2018 ON: 20.02 +20.0 19.63 - 2.9 33.8 02 14 4729 0909 Alarm State:  0
Fri Jun 22 13:51:48 PDT 2018 ON: 20.01 +20.0 19.68 - 3.9 33.6 07 14 462B 0917 Alarm State:  0
Fri Jun 22 13:50:46 PDT 2018 ON: 20.02 +20.0 19.70 - 4.5 33.0 0D 13 461F 0910 Alarm State:  0
Fri Jun 22 13:49:45 PDT 2018 ON: 20.01 +20.0 19.66 - 3.5 33.5 00 14 461C 0900 Alarm State:  0
Fri Jun 22 13:48:43 PDT 2018 ON: 19.97 +20.0 19.66 - 3.8 33.2 07 14 460E 0929 Alarm State:  0
Fri Jun 22 13:47:42 PDT 2018 ON: 20.00 +20.0 19.62 - 3.3 33.6 00 14 4712 0906 Alarm State:  0
Fri Jun 22 13:46:40 PDT 2018 ON: 19.99 +20.0 19.64 - 3.3 33.9 0A 14 4629 090F Alarm State:  0
Fri Jun 22 13:45:39 PDT 2018 ON: 20.00 +20.0 19.70 - 4.5 32.9 0A 13 4614 0911 Alarm State:  0
Fri Jun 22 13:44:37 PDT 2018 ON: 20.02 +20.0 19.64 - 3.3 33.6 00 14 4709 090D Alarm State:  0
Fri Jun 22 13:43:36 PDT 2018 ON: 20.01 +20.0 19.67 - 3.6 33.8 0C 14 4615 091F Alarm State:  0
Fri Jun 22 13:42:35 PDT 2018 ON: 20.00 +20.0 19.72 - 4.7 33.0 0D 12 4607 0928 Alarm State:  0
Fri Jun 22 13:41:33 PDT 2018 ON: 19.97 +20.0 19.59 - 2.2 34.0 00 14 4703 0909 Alarm State:  0
Fri Jun 22 13:40:32 PDT 2018 ON: 20.00 +20.0 19.68 - 4.1 33.0 07 14 4620 0A08 Alarm State:  0
Fri Jun 22 13:39:30 PDT 2018 ON: 20.02 +20.0 19.70 - 4.3 33.1 0D 13 4710 0906 Alarm State:  0
Fri Jun 22 13:38:29 PDT 2018 ON: 20.02 +20.0 19.63 - 3.3 33.6 00 14 471C 0928 Alarm State:  0
Fri Jun 22 13:37:27 PDT 2018 ON: 20.02 +20.0 19.65 - 3.6 33.6 00 14 4630 090B Alarm State:  0
Fri Jun 22 13:36:26 PDT 2018 ON: 19.98 +20.0 19.62 - 2.8 34.0 00 14 462A 090C Alarm State:  0
Fri Jun 22 13:35:24 PDT 2018 ON: 20.00 +20.0 19.69 - 4.3 33.1 00 14 460F 0A14 Alarm State:  0
Fri Jun 22 13:34:23 PDT 2018 ON: 20.01 +20.0 19.60 - 3.1 33.6 00 14 4712 0926 Alarm State:  0
Fri Jun 22 13:33:21 PDT 2018 ON: 20.00 +20.0 19.67 - 4.1 33.1 07 14 462C 0929 Alarm State:  0
Fri Jun 22 13:32:20 PDT 2018 ON: 20.02 +20.0 19.69 - 4.5 32.9 05 14 4719 0915 Alarm State:  0
Fri Jun 22 13:31:18 PDT 2018 ON: 19.97 +20.0 19.62 - 2.8 34.2 07 14 4732 091B Alarm State:  0
Fri Jun 22 13:30:17 PDT 2018 ON: 20.01 +20.0 19.69 - 3.8 33.7 0D 14 4731 0928 Alarm State:  0
Fri Jun 22 13:29:15 PDT 2018 ON: 20.01 +20.0 19.68 - 4.4 33.1 05 14 471B 090A Alarm State:  0
Fri Jun 22 13:28:14 PDT 2018 ON: 20.01 +20.0 19.70 - 4.3 33.1 0D 13 4722 0927 Alarm State:  0
Fri Jun 22 13:27:12 PDT 2018 ON: 20.03 +20.0 19.65 - 3.6 33.5 00 14 4726 0914 Alarm State:  0
Fri Jun 22 13:26:11 PDT 2018 ON: 20.04 +20.0 19.67 - 3.9 33.3 00 14 4705 0924 Alarm State:  0
Fri Jun 22 13:25:09 PDT 2018 ON: 19.98 +20.0 19.65 - 3.4 33.7 05 14 462A 091D Alarm State:  0
Fri Jun 22 13:24:08 PDT 2018 ON: 20.01 +20.0 19.70 - 4.8 32.7 0A 13 462F 0901 Alarm State:  0
Fri Jun 22 13:23:06 PDT 2018 ON: 19.99 +20.0 19.64 - 3.2 33.7 02 14 470E 0905 Alarm State:  0
Fri Jun 22 13:22:05 PDT 2018 ON: 19.98 +20.0 19.61 - 2.6 34.1 00 14 4713 0920 Alarm State:  0
Fri Jun 22 13:21:03 PDT 2018 ON: 20.02 +20.0 19.64 - 3.0 34.0 02 14 4705 091D Alarm State:  0
Fri Jun 22 13:20:02 PDT 2018 ON: 20.01 +20.0 19.68 - 3.9 33.6 05 14 460F 0904 Alarm State:  0
Fri Jun 22 13:19:00 PDT 2018 ON: 20.02 +20.0 19.71 - 5.0 32.8 08 13 4605 0928 Alarm State:  0
Fri Jun 22 13:17:59 PDT 2018 ON: 20.00 +20.0 19.62 - 3.1 33.7 00 14 4614 090C Alarm State:  0
Fri Jun 22 13:16:57 PDT 2018 ON: 19.98 +20.0 19.67 - 3.6 33.7 02 14 4614 0A07 Alarm State:  0
Fri Jun 22 13:15:56 PDT 2018 ON: 19.99 +20.0 19.69 - 3.9 33.5 0D 14 4704 0909 Alarm State:  0
Fri Jun 22 13:14:54 PDT 2018 ON: 20.01 +20.0 19.70 - 4.2 33.3 0D 13 4712 091B Alarm State:  0
Fri Jun 22 13:13:53 PDT 2018 ON: 20.03 +20.0 19.72 - 4.9 32.8 0D 12 4707 0913 Alarm State:  0
Fri Jun 22 13:12:51 PDT 2018 ON: 20.00 +20.0 19.65 - 3.1 34.0 00 14 4705 090A Alarm State:  0
Fri Jun 22 13:11:50 PDT 2018 ON: 20.03 +20.0 19.70 - 4.7 32.7 0A 13 4627 0906 Alarm State:  0
Fri Jun 22 13:10:48 PDT 2018 ON: 20.02 +20.0 19.68 - 4.3 33.2 00 14 4700 0922 Alarm State:  0
Fri Jun 22 13:09:47 PDT 2018 ON: 19.98 +20.0 19.65 - 3.1 34.0 02 14 462A 0920 Alarm State:  0
Fri Jun 22 13:08:45 PDT 2018 ON: 20.02 +20.0 19.70 - 4.9 32.8 0D 13 4616 091B Alarm State:  0
Fri Jun 22 13:07:44 PDT 2018 ON: 19.99 +20.0 19.59 - 2.3 34.0 00 14 4712 0906 Alarm State:  0
Fri Jun 22 13:06:42 PDT 2018 ON: 20.00 +20.0 19.63 - 3.1 33.8 02 14 4708 0903 Alarm State:  0
Fri Jun 22 13:05:41 PDT 2018 ON: 20.00 +20.0 19.68 - 4.0 33.1 00 14 462A 0A05 Alarm State:  0
Fri Jun 22 13:04:39 PDT 2018 ON: 20.01 +20.0 19.65 - 3.4 33.5 00 14 4725 0920 Alarm State:  0
Fri Jun 22 13:03:38 PDT 2018 ON: 19.99 +20.0 19.67 - 3.5 33.6 05 14 4718 0920 Alarm State:  0
Fri Jun 22 13:02:36 PDT 2018 ON: 20.02 +20.0 19.68 - 4.5 33.1 02 14 4712 0911 Alarm State:  0
Fri Jun 22 13:01:35 PDT 2018 ON: 20.03 +20.0 19.68 - 4.6 32.9 02 14 462E 0923 Alarm State:  0
Fri Jun 22 13:00:33 PDT 2018 ON: 19.98 +20.0 19.64 - 3.1 34.0 05 14 4703 0908 Alarm State:  0
Fri Jun 22 12:59:32 PDT 2018 ON: 20.01 +20.0 19.71 - 4.6 33.0 0A 13 4631 0927 Alarm State:  0
Fri Jun 22 12:58:30 PDT 2018 ON: 19.98 +20.0 19.62 - 2.6 33.9 07 14 4720 0902 Alarm State:  0
Fri Jun 22 12:57:29 PDT 2018 ON: 20.01 +20.0 19.65 - 4.1 33.4 00 14 4701 090E Alarm State:  0
Fri Jun 22 12:56:27 PDT 2018 ON: 20.00 +20.0 19.62 - 2.8 34.1 02 14 4707 0920 Alarm State:  0
Fri Jun 22 12:55:26 PDT 2018 ON: 20.04 +20.0 19.72 - 4.7 32.9 0D 12 462D 0912 Alarm State:  0
Fri Jun 22 12:54:24 PDT 2018 ON: 19.99 +20.0 19.61 - 3.3 33.6 00 14 470A 0924 Alarm State:  0
Fri Jun 22 12:53:23 PDT 2018 ON: 19.98 +20.0 19.65 - 3.8 33.0 00 14 4630 0920 Alarm State:  0
Fri Jun 22 12:52:21 PDT 2018 ON: 20.04 +20.0 19.69 - 4.6 32.8 05 14 4713 0916 Alarm State:  0
Fri Jun 22 12:51:20 PDT 2018 ON: 19.99 +20.0 19.65 - 3.0 34.0 05 14 470C 090A Alarm State:  0
Fri Jun 22 12:50:18 PDT 2018 ON: 20.00 +20.0 19.67 - 4.4 33.0 00 14 4704 0A05 Alarm State:  0
Fri Jun 22 12:49:17 PDT 2018 ON: 20.02 +20.0 19.67 - 3.9 33.3 00 14 4731 0905 Alarm State:  0
Fri Jun 22 12:48:15 PDT 2018 ON: 20.00 +20.0 19.62 - 3.0 33.6 00 14 4804 091F Alarm State:  0
Fri Jun 22 12:47:14 PDT 2018 ON: 20.00 +20.0 19.63 - 3.0 33.9 02 14 4720 0900 Alarm State:  0
Fri Jun 22 12:46:12 PDT 2018 ON: 20.01 +20.0 19.69 - 3.8 33.7 0C 14 4631 090B Alarm State:  0
Fri Jun 22 12:45:11 PDT 2018 ON: 20.02 +20.0 19.70 - 4.0 33.3 0D 13 4632 0928 Alarm State:  0
Fri Jun 22 12:44:09 PDT 2018 ON: 20.01 +20.0 19.71 - 4.7 33.0 05 13 4701 091F Alarm State:  0
Fri Jun 22 12:43:08 PDT 2018 ON: 20.01 +20.0 19.67 - 4.1 33.2 00 14 4615 0A06 Alarm State:  0
Fri Jun 22 12:42:06 PDT 2018 ON: 19.97 +20.0 19.66 - 3.7 33.2 07 14 4623 0A0C Alarm State:  0
Fri Jun 22 12:41:05 PDT 2018 ON: 20.02 +20.0 19.70 - 4.5 32.7 0A 13 470F 0927 Alarm State:  0
Fri Jun 22 12:40:04 PDT 2018 ON: 19.97 +20.0 19.60 - 2.3 34.2 01 14 472C 091F Alarm State:  0
Fri Jun 22 12:39:02 PDT 2018 ON: 20.02 +20.0 19.67 - 3.3 34.0 00 14 472A 0914 Alarm State:  0
Fri Jun 22 12:38:01 PDT 2018 ON: 20.01 +20.0 19.66 - 3.2 34.0 0A 14 4717 091E Alarm State:  0
Fri Jun 22 12:36:59 PDT 2018 ON: 20.00 +20.0 19.68 - 3.8 33.6 05 14 4632 0904 Alarm State:  0
Fri Jun 22 12:35:58 PDT 2018 ON: 20.00 +20.0 19.71 - 4.2 33.5 08 13 4625 0925 Alarm State:  0
Fri Jun 22 12:34:56 PDT 2018 ON: 20.02 +20.0 19.73 - 5.2 32.6 0D 12 452A 0911 Alarm State:  0
Fri Jun 22 12:33:55 PDT 2018 ON: 19.98 +20.0 19.61 - 2.7 34.2 01 14 4604 0922 Alarm State:  0
Fri Jun 22 12:32:53 PDT 2018 ON: 20.02 +20.0 19.73 - 5.2 32.6 0D 12 4525 0A19 Alarm State:  0
Fri Jun 22 12:31:52 PDT 2018 ON: 19.97 +20.0 19.58 - 2.3 34.2 09 14 4627 092A Alarm State:  0
Fri Jun 22 12:30:50 PDT 2018 ON: 20.01 +20.0 19.69 - 4.1 33.1 07 14 462F 0A0F Alarm State:  0
Fri Jun 22 12:29:49 PDT 2018 ON: 20.02 +20.0 19.65 - 3.6 33.4 00 14 4725 090B Alarm State:  0
Fri Jun 22 12:28:47 PDT 2018 ON: 19.97 +20.0 19.66 - 3.5 33.5 00 14 4727 0930 Alarm State:  0
Fri Jun 22 12:27:46 PDT 2018 ON: 20.02 +20.0 19.71 - 4.2 33.4 0A 13 4730 090E Alarm State:  0
Fri Jun 22 12:26:44 PDT 2018 ON: 20.00 +20.0 19.63 - 2.6 34.0 05 14 4718 0913 Alarm State:  0
Fri Jun 22 12:25:43 PDT 2018 ON: 20.01 +20.0 19.66 - 3.6 33.9 0C 14 4624 0923 Alarm State:  0
Fri Jun 22 12:24:41 PDT 2018 ON: 20.01 +20.0 19.71 - 4.6 32.9 0D 13 461C 0922 Alarm State:  0
Fri Jun 22 12:23:40 PDT 2018 ON: 20.00 +20.0 19.62 - 2.7 33.9 00 14 4716 090D Alarm State:  0
Fri Jun 22 12:22:38 PDT 2018 ON: 20.00 +20.0 19.62 - 2.6 33.9 05 14 471A 090E Alarm State:  0
Fri Jun 22 12:21:37 PDT 2018 ON: 20.00 +20.0 19.65 - 3.4 33.9 02 14 4620 0920 Alarm State:  0
Fri Jun 22 12:20:35 PDT 2018 ON: 20.02 +20.0 19.69 - 3.8 33.5 05 14 460C 0929 Alarm State:  0
Fri Jun 22 12:19:34 PDT 2018 ON: 20.03 +20.0 19.70 - 4.4 33.0 0D 13 4605 091F Alarm State:  0
Fri Jun 22 12:18:22 PDT 2018 ON: 20.04 +20.0 19.71 - 4.9 32.7 05 13 4603 0920 Alarm State:  0
Fri Jun 22 12:17:21 PDT 2018 ON: 19.98 +20.0 19.64 - 3.5 33.5 05 14 4602 0A0A Alarm State:  0
Fri Jun 22 12:16:19 PDT 2018 ON: 20.03 +20.0 19.73 - 4.9 32.8 0D 12 460C 0A19 Alarm State:  0
Fri Jun 22 12:15:18 PDT 2018 ON: 19.98 +20.0 19.59 - 2.3 34.1 07 14 462B 0A0A Alarm State:  0
Fri Jun 22 12:14:16 PDT 2018 ON: 19.99 +20.0 19.69 - 4.6 32.9 05 14 4623 0A26 Alarm State:  0
Fri Jun 22 12:13:15 PDT 2018 ON: 19.97 +20.0 19.58 - 1.9 34.2 01 14 472D 091D Alarm State:  0
Fri Jun 22 12:12:13 PDT 2018 ON: 20.00 +20.0 19.65 - 3.3 33.9 05 14 4728 0913 Alarm State:  0
Fri Jun 22 12:11:12 PDT 2018 ON: 20.00 +20.0 19.67 - 3.5 33.8 02 14 471C 091E Alarm State:  0
Fri Jun 22 12:10:10 PDT 2018 ON: 20.03 +20.0 19.70 - 4.2 33.6 0D 13 4707 091C Alarm State:  0
Fri Jun 22 12:09:09 PDT 2018 ON: 19.99 +20.0 19.68 - 3.6 33.8 0A 14 4612 092B Alarm State:  0
Fri Jun 22 12:08:08 PDT 2018 ON: 20.01 +20.0 19.71 - 4.2 33.1 0D 13 460B 0A1B Alarm State:  0
Fri Jun 22 12:07:06 PDT 2018 ON: 20.01 +20.0 19.66 - 4.2 33.1 00 14 4625 0A23 Alarm State:  0
Fri Jun 22 12:06:05 PDT 2018 ON: 19.97 +20.0 19.63 - 3.4 33.2 07 14 4711 0A1D Alarm State:  0
Fri Jun 22 12:05:03 PDT 2018 ON: 20.02 +20.0 19.68 - 3.7 33.6 0A 14 4808 0904 Alarm State:  0
Fri Jun 22 12:04:02 PDT 2018 ON: 19.98 +20.0 19.66 - 3.1 34.0 02 14 4732 0925 Alarm State:  0
Fri Jun 22 12:03:00 PDT 2018 ON: 20.02 +20.0 19.69 - 3.7 33.8 0D 14 472A 0918 Alarm State:  0
Fri Jun 22 12:01:59 PDT 2018 ON: 19.99 +20.0 19.64 - 3.0 34.0 05 14 471D 0922 Alarm State:  0
Fri Jun 22 12:00:57 PDT 2018 ON: 20.01 +20.0 19.68 - 4.2 33.0 00 14 470F 0925 Alarm State:  0
Fri Jun 22 11:59:56 PDT 2018 ON: 20.03 +20.0 19.65 - 3.3 33.6 00 14 4801 0912 Alarm State:  0
Fri Jun 22 11:58:54 PDT 2018 ON: 20.00 +20.0 19.64 - 2.7 34.0 00 14 4716 091D Alarm State:  0
Fri Jun 22 11:57:53 PDT 2018 ON: 19.98 +20.0 19.67 - 3.9 33.5 00 14 4622 0904 Alarm State:  0
Fri Jun 22 11:56:51 PDT 2018 ON: 20.03 +20.0 19.71 - 4.9 32.6 0D 13 4624 091A Alarm State:  0
Fri Jun 22 11:55:50 PDT 2018 ON: 19.97 +20.0 19.64 - 2.9 34.1 0A 14 4706 0930 Alarm State:  0
Fri Jun 22 11:54:48 PDT 2018 ON: 20.01 +20.0 19.71 - 4.9 32.7 08 13 4700 0921 Alarm State:  0
Fri Jun 22 11:53:47 PDT 2018 ON: 19.99 +20.0 19.57 - 1.9 34.1 01 14 472D 090D Alarm State:  0
Fri Jun 22 11:52:45 PDT 2018 ON: 20.01 +20.0 19.64 - 3.1 34.0 07 14 4715 0914 Alarm State:  0
Fri Jun 22 11:51:44 PDT 2018 ON: 19.99 +20.0 19.69 - 4.2 33.2 05 14 461F 0922 Alarm State:  0
Fri Jun 22 11:50:42 PDT 2018 ON: 20.02 +20.0 19.69 - 3.9 33.3 0A 14 470C 0903 Alarm State:  0
Fri Jun 22 11:49:41 PDT 2018 ON: 20.03 +20.0 19.69 - 4.5 33.0 00 14 4632 090B Alarm State:  0
Fri Jun 22 11:48:39 PDT 2018 ON: 20.00 +20.0 19.64 - 3.0 34.1 0A 14 4709 091B Alarm State:  0
Fri Jun 22 11:47:38 PDT 2018 ON: 20.03 +20.0 19.72 - 4.6 33.0 0A 12 4629 0917 Alarm State:  0
Fri Jun 22 11:46:36 PDT 2018 ON: 19.98 +20.0 19.58 - 2.2 34.0 00 14 4718 0922 Alarm State:  0
Fri Jun 22 11:45:35 PDT 2018 ON: 19.99 +20.0 19.67 - 4.0 33.4 05 14 4626 092A Alarm State:  0
Fri Jun 22 11:44:33 PDT 2018 ON: 20.03 +20.0 19.72 - 5.0 32.6 0D 12 461E 091B Alarm State:  0
Fri Jun 22 11:43:32 PDT 2018 ON: 19.98 +20.0 19.60 - 2.2 34.1 01 14 4708 091E Alarm State:  0
Fri Jun 22 11:42:30 PDT 2018 ON: 20.01 +20.0 19.67 - 4.0 33.6 05 14 4625 0925 Alarm State:  0
Fri Jun 22 11:41:29 PDT 2018 ON: 20.01 +20.0 19.68 - 3.5 33.5 05 14 4711 0928 Alarm State:  0
Fri Jun 22 11:40:27 PDT 2018 ON: 20.01 +20.0 19.69 - 4.2 33.4 0A 14 470B 0918 Alarm State:  0
Fri Jun 22 11:39:26 PDT 2018 ON: 19.98 +20.0 19.63 - 2.5 34.0 02 14 4706 0916 Alarm State:  0
Fri Jun 22 11:38:24 PDT 2018 ON: 20.00 +20.0 19.70 - 4.3 33.0 0D 13 4615 0921 Alarm State:  0
Fri Jun 22 11:37:23 PDT 2018 ON: 20.01 +20.0 19.71 - 4.7 32.6 08 13 4626 0A03 Alarm State:  0
Fri Jun 22 11:36:21 PDT 2018 ON: 19.99 +20.0 19.61 - 2.5 34.1 07 14 470B 0931 Alarm State:  0
Fri Jun 22 11:35:20 PDT 2018 ON: 20.00 +20.0 19.67 - 4.1 32.9 05 14 470A 091D Alarm State:  0
Fri Jun 22 11:34:18 PDT 2018 ON: 20.02 +20.0 19.69 - 4.2 33.1 08 14 4722 0917 Alarm State:  0
Fri Jun 22 11:33:07 PDT 2018 ON: 20.02 +20.0 19.71 - 4.9 32.6 0D 13 4622 0908 Alarm State:  0
Fri Jun 22 11:32:05 PDT 2018 ON: 19.98 +20.0 19.60 - 2.6 34.0 00 14 4629 091D Alarm State:  0
Fri Jun 22 11:31:04 PDT 2018 ON: 19.99 +20.0 19.66 - 3.9 33.4 07 14 4621 0920 Alarm State:  0
Fri Jun 22 11:30:03 PDT 2018 ON: 20.03 +20.0 19.71 - 4.9 32.6 0D 13 4701 091B Alarm State:  0
Fri Jun 22 11:29:01 PDT 2018 ON: 19.97 +20.0 19.59 - 2.1 34.3 00 14 4723 090F Alarm State:  0
Fri Jun 22 11:28:00 PDT 2018 ON: 20.02 +20.0 19.67 - 3.7 33.7 02 14 470A 0905 Alarm State:  0
Fri Jun 22 11:26:58 PDT 2018 ON: 19.98 +20.0 19.65 - 3.5 33.9 0A 14 461B 0914 Alarm State:  0
Fri Jun 22 11:25:57 PDT 2018 ON: 20.00 +20.0 19.72 - 4.7 32.9 0D 13 4618 0A08 Alarm State:  0
Fri Jun 22 11:24:55 PDT 2018 ON: 19.97 +20.0 19.60 - 2.3 34.2 07 14 471D 090C Alarm State:  0
Fri Jun 22 11:23:54 PDT 2018 ON: 20.00 +20.0 19.69 - 4.4 32.9 0D 14 4712 0925 Alarm State:  0
Fri Jun 22 11:22:52 PDT 2018 ON: 20.02 +20.0 19.63 - 3.1 33.7 00 14 4815 0911 Alarm State:  0
Fri Jun 22 11:21:51 PDT 2018 ON: 20.03 +20.0 19.64 - 3.5 33.5 02 14 4727 091F Alarm State:  0
Fri Jun 22 11:20:49 PDT 2018 ON: 20.01 +20.0 19.68 - 3.9 33.3 00 14 470B 0909 Alarm State:  0
Fri Jun 22 11:19:48 PDT 2018 ON: 20.01 +20.0 19.65 - 3.8 33.3 00 14 470E 0901 Alarm State:  0
Fri Jun 22 11:18:46 PDT 2018 ON: 19.98 +20.0 19.62 - 2.7 34.0 0C 14 4708 0925 Alarm State:  0
Fri Jun 22 11:17:45 PDT 2018 ON: 20.00 +20.0 19.70 - 4.3 33.0 0A 14 461A 0A02 Alarm State:  0
Fri Jun 22 11:16:43 PDT 2018 ON: 20.03 +20.0 19.64 - 3.2 33.5 00 14 4711 0901 Alarm State:  0
Fri Jun 22 11:15:42 PDT 2018 ON: 20.00 +20.0 19.67 - 3.9 33.2 00 14 4627 092A Alarm State:  0
Fri Jun 22 11:14:40 PDT 2018 ON: 20.04 +20.0 19.68 - 4.3 33.1 00 14 4712 0904 Alarm State:  0
Fri Jun 22 11:13:39 PDT 2018 ON: 20.00 +20.0 19.66 - 3.2 33.9 05 14 4709 0921 Alarm State:  0
Fri Jun 22 11:12:37 PDT 2018 ON: 20.00 +20.0 19.70 - 4.1 32.9 0A 13 4707 0914 Alarm State:  0
Fri Jun 22 11:11:36 PDT 2018 ON: 20.02 +20.0 19.68 - 4.5 33.1 00 14 470E 0906 Alarm State:  0
Fri Jun 22 11:10:34 PDT 2018 ON: 20.00 +20.0 19.65 - 3.0 34.0 05 14 461F 0913 Alarm State:  0
Fri Jun 22 11:09:33 PDT 2018 ON: 20.00 +20.0 19.71 - 4.5 33.1 0D 13 4529 0923 Alarm State:  0
Fri Jun 22 11:08:31 PDT 2018 ON: 20.00 +20.0 19.60 - 2.4 34.0 04 14 462E 0916 Alarm State:  0
Fri Jun 22 11:07:30 PDT 2018 ON: 20.00 +20.0 19.68 - 4.2 32.9 05 14 460D 0922 Alarm State:  0
Fri Jun 22 11:06:28 PDT 2018 ON: 20.03 +20.0 19.68 - 3.9 33.2 00 14 4704 0912 Alarm State:  0
Fri Jun 22 11:05:27 PDT 2018 ON: 20.00 +20.0 19.60 - 2.5 33.9 00 14 4709 0904 Alarm State:  0
Fri Jun 22 11:04:25 PDT 2018 ON: 19.99 +20.0 19.68 - 3.9 33.4 00 14 4622 0A0D Alarm State:  0
Fri Jun 22 11:03:24 PDT 2018 ON: 20.01 +20.0 19.71 - 4.4 32.9 0D 13 4631 0917 Alarm State:  0
Fri Jun 22 11:02:22 PDT 2018 ON: 20.01 +20.0 19.66 - 3.5 33.5 02 14 4710 0902 Alarm State:  0
Fri Jun 22 11:01:21 PDT 2018 ON: 20.02 +20.0 19.68 - 4.6 32.7 00 14 462E 0910 Alarm State:  0
Fri Jun 22 11:00:19 PDT 2018 ON: 19.98 +20.0 19.61 - 2.8 34.1 09 14 4632 0929 Alarm State:  0
Fri Jun 22 10:59:18 PDT 2018 ON: 20.01 +20.0 19.71 - 4.3 33.1 0D 13 4627 0919 Alarm State:  0
Fri Jun 22 10:58:16 PDT 2018 ON: 20.03 +20.0 19.71 - 4.4 32.9 0D 13 462B 090A Alarm State:  0
Fri Jun 22 10:57:15 PDT 2018 ON: 20.02 +20.0 19.68 - 4.1 33.1 05 14 4703 0923 Alarm State:  0
Fri Jun 22 10:56:13 PDT 2018 ON: 20.02 +20.0 19.65 - 2.9 33.7 00 14 4723 0908 Alarm State:  0
Fri Jun 22 10:55:12 PDT 2018 ON: 20.03 +20.0 19.67 - 3.9 33.4 00 14 462B 091C Alarm State:  0
Fri Jun 22 10:54:10 PDT 2018 ON: 19.99 +20.0 19.62 - 2.6 34.0 02 14 461F 091B Alarm State:  0
Fri Jun 22 10:53:09 PDT 2018 ON: 20.00 +20.0 19.67 - 3.9 33.2 00 14 4616 0A17 Alarm State:  0
Fri Jun 22 10:52:07 PDT 2018 ON: 19.99 +20.0 19.61 - 2.4 33.8 00 14 471B 0927 Alarm State:  0
Fri Jun 22 10:50:56 PDT 2018 ON: 19.98 +20.0 19.65 - 3.2 34.0 02 14 4631 0908 Alarm State:  0
Fri Jun 22 10:49:54 PDT 2018 ON: 20.00 +20.0 19.68 - 4.0 33.2 00 14 4632 0927 Alarm State:  0
Fri Jun 22 10:48:53 PDT 2018 ON: 20.02 +20.0 19.67 - 4.0 33.1 02 14 4713 090A Alarm State:  0
Fri Jun 22 10:47:51 PDT 2018 ON: 19.98 +20.0 19.63 - 2.7 34.1 07 14 4718 0921 Alarm State:  0
Fri Jun 22 10:46:50 PDT 2018 ON: 20.01 +20.0 19.67 - 3.7 33.5 05 14 4712 091C Alarm State:  0
Fri Jun 22 10:45:48 PDT 2018 ON: 20.02 +20.0 19.70 - 4.0 33.7 0D 13 4715 0904 Alarm State:  0
Fri Jun 22 10:44:47 PDT 2018 ON: 20.04 +20.0 19.74 - 4.9 32.9 0D 11 461C 0917 Alarm State:  0
Fri Jun 22 10:43:45 PDT 2018 ON: 19.99 +20.0 19.59 - 2.1 34.1 01 14 4708 0922 Alarm State:  0
Fri Jun 22 10:42:44 PDT 2018 ON: 20.01 +20.0 19.67 - 3.8 33.7 05 14 461D 0925 Alarm State:  0
Fri Jun 22 10:41:42 PDT 2018 ON: 20.02 +20.0 19.70 - 4.1 33.0 0A 13 4614 0929 Alarm State:  0
Fri Jun 22 10:40:41 PDT 2018 ON: 20.02 +20.0 19.68 - 4.0 33.2 00 14 4626 0902 Alarm State:  0
Fri Jun 22 10:39:39 PDT 2018 ON: 20.04 +20.0 19.68 - 4.9 32.6 00 14 4528 0916 Alarm State:  0
Fri Jun 22 10:38:38 PDT 2018 ON: 19.97 +20.0 19.61 - 2.7 34.1 04 14 452E 0A01 Alarm State:  0
Fri Jun 22 10:37:36 PDT 2018 ON: 19.98 +20.0 19.68 - 4.1 33.0 00 14 4606 0A1F Alarm State:  0
Fri Jun 22 10:36:35 PDT 2018 ON: 20.01 +20.0 19.62 - 2.9 33.6 00 14 470D 0925 Alarm State:  0
Fri Jun 22 10:35:33 PDT 2018 ON: 19.99 +20.0 19.63 - 3.0 34.0 02 14 4629 0927 Alarm State:  0
Fri Jun 22 10:34:32 PDT 2018 ON: 20.00 +20.0 19.68 - 4.0 33.2 07 14 4619 0924 Alarm State:  0
Fri Jun 22 10:33:30 PDT 2018 ON: 20.03 +20.0 19.72 - 4.7 32.8 0D 12 4616 0920 Alarm State:  0
Fri Jun 22 10:32:29 PDT 2018 ON: 20.00 +20.0 19.61 - 2.8 33.8 01 14 4626 0A0F Alarm State:  0
Fri Jun 22 10:31:28 PDT 2018 ON: 19.97 +20.0 19.63 - 3.5 33.3 02 14 4702 0A23 Alarm State:  0
Fri Jun 22 10:30:26 PDT 2018 ON: 20.02 +20.0 19.62 - 2.6 33.8 00 14 4807 091D Alarm State:  0
Fri Jun 22 10:29:25 PDT 2018 ON: 20.03 +20.0 19.64 - 3.1 33.7 02 14 4711 0908 Alarm State:  0
Fri Jun 22 10:28:23 PDT 2018 ON: 19.98 +20.0 19.63 - 3.0 34.0 05 14 4620 0913 Alarm State:  0
Fri Jun 22 10:27:22 PDT 2018 ON: 20.00 +20.0 19.68 - 3.9 33.4 00 14 4609 091B Alarm State:  0
Fri Jun 22 10:26:20 PDT 2018 ON: 20.02 +20.0 19.69 - 4.7 32.6 00 14 4611 0A0C Alarm State:  0
Fri Jun 22 10:25:19 PDT 2018 ON: 19.96 +20.0 19.63 - 2.9 34.0 07 14 4622 0A0B Alarm State:  0
Fri Jun 22 10:24:17 PDT 2018 ON: 20.02 +20.0 19.71 - 4.2 33.3 0D 13 4624 091E Alarm State:  0
Fri Jun 22 10:23:16 PDT 2018 ON: 20.01 +20.0 19.72 - 4.6 32.8 0D 12 461F 091C Alarm State:  0
Fri Jun 22 10:22:14 PDT 2018 ON: 20.02 +20.0 19.62 - 2.6 33.9 00 14 4710 0916 Alarm State:  0
Fri Jun 22 10:21:13 PDT 2018 ON: 20.01 +20.0 19.63 - 2.7 34.1 0C 14 470D 090C Alarm State:  0
Fri Jun 22 10:20:11 PDT 2018 ON: 20.01 +20.0 19.71 - 4.6 32.9 0D 13 462A 0A09 Alarm State:  0
Fri Jun 22 10:19:10 PDT 2018 ON: 20.00 +20.0 19.61 - 2.4 34.0 02 14 4724 0926 Alarm State:  0
Fri Jun 22 10:18:08 PDT 2018 ON: 20.00 +20.0 19.66 - 3.5 33.6 05 14 4710 0904 Alarm State:  0
Fri Jun 22 10:17:07 PDT 2018 ON: 19.98 +20.0 19.60 - 2.1 34.1 01 14 4725 0907 Alarm State:  0
Fri Jun 22 10:16:05 PDT 2018 ON: 19.99 +20.0 19.67 - 3.9 33.3 07 14 4709 0908 Alarm State:  0
Fri Jun 22 10:15:04 PDT 2018 ON: 20.02 +20.0 19.70 - 4.1 33.4 03 13 4714 091D Alarm State:  0
Fri Jun 22 10:14:02 PDT 2018 ON: 20.01 +20.0 19.70 - 4.3 33.0 0A 13 460F 0909 Alarm State:  0
Fri Jun 22 10:13:01 PDT 2018 ON: 20.02 +20.0 19.69 - 4.7 32.8 00 14 4614 0901 Alarm State:  0
Fri Jun 22 10:11:59 PDT 2018 ON: 19.99 +20.0 19.65 - 3.1 34.0 0D 14 460C 091D Alarm State:  0
Fri Jun 22 10:10:58 PDT 2018 ON: 20.01 +20.0 19.72 - 4.9 32.7 0D 13 4609 0A0B Alarm State:  0
Fri Jun 22 10:09:56 PDT 2018 ON: 19.98 +20.0 19.57 - 2.0 34.2 01 14 4706 0923 Alarm State:  0
Fri Jun 22 10:08:55 PDT 2018 ON: 20.00 +20.0 19.69 - 4.2 33.0 07 14 4632 0A13 Alarm State:  0
Fri Jun 22 10:07:53 PDT 2018 ON: 20.01 +20.0 19.60 - 2.1 34.0 00 14 4806 0921 Alarm State:  0
Fri Jun 22 10:06:52 PDT 2018 ON: 20.02 +20.0 19.63 - 2.8 34.0 05 14 470A 090A Alarm State:  0
Fri Jun 22 10:05:50 PDT 2018 ON: 20.04 +20.0 19.67 - 4.2 33.2 02 14 4604 091E Alarm State:  0
Fri Jun 22 10:04:49 PDT 2018 ON: 19.99 +20.0 19.66 - 3.7 33.4 07 14 4527 091B Alarm State:  0
Fri Jun 22 10:03:47 PDT 2018 ON: 20.03 +20.0 19.70 - 4.5 32.9 08 13 460F 0912 Alarm State:  0
Fri Jun 22 10:02:46 PDT 2018 ON: 19.98 +20.0 19.62 - 2.7 33.8 00 14 4613 0905 Alarm State:  0
Fri Jun 22 10:01:44 PDT 2018 ON: 19.97 +20.0 19.65 - 3.8 33.3 07 14 4604 0A05 Alarm State:  0
Fri Jun 22 10:00:43 PDT 2018 ON: 20.00 +20.0 19.63 - 2.8 33.7 00 14 470B 0911 Alarm State:  0
Fri Jun 22 09:59:41 PDT 2018 ON: 19.98 +20.0 19.66 - 3.0 34.0 05 14 4631 090F Alarm State:  0
Fri Jun 22 09:58:40 PDT 2018 ON: 19.99 +20.0 19.65 - 3.7 33.4 0A 14 462F 092D Alarm State:  0
Fri Jun 22 09:57:38 PDT 2018 ON: 20.01 +20.0 19.70 - 4.3 33.2 0D 13 4705 0914 Alarm State:  0
Fri Jun 22 09:56:37 PDT 2018 ON: 20.03 +20.0 19.64 - 2.8 33.7 02 14 4707 0903 Alarm State:  0
Fri Jun 22 09:55:35 PDT 2018 ON: 19.99 +20.0 19.67 - 4.0 33.0 07 14 4611 0A0F Alarm State:  0
Fri Jun 22 09:54:34 PDT 2018 ON: 20.03 +20.0 19.66 - 3.6 33.5 00 14 470A 0900 Alarm State:  0
Fri Jun 22 09:53:32 PDT 2018 ON: 20.00 +20.0 19.64 - 3.0 33.9 07 14 4620 090A Alarm State:  0
Fri Jun 22 09:52:31 PDT 2018 ON: 20.00 +20.0 19.70 - 4.4 33.1 05 13 4529 0919 Alarm State:  0
Fri Jun 22 09:51:29 PDT 2018 ON: 20.01 +20.0 19.69 - 4.6 32.6 00 14 4613 091E Alarm State:  0
Fri Jun 22 09:50:28 PDT 2018 ON: 19.97 +20.0 19.62 - 2.9 34.0 0A 14 4704 0917 Alarm State:  0
Fri Jun 22 09:49:26 PDT 2018 ON: 20.02 +20.0 19.71 - 4.6 32.9 0A 13 4705 0922 Alarm State:  0
Fri Jun 22 09:48:25 PDT 2018 ON: 20.02 +20.0 19.69 - 3.9 33.0 08 14 470F 0917 Alarm State:  0
Fri Jun 22 09:47:23 PDT 2018 ON: 20.03 +20.0 19.68 - 4.0 33.2 00 14 4720 0924 Alarm State:  0
Fri Jun 22 09:46:22 PDT 2018 ON: 20.02 +20.0 19.62 - 3.1 33.7 00 14 4708 0927 Alarm State:  0
Fri Jun 22 09:45:20 PDT 2018 ON: 20.00 +20.0 19.67 - 3.7 33.4 05 14 462E 0923 Alarm State:  0
Fri Jun 22 09:44:19 PDT 2018 ON: 20.03 +20.0 19.69 - 4.4 33.0 0A 14 4715 091B Alarm State:  0
Fri Jun 22 09:43:18 PDT 2018 ON: 20.01 +20.0 19.64 - 2.7 34.0 00 14 4704 091B Alarm State:  0
Fri Jun 22 09:42:16 PDT 2018 ON: 19.99 +20.0 19.66 - 3.8 33.5 07 14 4611 0928 Alarm State:  0
Fri Jun 22 09:41:15 PDT 2018 ON: 20.00 +20.0 19.72 - 5.2 32.1 08 13 4624 0A10 Alarm State:  0
Fri Jun 22 09:40:13 PDT 2018 ON: 19.95 +20.0 19.61 - 2.8 33.8 00 14 4721 0920 Alarm State:  0
Fri Jun 22 09:39:12 PDT 2018 ON: 20.01 +20.0 19.69 - 4.2 33.0 0D 14 4732 091B Alarm State:  0
Fri Jun 22 09:38:10 PDT 2018 ON: 20.02 +20.0 19.69 - 3.6 33.7 0D 14 4720 0924 Alarm State:  0
Fri Jun 22 09:37:09 PDT 2018 ON: 19.98 +20.0 19.66 - 3.3 33.9 05 14 462A 0907 Alarm State:  0
Fri Jun 22 09:36:07 PDT 2018 ON: 19.98 +20.0 19.64 - 2.6 34.2 07 14 4713 0919 Alarm State:  0
Fri Jun 22 09:35:06 PDT 2018 ON: 20.01 +20.0 19.70 - 4.4 33.1 0D 13 4631 0913 Alarm State:  0
Fri Jun 22 09:34:04 PDT 2018 ON: 20.01 +20.0 19.60 - 2.1 34.0 00 14 471E 0917 Alarm State:  0
Fri Jun 22 09:33:03 PDT 2018 ON: 20.01 +20.0 19.68 - 3.9 33.4 00 14 4628 0900 Alarm State:  0
Fri Jun 22 09:32:01 PDT 2018 ON: 20.04 +20.0 19.70 - 4.2 33.2 0D 13 4626 0920 Alarm State:  0
Fri Jun 22 09:31:00 PDT 2018 ON: 20.04 +20.0 19.68 - 4.7 32.7 02 14 4603 0909 Alarm State:  0
Fri Jun 22 09:29:58 PDT 2018 ON: 19.99 +20.0 19.61 - 2.5 34.1 00 14 4609 0924 Alarm State:  0
Fri Jun 22 09:28:57 PDT 2018 ON: 20.01 +20.0 19.67 - 3.8 33.4 07 14 4610 0A12 Alarm State:  0
Fri Jun 22 09:27:55 PDT 2018 ON: 20.02 +20.0 19.61 - 2.3 33.9 00 14 4714 091B Alarm State:  0
Fri Jun 22 09:26:54 PDT 2018 ON: 19.99 +20.0 19.67 - 3.7 33.7 00 14 4621 0928 Alarm State:  0
Fri Jun 22 09:25:52 PDT 2018 ON: 20.02 +20.0 19.72 - 4.9 32.7 0D 12 4614 0920 Alarm State:  0
Fri Jun 22 09:24:51 PDT 2018 ON: 19.96 +20.0 19.59 - 2.1 34.2 07 14 470B 0919 Alarm State:  0
Fri Jun 22 09:23:49 PDT 2018 ON: 19.99 +20.0 19.69 - 3.8 33.3 0D 14 4702 0913 Alarm State:  0
Fri Jun 22 09:22:48 PDT 2018 ON: 20.02 +20.0 19.70 - 4.4 33.0 0D 13 470C 0927 Alarm State:  0
Fri Jun 22 09:21:46 PDT 2018 ON: 20.01 +20.0 19.65 - 3.5 33.6 00 14 4626 0908 Alarm State:  0
Fri Jun 22 09:20:45 PDT 2018 ON: 19.99 +20.0 19.61 - 2.6 34.0 01 14 461A 0903 Alarm State:  0
Fri Jun 22 09:19:43 PDT 2018 ON: 20.01 +20.0 19.69 - 4.2 33.2 05 14 4532 0909 Alarm State:  0
Fri Jun 22 09:18:42 PDT 2018 ON: 20.03 +20.0 19.67 - 4.6 32.8 00 14 4613 0913 Alarm State:  0
Fri Jun 22 09:17:40 PDT 2018 ON: 19.99 +20.0 19.66 - 3.1 34.0 0A 14 461E 0923 Alarm State:  0
Fri Jun 22 09:16:39 PDT 2018 ON: 20.02 +20.0 19.73 - 4.8 32.6 0A 12 4620 0A00 Alarm State:  0
Fri Jun 22 09:15:37 PDT 2018 ON: 19.99 +20.0 19.60 - 1.9 34.2 01 14 471C 0911 Alarm State:  0
Fri Jun 22 09:14:36 PDT 2018 ON: 19.99 +20.0 19.63 - 2.9 34.0 00 14 470C 0912 Alarm State:  0
Fri Jun 22 09:13:34 PDT 2018 ON: 20.01 +20.0 19.67 - 4.1 33.2 00 14 461A 0922 Alarm State:  0
Fri Jun 22 09:12:33 PDT 2018 ON: 20.01 +20.0 19.66 - 4.3 32.9 00 14 461E 090F Alarm State:  0
Fri Jun 22 09:11:31 PDT 2018 ON: 19.98 +20.0 19.65 - 3.2 33.8 05 14 4627 0924 Alarm State:  0
Fri Jun 22 09:10:30 PDT 2018 ON: 20.01 +20.0 19.73 - 4.7 32.9 0D 12 462D 0926 Alarm State:  0
Fri Jun 22 09:09:28 PDT 2018 ON: 19.98 +20.0 19.61 - 2.2 34.2 00 14 471D 0928 Alarm State:  0
Fri Jun 22 09:08:27 PDT 2018 ON: 20.01 +20.0 19.69 - 3.8 33.7 0C 14 4630 0906 Alarm State:  0
Fri Jun 22 09:07:25 PDT 2018 ON: 19.99 +20.0 19.67 - 3.6 33.8 0A 14 4702 090C Alarm State:  0
Fri Jun 22 09:06:24 PDT 2018 ON: 20.02 +20.0 19.70 - 3.8 33.7 0D 13 4706 0928 Alarm State:  0
Fri Jun 22 09:05:22 PDT 2018 ON: 20.00 +20.0 19.69 - 3.6 33.7 05 14 4628 090F Alarm State:  0
Fri Jun 22 09:04:21 PDT 2018 ON: 20.03 +20.0 19.70 - 4.3 33.0 0D 13 4618 090A Alarm State:  0
Fri Jun 22 09:03:19 PDT 2018 ON: 20.04 +20.0 19.66 - 3.9 33.2 00 14 462B 091F Alarm State:  0
Fri Jun 22 09:02:18 PDT 2018 ON: 20.00 +20.0 19.66 - 3.2 33.9 05 14 4611 0926 Alarm State:  0
Fri Jun 22 09:01:16 PDT 2018 ON: 20.03 +20.0 19.73 - 4.8 32.8 0D 12 452F 0A24 Alarm State:  0
Fri Jun 22 09:00:15 PDT 2018 ON: 19.97 +20.0 19.61 - 2.4 34.0 00 14 462C 0A0C Alarm State:  0
Fri Jun 22 08:59:13 PDT 2018 ON: 19.97 +20.0 19.65 - 3.1 33.9 02 14 4716 0A0F Alarm State:  0
Fri Jun 22 08:58:12 PDT 2018 ON: 20.01 +20.0 19.70 - 3.9 33.7 0D 13 471A 091C Alarm State:  0
Fri Jun 22 08:57:10 PDT 2018 ON: 19.99 +20.0 19.70 - 4.2 33.1 0A 13 4620 0905 Alarm State:  0
Fri Jun 22 08:56:09 PDT 2018 ON: 20.01 +20.0 19.67 - 3.8 33.3 02 14 4709 0911 Alarm State:  0
Fri Jun 22 08:55:07 PDT 2018 ON: 19.99 +20.0 19.62 - 2.9 33.8 00 14 4708 0903 Alarm State:  0
Fri Jun 22 08:54:06 PDT 2018 ON: 19.98 +20.0 19.65 - 3.1 34.0 0A 14 4702 0923 Alarm State:  0
Fri Jun 22 08:53:04 PDT 2018 ON: 20.02 +20.0 19.70 - 4.3 33.4 0D 13 4626 0913 Alarm State:  0
Fri Jun 22 08:52:03 PDT 2018 ON: 20.00 +20.0 19.60 - 2.5 34.0 04 14 4626 0906 Alarm State:  0
Fri Jun 22 08:51:01 PDT 2018 ON: 20.00 +20.0 19.67 - 4.1 33.1 02 14 460F 0A0A Alarm State:  0
Fri Jun 22 08:50:00 PDT 2018 ON: 20.02 +20.0 19.61 - 2.5 33.8 00 14 4716 0914 Alarm State:  0
Fri Jun 22 08:48:59 PDT 2018 ON: 20.01 +20.0 19.67 - 3.8 33.2 07 14 4630 091E Alarm State:  0
Fri Jun 22 08:47:57 PDT 2018 ON: 20.03 +20.0 19.72 - 4.6 32.9 0A 12 4701 0907 Alarm State:  0
Fri Jun 22 08:46:56 PDT 2018 ON: 20.03 +20.0 19.64 - 3.3 33.5 00 14 4623 0911 Alarm State:  0
Fri Jun 22 08:45:54 PDT 2018 ON: 19.98 +20.0 19.68 - 3.8 33.2 00 14 4605 0A12 Alarm State:  0
Fri Jun 22 08:44:53 PDT 2018 ON: 20.03 +20.0 19.69 - 4.4 32.9 00 14 4624 090C Alarm State:  0
Fri Jun 22 08:43:51 PDT 2018 ON: 19.97 +20.0 19.61 - 2.4 34.1 04 14 462E 0927 Alarm State:  0
Fri Jun 22 08:42:50 PDT 2018 ON: 19.99 +20.0 19.68 - 4.1 32.9 05 14 4627 0919 Alarm State:  0
Fri Jun 22 08:41:48 PDT 2018 ON: 20.01 +20.0 19.66 - 3.5 33.4 00 14 471A 090B Alarm State:  0
Fri Jun 22 08:40:47 PDT 2018 ON: 20.00 +20.0 19.66 - 3.3 33.6 02 14 4628 0919 Alarm State:  0
Fri Jun 22 08:39:45 PDT 2018 ON: 19.97 +20.0 19.65 - 3.4 33.5 00 14 4629 0931 Alarm State:  0
Fri Jun 22 08:38:44 PDT 2018 ON: 20.02 +20.0 19.71 - 4.5 33.1 08 13 4702 0904 Alarm State:  0
Fri Jun 22 08:37:42 PDT 2018 ON: 19.98 +20.0 19.64 - 2.7 34.2 02 14 4632 092C Alarm State:  0
Fri Jun 22 08:36:41 PDT 2018 ON: 20.00 +20.0 19.68 - 3.7 33.8 05 14 4628 0925 Alarm State:  0
Fri Jun 22 08:35:39 PDT 2018 ON: 19.99 +20.0 19.71 - 4.5 33.0 0D 13 4619 0A04 Alarm State:  0
Fri Jun 22 08:34:38 PDT 2018 ON: 19.99 +20.0 19.59 - 2.2 34.0 00 14 4720 090C Alarm State:  0
Fri Jun 22 08:33:36 PDT 2018 ON: 19.99 +20.0 19.66 - 3.3 33.8 05 14 4729 0923 Alarm State:  0
Fri Jun 22 08:32:35 PDT 2018 ON: 20.01 +20.0 19.69 - 4.0 33.4 0A 14 4729 0916 Alarm State:  0
Fri Jun 22 08:31:33 PDT 2018 ON: 20.03 +20.0 19.69 - 4.2 33.0 0D 14 4706 0924 Alarm State:  0
Fri Jun 22 08:30:32 PDT 2018 ON: 20.01 +20.0 19.66 - 3.4 33.7 00 14 471A 090B Alarm State:  0
Fri Jun 22 08:29:30 PDT 2018 ON: 20.02 +20.0 19.70 - 4.5 33.1 0D 13 4612 091F Alarm State:  0
Fri Jun 22 08:28:29 PDT 2018 ON: 20.00 +20.0 19.62 - 2.7 33.8 00 14 462A 0902 Alarm State:  0
Fri Jun 22 08:27:27 PDT 2018 ON: 19.98 +20.0 19.66 - 3.7 33.4 00 14 4627 092B Alarm State:  0
Fri Jun 22 08:26:26 PDT 2018 ON: 20.01 +20.0 19.71 - 4.7 32.8 0A 13 470A 0923 Alarm State:  0
Fri Jun 22 08:25:24 PDT 2018 ON: 19.98 +20.0 19.58 - 2.1 34.1 04 14 4800 0908 Alarm State:  0
Fri Jun 22 08:24:23 PDT 2018 ON: 20.02 +20.0 19.66 - 3.4 33.8 05 14 4719 090F Alarm State:  0
Fri Jun 22 08:23:21 PDT 2018 ON: 19.99 +20.0 19.66 - 3.5 33.6 0C 14 4708 0913 Alarm State:  0
Fri Jun 22 08:22:20 PDT 2018 ON: 20.03 +20.0 19.71 - 4.8 32.8 0A 13 4708 091F Alarm State:  0
Fri Jun 22 08:21:18 PDT 2018 ON: 20.02 +20.0 19.65 - 2.9 33.8 02 14 462A 0925 Alarm State:  0
Fri Jun 22 08:20:17 PDT 2018 ON: 19.99 +20.0 19.62 - 3.2 34.0 0A 14 4616 092D Alarm State:  0
Fri Jun 22 08:19:15 PDT 2018 ON: 20.02 +20.0 19.70 - 4.3 33.0 0A 13 4611 091F Alarm State:  0
Fri Jun 22 08:18:14 PDT 2018 ON: 20.00 +20.0 19.66 - 3.7 33.3 00 14 4706 0911 Alarm State:  0
Fri Jun 22 08:17:12 PDT 2018 ON: 19.98 +20.0 19.61 - 2.3 34.2 02 14 4721 0912 Alarm State:  0
Fri Jun 22 08:16:11 PDT 2018 ON: 20.01 +20.0 19.66 - 3.3 33.8 02 14 4709 090F Alarm State:  0
Fri Jun 22 08:15:09 PDT 2018 ON: 19.98 +20.0 19.66 - 3.2 33.9 02 14 4613 091B Alarm State:  0
Fri Jun 22 08:14:08 PDT 2018 ON: 20.01 +20.0 19.70 - 4.4 33.0 07 13 4530 091C Alarm State:  0
Fri Jun 22 08:13:06 PDT 2018 ON: 20.00 +20.0 19.64 - 3.1 33.6 00 14 4628 0922 Alarm State:  0
Fri Jun 22 08:12:05 PDT 2018 ON: 19.97 +20.0 19.64 - 3.7 33.1 00 14 4624 0A0F Alarm State:  0
Fri Jun 22 08:11:03 PDT 2018 ON: 20.01 +20.0 19.66 - 3.5 33.4 00 14 4724 0914 Alarm State:  0
Fri Jun 22 08:10:02 PDT 2018 ON: 20.02 +20.0 19.63 - 2.9 33.7 00 14 4728 090B Alarm State:  0
Fri Jun 22 08:09:00 PDT 2018 ON: 20.02 +20.0 19.67 - 4.0 33.2 05 14 4713 0919 Alarm State:  0
Fri Jun 22 08:07:59 PDT 2018 ON: 19.98 +20.0 19.57 - 1.8 34.2 01 14 4808 091A Alarm State:  0
Fri Jun 22 08:06:57 PDT 2018 ON: 20.01 +20.0 19.68 - 3.8 33.5 00 14 4718 0922 Alarm State:  0
Fri Jun 22 08:05:56 PDT 2018 ON: 20.01 +20.0 19.70 - 4.1 33.4 0D 13 4706 0927 Alarm State:  0
Fri Jun 22 08:04:54 PDT 2018 ON: 20.04 +20.0 19.71 - 4.7 32.9 0D 13 460A 0912 Alarm State:  0
Fri Jun 22 08:03:53 PDT 2018 ON: 19.98 +20.0 19.60 - 2.4 34.0 01 14 4529 0911 Alarm State:  0
Fri Jun 22 08:02:51 PDT 2018 ON: 19.99 +20.0 19.69 - 4.4 33.1 00 14 4508 0A19 Alarm State:  0
Fri Jun 22 08:01:50 PDT 2018 ON: 19.98 +20.0 19.60 - 2.2 33.9 04 14 460F 0923 Alarm State:  0
Fri Jun 22 08:00:49 PDT 2018 ON: 19.97 +20.0 19.68 - 4.1 33.0 00 14 4600 0A1D Alarm State:  0
Fri Jun 22 07:59:47 PDT 2018 ON: 20.00 +20.0 19.64 - 3.2 33.6 00 14 4704 0922 Alarm State:  0
Fri Jun 22 07:58:46 PDT 2018 ON: 19.97 +20.0 19.62 - 2.5 34.2 0A 14 471A 0913 Alarm State:  0
Fri Jun 22 07:57:44 PDT 2018 ON: 19.99 +20.0 19.69 - 4.2 32.9 00 14 4630 0913 Alarm State:  0
Fri Jun 22 07:56:43 PDT 2018 ON: 20.03 +20.0 19.64 - 3.5 33.5 00 14 471D 091B Alarm State:  0
Fri Jun 22 07:55:41 PDT 2018 ON: 20.00 +20.0 19.63 - 3.1 34.0 0A 14 462D 0921 Alarm State:  0
Fri Jun 22 07:54:40 PDT 2018 ON: 20.02 +20.0 19.71 - 4.6 33.0 0D 13 4615 0922 Alarm State:  0
Fri Jun 22 07:53:38 PDT 2018 ON: 19.99 +20.0 19.62 - 2.1 34.1 02 14 4713 0910 Alarm State:  0
Fri Jun 22 07:52:37 PDT 2018 ON: 20.01 +20.0 19.66 - 3.5 33.9 05 14 462C 0917 Alarm State:  0
Fri Jun 22 07:51:35 PDT 2018 ON: 20.00 +20.0 19.70 - 4.3 33.0 0D 13 4619 0917 Alarm State:  0
Fri Jun 22 07:50:34 PDT 2018 ON: 20.02 +20.0 19.69 - 4.2 33.0 0A 14 4706 0913 Alarm State:  0
Fri Jun 22 07:49:32 PDT 2018 ON: 20.00 +20.0 19.63 - 2.5 34.1 02 14 4717 0921 Alarm State:  0
Fri Jun 22 07:48:31 PDT 2018 ON: 19.99 +20.0 19.65 - 3.3 34.0 02 14 471B 0914 Alarm State:  0
Fri Jun 22 07:47:29 PDT 2018 ON: 20.02 +20.0 19.67 - 3.1 34.0 05 14 4712 0910 Alarm State:  0
Fri Jun 22 07:46:28 PDT 2018 ON: 20.00 +20.0 19.69 - 4.2 33.0 00 14 4623 0921 Alarm State:  0
Fri Jun 22 07:45:26 PDT 2018 ON: 20.02 +20.0 19.65 - 3.9 33.3 00 14 470B 0908 Alarm State:  0
Fri Jun 22 07:44:25 PDT 2018 ON: 19.97 +20.0 19.62 - 2.7 34.2 05 14 4709 0922 Alarm State:  0
Fri Jun 22 07:43:23 PDT 2018 ON: 20.01 +20.0 19.69 - 3.9 33.6 05 14 462D 091C Alarm State:  0
Fri Jun 22 07:42:22 PDT 2018 ON: 20.02 +20.0 19.73 - 5.4 32.2 0D 12 4532 0A08 Alarm State:  0
Fri Jun 22 07:41:20 PDT 2018 ON: 19.96 +20.0 19.64 - 3.1 33.7 00 14 4620 0929 Alarm State:  0
Fri Jun 22 07:40:19 PDT 2018 ON: 20.02 +20.0 19.71 - 4.3 33.5 0A 13 462E 0921 Alarm State:  0
Fri Jun 22 07:39:17 PDT 2018 ON: 19.98 +20.0 19.67 - 3.4 33.8 02 14 460F 0929 Alarm State:  0
Fri Jun 22 07:38:16 PDT 2018 ON: 20.00 +20.0 19.70 - 4.2 33.2 0A 13 4609 091E Alarm State:  0
Fri Jun 22 07:37:14 PDT 2018 ON: 20.01 +20.0 19.64 - 3.4 33.5 00 14 4624 0927 Alarm State:  0
Fri Jun 22 07:36:13 PDT 2018 ON: 19.97 +20.0 19.65 - 3.8 33.0 05 14 461E 0A12 Alarm State:  0
Fri Jun 22 07:35:11 PDT 2018 ON: 20.02 +20.0 19.70 - 4.2 33.0 0A 13 4710 0925 Alarm State:  0
Fri Jun 22 07:34:10 PDT 2018 ON: 19.99 +20.0 19.64 - 2.5 34.2 05 14 471E 090C Alarm State:  0
Fri Jun 22 07:33:08 PDT 2018 ON: 20.02 +20.0 19.69 - 3.7 33.7 0D 14 4703 0910 Alarm State:  0
Fri Jun 22 07:32:07 PDT 2018 ON: 19.98 +20.0 19.64 - 3.2 33.9 02 14 462C 0A03 Alarm State:  0
Fri Jun 22 07:31:05 PDT 2018 ON: 20.02 +20.0 19.70 - 4.4 33.2 0D 13 4623 0921 Alarm State:  0
Fri Jun 22 07:30:04 PDT 2018 ON: 20.01 +20.0 19.63 - 3.5 33.5 00 14 4621 091E Alarm State:  0
Fri Jun 22 07:29:02 PDT 2018 ON: 19.99 +20.0 19.67 - 3.6 33.6 05 14 460A 0920 Alarm State:  0
Fri Jun 22 07:28:01 PDT 2018 ON: 20.03 +20.0 19.72 - 4.4 33.0 0D 12 4612 0905 Alarm State:  0
Fri Jun 22 07:26:59 PDT 2018 ON: 20.02 +20.0 19.66 - 4.0 33.2 00 14 461F 091C Alarm State:  0
Fri Jun 22 07:25:58 PDT 2018 ON: 19.99 +20.0 19.61 - 2.6 34.1 07 14 462B 0A01 Alarm State:  0
Fri Jun 22 07:24:56 PDT 2018 ON: 20.01 +20.0 19.69 - 4.2 33.1 05 14 4626 0929 Alarm State:  0
Fri Jun 22 07:23:55 PDT 2018 ON: 20.01 +20.0 19.66 - 3.3 33.5 00 14 4723 091C Alarm State:  0
Fri Jun 22 07:22:53 PDT 2018 ON: 20.01 +20.0 19.62 - 2.5 34.0 05 14 4726 0908 Alarm State:  0
Fri Jun 22 07:21:52 PDT 2018 ON: 20.00 +20.0 19.66 - 3.8 33.1 07 14 4720 0A01 Alarm State:  0
Fri Jun 22 07:20:50 PDT 2018 ON: 20.03 +20.0 19.68 - 4.1 33.2 08 14 480E 0901 Alarm State:  0
Fri Jun 22 07:19:49 PDT 2018 ON: 20.02 +20.0 19.69 - 4.2 33.1 0D 14 4721 090C Alarm State:  0
Fri Jun 22 07:18:47 PDT 2018 ON: 20.03 +20.0 19.70 - 4.3 33.1 0D 13 471A 0908 Alarm State:  0
Fri Jun 22 07:17:46 PDT 2018 ON: 20.00 +20.0 19.65 - 3.3 33.6 00 14 4722 091C Alarm State:  0
Fri Jun 22 07:16:44 PDT 2018 ON: 20.03 +20.0 19.64 - 3.3 33.6 00 14 4711 0920 Alarm State:  0
Fri Jun 22 07:15:43 PDT 2018 ON: 20.00 +20.0 19.67 - 3.8 33.2 05 14 4629 0920 Alarm State:  0
Fri Jun 22 07:14:41 PDT 2018 ON: 20.02 +20.0 19.71 - 4.3 33.1 08 13 4710 0916 Alarm State:  0
Fri Jun 22 07:13:40 PDT 2018 ON: 20.03 +20.0 19.70 - 4.1 33.3 0D 13 4628 0926 Alarm State:  0
Fri Jun 22 07:12:38 PDT 2018 ON: 20.03 +20.0 19.68 - 4.7 32.6 00 14 4618 0908 Alarm State:  0
Fri Jun 22 07:11:37 PDT 2018 ON: 19.99 +20.0 19.60 - 2.4 34.0 01 14 4621 0913 Alarm State:  0
Fri Jun 22 07:10:35 PDT 2018 ON: 19.99 +20.0 19.67 - 4.0 33.0 05 14 461F 092F Alarm State:  0
Fri Jun 22 07:09:34 PDT 2018 ON: 20.03 +20.0 19.68 - 4.2 33.1 00 14 4709 0906 Alarm State:  0
Fri Jun 22 07:08:32 PDT 2018 ON: 19.98 +20.0 19.65 - 3.1 34.0 0A 14 4701 092C Alarm State:  0
Fri Jun 22 07:07:31 PDT 2018 ON: 20.02 +20.0 19.70 - 4.1 33.3 0A 13 462D 091F Alarm State:  0
Fri Jun 22 07:06:30 PDT 2018 ON: 20.01 +20.0 19.73 - 4.9 32.4 0D 12 462B 091C Alarm State:  0
Fri Jun 22 07:05:28 PDT 2018 ON: 19.96 +20.0 19.58 - 2.0 34.3 04 14 4719 091D Alarm State:  0
Fri Jun 22 07:04:27 PDT 2018 ON: 20.00 +20.0 19.67 - 3.8 33.5 00 14 4711 0912 Alarm State:  0
Fri Jun 22 07:03:25 PDT 2018 ON: 20.02 +20.0 19.72 - 4.6 32.7 0A 12 4702 0910 Alarm State:  0
Fri Jun 22 07:02:24 PDT 2018 ON: 19.99 +20.0 19.63 - 2.9 33.7 00 14 471C 0914 Alarm State:  0
Fri Jun 22 07:01:22 PDT 2018 ON: 19.98 +20.0 19.61 - 2.5 34.2 05 14 472B 092E Alarm State:  0
Fri Jun 22 07:00:21 PDT 2018 ON: 20.01 +20.0 19.69 - 3.8 33.7 0D 14 4717 0927 Alarm State:  0
Fri Jun 22 06:59:19 PDT 2018 ON: 20.00 +20.0 19.70 - 4.6 32.8 0D 13 4619 090E Alarm State:  0
Fri Jun 22 06:58:18 PDT 2018 ON: 20.00 +20.0 19.67 - 3.8 33.2 00 14 4702 091A Alarm State:  0
Fri Jun 22 06:57:16 PDT 2018 ON: 20.00 +20.0 19.61 - 2.4 33.9 00 14 4721 0924 Alarm State:  0
Fri Jun 22 06:56:15 PDT 2018 ON: 20.01 +20.0 19.65 - 3.1 33.8 07 14 4701 090C Alarm State:  0
Fri Jun 22 06:55:13 PDT 2018 ON: 19.99 +20.0 19.63 - 2.8 33.9 02 14 461D 0914 Alarm State:  0
Fri Jun 22 06:54:12 PDT 2018 ON: 19.99 +20.0 19.68 - 3.6 33.7 0A 14 4601 091F Alarm State:  0
Fri Jun 22 06:53:10 PDT 2018 ON: 20.02 +20.0 19.72 - 4.9 32.9 0D 12 452A 090B Alarm State:  0
Fri Jun 22 06:52:09 PDT 2018 ON: 20.00 +20.0 19.60 - 2.7 33.8 01 14 4530 0927 Alarm State:  0
Fri Jun 22 06:51:07 PDT 2018 ON: 19.98 +20.0 19.68 - 4.1 32.9 00 14 4513 0B02 Alarm State:  0
Fri Jun 22 06:50:06 PDT 2018 ON: 20.02 +20.0 19.69 - 4.1 33.0 00 14 460C 0A1E Alarm State:  0
Fri Jun 22 06:49:04 PDT 2018 ON: 19.96 +20.0 19.61 - 2.5 34.2 07 14 4629 0A20 Alarm State:  0
Fri Jun 22 06:48:03 PDT 2018 ON: 20.00 +20.0 19.71 - 4.6 32.9 0D 13 4700 0A2A Alarm State:  0
Fri Jun 22 06:47:01 PDT 2018 ON: 19.96 +20.0 19.58 - 2.0 34.2 04 14 4808 0927 Alarm State:  0
Fri Jun 22 06:46:00 PDT 2018 ON: 20.02 +20.0 19.66 - 3.2 33.9 05 14 4731 0916 Alarm State:  0
Fri Jun 22 06:44:58 PDT 2018 ON: 20.00 +20.0 19.67 - 3.4 33.8 02 14 4710 0901 Alarm State:  0
Fri Jun 22 06:43:57 PDT 2018 ON: 20.02 +20.0 19.69 - 4.4 33.0 07 14 4629 0908 Alarm State:  0
Fri Jun 22 06:42:55 PDT 2018 ON: 20.01 +20.0 19.66 - 3.6 33.4 00 14 4624 0900 Alarm State:  0
Fri Jun 22 06:41:54 PDT 2018 ON: 19.99 +20.0 19.66 - 3.6 33.4 07 14 4616 0920 Alarm State:  0
Fri Jun 22 06:40:52 PDT 2018 ON: 20.02 +20.0 19.73 - 5.0 32.6 0D 12 4627 0921 Alarm State:  0
Fri Jun 22 06:39:51 PDT 2018 ON: 19.97 +20.0 19.64 - 2.9 34.1 02 14 470A 0924 Alarm State:  0
Fri Jun 22 06:38:49 PDT 2018 ON: 19.99 +20.0 19.68 - 3.8 33.6 02 14 4719 0904 Alarm State:  0
Fri Jun 22 06:37:48 PDT 2018 ON: 20.00 +20.0 19.67 - 3.4 33.8 0A 14 471D 0922 Alarm State:  0
Fri Jun 22 06:36:46 PDT 2018 ON: 20.02 +20.0 19.72 - 4.5 33.2 0D 12 4702 0928 Alarm State:  0
Fri Jun 22 06:35:45 PDT 2018 ON: 20.02 +20.0 19.65 - 3.7 33.3 00 14 4629 0906 Alarm State:  0
Fri Jun 22 06:34:43 PDT 2018 ON: 19.97 +20.0 19.66 - 3.4 33.6 05 14 4622 0927 Alarm State:  0
Fri Jun 22 06:33:42 PDT 2018 ON: 20.01 +20.0 19.70 - 4.0 33.5 0D 13 4706 0920 Alarm State:  0
Fri Jun 22 06:32:40 PDT 2018 ON: 19.97 +20.0 19.64 - 2.9 34.1 07 14 470C 0917 Alarm State:  0
Fri Jun 22 06:31:39 PDT 2018 ON: 20.01 +20.0 19.70 - 4.1 33.2 0D 13 462A 090D Alarm State:  0
Fri Jun 22 06:30:37 PDT 2018 ON: 20.00 +20.0 19.63 - 3.3 33.5 00 14 4717 090F Alarm State:  0
Fri Jun 22 06:29:36 PDT 2018 ON: 19.98 +20.0 19.62 - 2.8 34.1 02 14 471A 092F Alarm State:  0
Fri Jun 22 06:28:34 PDT 2018 ON: 20.00 +20.0 19.70 - 4.3 33.1 0D 13 470C 091E Alarm State:  0
Fri Jun 22 06:27:33 PDT 2018 ON: 20.01 +20.0 19.63 - 2.9 33.8 00 14 472F 091F Alarm State:  0
Fri Jun 22 06:26:31 PDT 2018 ON: 20.01 +20.0 19.69 - 4.4 33.0 00 14 462A 090B Alarm State:  0
Fri Jun 22 06:25:30 PDT 2018 ON: 19.99 +20.0 19.60 - 2.4 33.9 00 14 470C 0910 Alarm State:  0
Fri Jun 22 06:24:28 PDT 2018 ON: 19.99 +20.0 19.67 - 3.9 33.1 05 14 4623 0A11 Alarm State:  0
Fri Jun 22 06:23:27 PDT 2018 ON: 20.01 +20.0 19.68 - 4.1 33.2 00 14 470B 0909 Alarm State:  0
Fri Jun 22 06:22:25 PDT 2018 ON: 19.97 +20.0 19.63 - 2.6 34.1 0C 14 4709 092A Alarm State:  0
Fri Jun 22 06:21:24 PDT 2018 ON: 19.99 +20.0 19.69 - 4.3 33.1 05 14 4623 0928 Alarm State:  0
Fri Jun 22 06:20:23 PDT 2018 ON: 19.99 +20.0 19.62 - 2.4 33.9 00 14 471C 091E Alarm State:  0
Fri Jun 22 06:19:21 PDT 2018 ON: 19.98 +20.0 19.66 - 3.8 33.1 05 14 470F 0920 Alarm State:  0
Fri Jun 22 06:18:20 PDT 2018 ON: 20.02 +20.0 19.72 - 4.2 33.1 0D 12 472B 0916 Alarm State:  0
Fri Jun 22 06:17:18 PDT 2018 ON: 20.02 +20.0 19.70 - 4.5 33.0 0A 13 462F 0901 Alarm State:  0
Fri Jun 22 06:16:17 PDT 2018 ON: 20.02 +20.0 19.70 - 4.2 32.9 0D 13 461B 090E Alarm State:  0
Fri Jun 22 06:15:15 PDT 2018 ON: 20.01 +20.0 19.66 - 3.8 33.3 00 14 462E 0917 Alarm State:  0
Fri Jun 22 06:14:14 PDT 2018 ON: 19.98 +20.0 19.62 - 3.1 33.9 05 14 4630 0930 Alarm State:  0
Fri Jun 22 06:13:12 PDT 2018 ON: 20.02 +20.0 19.71 - 4.6 32.8 0D 13 462B 0918 Alarm State:  0
Fri Jun 22 06:12:11 PDT 2018 ON: 20.01 +20.0 19.63 - 3.2 33.5 00 14 471C 091A Alarm State:  0
Fri Jun 22 06:11:09 PDT 2018 ON: 19.99 +20.0 19.64 - 2.8 33.8 00 14 471B 090E Alarm State:  0
Fri Jun 22 06:10:08 PDT 2018 ON: 20.00 +20.0 19.63 - 2.8 34.0 07 14 4715 0907 Alarm State:  0
Fri Jun 22 06:09:06 PDT 2018 ON: 20.00 +20.0 19.66 - 3.3 33.8 05 14 4706 0909 Alarm State:  0
Fri Jun 22 06:08:05 PDT 2018 ON: 19.99 +20.0 19.62 - 2.7 34.1 07 14 4712 0929 Alarm State:  0
Fri Jun 22 06:07:03 PDT 2018 ON: 20.00 +20.0 19.66 - 3.2 33.8 02 14 4703 0900 Alarm State:  0
Fri Jun 22 06:06:02 PDT 2018 ON: 19.99 +20.0 19.66 - 3.5 33.5 0C 14 462C 0A03 Alarm State:  0
Fri Jun 22 06:05:00 PDT 2018 ON: 20.03 +20.0 19.72 - 4.9 32.5 0D 12 4706 0911 Alarm State:  0
Fri Jun 22 06:03:59 PDT 2018 ON: 19.99 +20.0 19.61 - 2.3 34.0 00 14 4718 0917 Alarm State:  0
Fri Jun 22 06:02:57 PDT 2018 ON: 19.99 +20.0 19.67 - 3.2 33.9 05 14 470D 091B Alarm State:  0
Fri Jun 22 06:01:56 PDT 2018 ON: 20.02 +20.0 19.71 - 4.4 33.0 0D 13 462A 0914 Alarm State:  0
Fri Jun 22 06:00:54 PDT 2018 ON: 20.03 +20.0 19.71 - 4.5 32.9 0D 13 461F 0912 Alarm State:  0
Fri Jun 22 05:59:53 PDT 2018 ON: 20.02 +20.0 19.65 - 3.4 33.5 00 14 4629 090D Alarm State:  0
Fri Jun 22 05:58:51 PDT 2018 ON: 19.97 +20.0 19.65 - 3.3 33.5 05 14 4628 0923 Alarm State:  0
Fri Jun 22 05:57:50 PDT 2018 ON: 20.03 +20.0 19.70 - 4.4 33.0 08 13 470B 091F Alarm State:  0
Fri Jun 22 05:56:48 PDT 2018 ON: 19.99 +20.0 19.62 - 2.5 34.2 02 14 4710 0907 Alarm State:  0
Fri Jun 22 05:55:47 PDT 2018 ON: 20.01 +20.0 19.67 - 3.4 33.9 07 14 4708 0902 Alarm State:  0
Fri Jun 22 05:54:45 PDT 2018 ON: 20.01 +20.0 19.69 - 4.4 33.0 05 14 461E 0912 Alarm State:  0
Fri Jun 22 05:53:44 PDT 2018 ON: 20.01 +20.0 19.62 - 2.6 33.9 02 14 4715 0904 Alarm State:  0
Fri Jun 22 05:52:42 PDT 2018 ON: 19.98 +20.0 19.61 - 2.8 34.1 05 14 4710 0927 Alarm State:  0
Fri Jun 22 05:51:41 PDT 2018 ON: 20.02 +20.0 19.68 - 3.7 33.7 0A 14 4700 0922 Alarm State:  0
Fri Jun 22 05:50:39 PDT 2018 ON: 20.01 +20.0 19.70 - 4.0 33.3 0D 13 460C 0909 Alarm State:  0
Fri Jun 22 05:49:38 PDT 2018 ON: 20.04 +20.0 19.72 - 5.0 32.5 0D 12 4602 0904 Alarm State:  0
Fri Jun 22 05:48:36 PDT 2018 ON: 19.97 +20.0 19.64 - 2.8 34.1 07 14 4607 091D Alarm State:  0
Fri Jun 22 05:47:35 PDT 2018 ON: 20.01 +20.0 19.71 - 4.5 33.1 0A 13 4530 0A0E Alarm State:  0
Fri Jun 22 05:46:33 PDT 2018 ON: 19.98 +20.0 19.62 - 2.3 34.0 02 14 4632 0923 Alarm State:  0
Fri Jun 22 05:45:32 PDT 2018 ON: 19.99 +20.0 19.67 - 3.6 33.4 07 14 4624 0920 Alarm State:  0
Fri Jun 22 05:44:30 PDT 2018 ON: 20.01 +20.0 19.66 - 3.8 33.3 00 14 4718 091F Alarm State:  0
Fri Jun 22 05:43:29 PDT 2018 ON: 20.01 +20.0 19.62 - 3.1 33.7 00 14 462F 0922 Alarm State:  0
Fri Jun 22 05:42:27 PDT 2018 ON: 19.98 +20.0 19.64 - 3.0 34.0 00 14 4624 091A Alarm State:  0
Fri Jun 22 05:41:26 PDT 2018 ON: 19.98 +20.0 19.67 - 3.9 32.9 07 14 470D 0A01 Alarm State:  0
Fri Jun 22 05:40:24 PDT 2018 ON: 20.01 +20.0 19.64 - 3.1 33.7 00 14 480D 0912 Alarm State:  0
Fri Jun 22 05:39:23 PDT 2018 ON: 20.03 +20.0 19.68 - 4.4 32.9 02 14 470C 0923 Alarm State:  0
Fri Jun 22 05:38:21 PDT 2018 ON: 19.97 +20.0 19.64 - 3.0 34.0 02 14 4709 0915 Alarm State:  0
Fri Jun 22 05:37:20 PDT 2018 ON: 20.00 +20.0 19.67 - 3.7 33.5 05 14 4707 0904 Alarm State:  0
Fri Jun 22 05:36:18 PDT 2018 ON: 20.01 +20.0 19.70 - 4.4 33.0 0D 13 4706 0902 Alarm State:  0
Fri Jun 22 05:35:17 PDT 2018 ON: 20.01 +20.0 19.62 - 2.7 33.8 00 14 471A 0918 Alarm State:  0
Fri Jun 22 05:34:15 PDT 2018 ON: 19.98 +20.0 19.66 - 3.5 33.8 05 14 462A 0928 Alarm State:  0
Fri Jun 22 05:33:14 PDT 2018 ON: 20.00 +20.0 19.70 - 4.3 33.1 0D 13 461A 0927 Alarm State:  0
Fri Jun 22 05:32:12 PDT 2018 ON: 20.01 +20.0 19.61 - 2.8 33.7 00 14 4708 0907 Alarm State:  0
Fri Jun 22 05:31:11 PDT 2018 ON: 19.98 +20.0 19.67 - 3.9 33.0 05 14 4629 0A06 Alarm State:  0
Fri Jun 22 05:30:09 PDT 2018 ON: 20.02 +20.0 19.70 - 4.2 33.1 0D 13 4715 0927 Alarm State:  0
Fri Jun 22 05:29:08 PDT 2018 ON: 20.02 +20.0 19.68 - 4.1 33.1 02 14 4713 091E Alarm State:  0
Fri Jun 22 05:28:06 PDT 2018 ON: 20.02 +20.0 19.66 - 4.3 32.9 00 14 4706 091E Alarm State:  0
Fri Jun 22 05:27:05 PDT 2018 ON: 19.99 +20.0 19.57 - 2.1 34.1 01 14 471A 0925 Alarm State:  0
Fri Jun 22 05:26:03 PDT 2018 ON: 19.98 +20.0 19.67 - 3.9 33.2 00 14 4715 0A15 Alarm State:  0
Fri Jun 22 05:25:02 PDT 2018 ON: 20.01 +20.0 19.65 - 3.6 33.4 00 14 480D 0903 Alarm State:  0
Fri Jun 22 05:24:00 PDT 2018 ON: 19.98 +20.0 19.65 - 3.4 33.3 05 14 4809 0923 Alarm State:  0
Fri Jun 22 05:22:59 PDT 2018 ON: 20.02 +20.0 19.70 - 3.9 33.3 08 13 4816 0920 Alarm State:  0
Fri Jun 22 05:21:57 PDT 2018 ON: 20.02 +20.0 19.69 - 3.8 33.6 0D 14 470B 090C Alarm State:  0
Fri Jun 22 05:20:56 PDT 2018 ON: 20.00 +20.0 19.68 - 3.6 33.6 0A 14 461C 0919 Alarm State:  0
Fri Jun 22 05:19:54 PDT 2018 ON: 20.02 +20.0 19.71 - 4.6 33.0 0D 13 4619 0909 Alarm State:  0
Fri Jun 22 05:18:53 PDT 2018 ON: 20.00 +20.0 19.62 - 2.5 33.9 05 14 461D 091D Alarm State:  0
Fri Jun 22 05:17:51 PDT 2018 ON: 20.00 +20.0 19.68 - 4.1 33.3 05 14 452F 0927 Alarm State:  0
Fri Jun 22 05:16:50 PDT 2018 ON: 19.99 +20.0 19.58 - 2.6 33.8 01 14 462D 0915 Alarm State:  0
Fri Jun 22 05:15:48 PDT 2018 ON: 20.00 +20.0 19.68 - 4.1 33.1 05 14 4609 0920 Alarm State:  0
Fri Jun 22 05:14:47 PDT 2018 ON: 20.00 +20.0 19.69 - 4.0 33.3 0D 14 4701 0913 Alarm State:  0
Fri Jun 22 05:13:45 PDT 2018 ON: 20.01 +20.0 19.71 - 4.3 33.1 0D 13 462C 0912 Alarm State:  0
Fri Jun 22 05:12:44 PDT 2018 ON: 20.01 +20.0 19.65 - 3.9 33.3 00 14 4623 0906 Alarm State:  0
Fri Jun 22 05:11:42 PDT 2018 ON: 19.98 +20.0 19.65 - 3.6 33.4 05 14 461F 0920 Alarm State:  0
Fri Jun 22 05:10:41 PDT 2018 ON: 20.02 +20.0 19.71 - 4.5 32.9 0D 13 4632 091B Alarm State:  0
Fri Jun 22 05:09:39 PDT 2018 ON: 20.02 +20.0 19.65 - 3.8 33.3 02 14 4630 0918 Alarm State:  0
Fri Jun 22 05:08:38 PDT 2018 ON: 19.98 +20.0 19.64 - 3.2 33.9 02 14 4631 0A08 Alarm State:  0
Fri Jun 22 05:07:36 PDT 2018 ON: 20.03 +20.0 19.70 - 4.5 32.8 0D 13 4702 0919 Alarm State:  0
Fri Jun 22 05:06:35 PDT 2018 ON: 20.02 +20.0 19.65 - 3.6 33.4 00 14 471B 091E Alarm State:  0
Fri Jun 22 05:05:33 PDT 2018 ON: 20.00 +20.0 19.64 - 2.9 34.0 05 14 4703 0929 Alarm State:  0
Fri Jun 22 05:04:32 PDT 2018 ON: 20.00 +20.0 19.70 - 4.5 32.9 0D 14 461D 0A04 Alarm State:  0
Fri Jun 22 05:03:30 PDT 2018 ON: 20.00 +20.0 19.60 - 2.1 34.2 01 14 4726 0904 Alarm State:  0
Fri Jun 22 05:02:29 PDT 2018 ON: 20.01 +20.0 19.65 - 3.0 34.0 07 14 4711 0908 Alarm State:  0
Fri Jun 22 05:01:27 PDT 2018 ON: 20.02 +20.0 19.69 - 3.9 33.3 00 14 4622 091B Alarm State:  0
Fri Jun 22 05:00:26 PDT 2018 ON: 20.04 +20.0 19.70 - 4.6 32.8 0D 13 461F 0909 Alarm State:  0
Fri Jun 22 04:59:24 PDT 2018 ON: 20.01 +20.0 19.64 - 3.4 33.5 00 14 461B 0A00 Alarm State:  0
Fri Jun 22 04:58:23 PDT 2018 ON: 20.00 +20.0 19.65 - 3.3 33.6 07 14 461E 0A15 Alarm State:  0
Fri Jun 22 04:57:21 PDT 2018 ON: 20.02 +20.0 19.69 - 4.3 32.9 0A 14 4707 0914 Alarm State:  0
Fri Jun 22 04:56:20 PDT 2018 ON: 20.01 +20.0 19.61 - 2.8 33.8 02 14 470E 0904 Alarm State:  0
Fri Jun 22 04:55:18 PDT 2018 ON: 19.99 +20.0 19.68 - 3.4 33.9 05 14 461D 0913 Alarm State:  0
Fri Jun 22 04:54:17 PDT 2018 ON: 20.01 +20.0 19.72 - 5.0 32.6 0D 13 4602 0A21 Alarm State:  0
Fri Jun 22 04:53:15 PDT 2018 ON: 19.96 +20.0 19.59 - 2.2 34.2 00 14 4632 0A06 Alarm State:  0
Fri Jun 22 04:52:14 PDT 2018 ON: 20.01 +20.0 19.71 - 4.0 33.4 08 13 4627 0926 Alarm State:  0
Fri Jun 22 04:51:12 PDT 2018 ON: 20.00 +20.0 19.69 - 4.1 32.9 05 14 470A 0917 Alarm State:  0
Fri Jun 22 04:50:11 PDT 2018 ON: 20.02 +20.0 19.67 - 4.2 33.0 00 14 4713 0928 Alarm State:  0
Fri Jun 22 04:49:09 PDT 2018 ON: 20.01 +20.0 19.65 - 3.9 33.3 00 14 4630 090A Alarm State:  0
Fri Jun 22 04:48:08 PDT 2018 ON: 19.98 +20.0 19.62 - 2.7 34.1 05 14 4700 0923 Alarm State:  0
Fri Jun 22 04:47:06 PDT 2018 ON: 19.99 +20.0 19.64 - 2.8 34.0 05 14 4708 091E Alarm State:  0
Fri Jun 22 04:46:05 PDT 2018 ON: 20.00 +20.0 19.69 - 4.4 33.1 05 14 4610 0903 Alarm State:  0
Fri Jun 22 04:45:03 PDT 2018 ON: 20.00 +20.0 19.62 - 2.5 33.8 02 14 462E 090B Alarm State:  0
Fri Jun 22 04:44:02 PDT 2018 ON: 19.98 +20.0 19.68 - 3.9 33.0 07 14 4615 0A11 Alarm State:  0
Fri Jun 22 04:43:00 PDT 2018 ON: 20.03 +20.0 19.68 - 3.8 33.3 00 14 470C 0921 Alarm State:  0
Fri Jun 22 04:41:59 PDT 2018 ON: 19.98 +20.0 19.63 - 3.0 34.0 0A 14 4711 0A01 Alarm State:  0
Fri Jun 22 04:40:57 PDT 2018 ON: 20.03 +20.0 19.70 - 3.9 33.5 0D 13 4717 090E Alarm State:  0
Fri Jun 22 04:39:56 PDT 2018 ON: 20.03 +20.0 19.71 - 4.7 32.9 0D 13 4627 091E Alarm State:  0
Fri Jun 22 04:38:54 PDT 2018 ON: 20.02 +20.0 19.69 - 4.4 32.9 02 14 4615 0925 Alarm State:  0
Fri Jun 22 04:37:53 PDT 2018 ON: 20.02 +20.0 19.62 - 3.1 33.6 00 14 470B 0921 Alarm State:  0
Fri Jun 22 04:36:51 PDT 2018 ON: 19.97 +20.0 19.64 - 3.4 33.7 02 14 4709 0A10 Alarm State:  0
Fri Jun 22 04:35:50 PDT 2018 ON: 20.02 +20.0 19.70 - 4.0 33.2 0D 13 4716 091A Alarm State:  0
Fri Jun 22 04:34:48 PDT 2018 ON: 20.01 +20.0 19.67 - 3.4 33.5 00 14 4730 0916 Alarm State:  0
Fri Jun 22 04:33:47 PDT 2018 ON: 20.02 +20.0 19.67 - 3.6 33.5 00 14 470B 0922 Alarm State:  0
Fri Jun 22 04:32:45 PDT 2018 ON: 19.98 +20.0 19.61 - 2.8 34.1 04 14 4624 0921 Alarm State:  0
Fri Jun 22 04:31:44 PDT 2018 ON: 20.01 +20.0 19.70 - 4.0 33.3 0D 13 460B 0923 Alarm State:  0
Fri Jun 22 04:30:42 PDT 2018 ON: 20.02 +20.0 19.66 - 3.5 33.4 00 14 461B 0918 Alarm State:  0
Fri Jun 22 04:29:41 PDT 2018 ON: 19.97 +20.0 19.65 - 3.7 33.3 00 14 460C 0A0C Alarm State:  0
Fri Jun 22 04:28:39 PDT 2018 ON: 20.01 +20.0 19.62 - 3.0 33.5 00 14 4711 090C Alarm State:  0
Fri Jun 22 04:27:38 PDT 2018 ON: 19.96 +20.0 19.64 - 3.2 33.9 02 14 4704 0A02 Alarm State:  0
Fri Jun 22 04:26:36 PDT 2018 ON: 20.01 +20.0 19.70 - 3.9 33.1 0D 13 471A 090D Alarm State:  0
Fri Jun 22 04:25:35 PDT 2018 ON: 20.03 +20.0 19.69 - 4.1 33.1 08 14 4725 091A Alarm State:  0
Fri Jun 22 04:24:33 PDT 2018 ON: 20.03 +20.0 19.62 - 2.6 33.8 02 14 4721 0915 Alarm State:  0
Fri Jun 22 04:23:32 PDT 2018 ON: 20.00 +20.0 19.65 - 3.1 34.0 07 14 4702 0925 Alarm State:  0
Fri Jun 22 04:22:30 PDT 2018 ON: 20.02 +20.0 19.69 - 4.0 33.2 00 14 4621 0A0B Alarm State:  0
Fri Jun 22 04:21:29 PDT 2018 ON: 20.02 +20.0 19.64 - 3.2 33.6 00 14 4717 0901 Alarm State:  0
Fri Jun 22 04:20:27 PDT 2018 ON: 19.99 +20.0 19.65 - 3.4 33.7 05 14 4630 092B Alarm State:  0
Fri Jun 22 04:19:26 PDT 2018 ON: 20.04 +20.0 19.72 - 4.7 32.8 0D 12 462D 090F Alarm State:  0
Fri Jun 22 04:18:24 PDT 2018 ON: 20.02 +20.0 19.65 - 3.4 33.6 00 14 4621 0912 Alarm State:  0
Fri Jun 22 04:17:23 PDT 2018 ON: 20.00 +20.0 19.65 - 3.1 34.0 00 14 460C 0918 Alarm State:  0
Fri Jun 22 04:16:21 PDT 2018 ON: 20.00 +20.0 19.72 - 5.0 32.7 0D 12 452F 0913 Alarm State:  0
Fri Jun 22 04:15:20 PDT 2018 ON: 20.00 +20.0 19.63 - 2.3 34.1 07 14 4619 091C Alarm State:  0
Fri Jun 22 04:14:18 PDT 2018 ON: 19.99 +20.0 19.67 - 4.0 33.2 00 14 4609 0A21 Alarm State:  0
Fri Jun 22 04:13:17 PDT 2018 ON: 20.00 +20.0 19.66 - 3.7 33.3 00 14 470D 0A02 Alarm State:  0
Fri Jun 22 04:12:15 PDT 2018 ON: 19.96 +20.0 19.62 - 3.3 33.4 05 14 4721 0930 Alarm State:  0
Fri Jun 22 04:11:14 PDT 2018 ON: 20.01 +20.0 19.69 - 4.2 33.1 0D 14 4809 091D Alarm State:  0
Fri Jun 22 04:10:12 PDT 2018 ON: 20.02 +20.0 19.69 - 4.2 33.0 0D 14 4726 0926 Alarm State:  0
Fri Jun 22 04:09:11 PDT 2018 ON: 19.99 +20.0 19.61 - 2.5 33.9 00 14 472D 0914 Alarm State:  0
Fri Jun 22 04:08:09 PDT 2018 ON: 20.01 +20.0 19.62 - 2.8 33.9 02 14 470F 091F Alarm State:  0
Fri Jun 22 04:07:08 PDT 2018 ON: 19.99 +20.0 19.69 - 4.1 32.9 05 14 4623 0A04 Alarm State:  0
Fri Jun 22 04:06:06 PDT 2018 ON: 20.03 +20.0 19.69 - 3.9 33.2 0A 14 4712 0901 Alarm State:  0
Fri Jun 22 04:05:05 PDT 2018 ON: 20.01 +20.0 19.62 - 3.0 33.7 02 14 4701 0903 Alarm State:  0
Fri Jun 22 04:04:03 PDT 2018 ON: 19.99 +20.0 19.66 - 3.8 33.2 00 14 4620 092E Alarm State:  0
Fri Jun 22 04:03:02 PDT 2018 ON: 20.02 +20.0 19.65 - 3.5 33.4 00 14 4722 0909 Alarm State:  0
Fri Jun 22 04:02:00 PDT 2018 ON: 20.00 +20.0 19.61 - 2.5 34.2 07 14 472A 0915 Alarm State:  0
Fri Jun 22 04:00:59 PDT 2018 ON: 20.01 +20.0 19.68 - 3.2 33.9 05 14 4731 0905 Alarm State:  0
Fri Jun 22 03:59:57 PDT 2018 ON: 20.03 +20.0 19.69 - 4.0 33.5 0A 14 471D 0927 Alarm State:  0
Fri Jun 22 03:58:56 PDT 2018 ON: 20.04 +20.0 19.69 - 4.2 33.1 00 14 462B 0912 Alarm State:  0
Fri Jun 22 03:57:54 PDT 2018 ON: 19.99 +20.0 19.63 - 2.7 34.0 02 14 4623 0909 Alarm State:  0
Fri Jun 22 03:56:53 PDT 2018 ON: 20.01 +20.0 19.68 - 3.7 33.4 02 14 4626 0A01 Alarm State:  0
Fri Jun 22 03:55:51 PDT 2018 ON: 20.00 +20.0 19.65 - 3.1 33.6 00 14 471D 0915 Alarm State:  0
Fri Jun 22 03:54:50 PDT 2018 ON: 20.00 +20.0 19.65 - 2.6 34.1 00 14 470C 0917 Alarm State:  0
Fri Jun 22 03:53:48 PDT 2018 ON: 19.99 +20.0 19.69 - 4.1 33.2 00 14 4623 0926 Alarm State:  0
Fri Jun 22 03:52:47 PDT 2018 ON: 19.99 +20.0 19.70 - 3.9 33.0 0A 13 470D 0921 Alarm State:  0
Fri Jun 22 03:51:45 PDT 2018 ON: 20.02 +20.0 19.71 - 4.2 33.0 0D 13 4717 0908 Alarm State:  0
Fri Jun 22 03:50:44 PDT 2018 ON: 19.99 +20.0 19.59 - 2.2 34.0 01 14 471E 0913 Alarm State:  0
Fri Jun 22 03:49:42 PDT 2018 ON: 20.01 +20.0 19.69 - 3.8 33.5 07 14 4621 0926 Alarm State:  0
Fri Jun 22 03:48:41 PDT 2018 ON: 20.04 +20.0 19.70 - 5.1 32.3 0D 13 4610 0926 Alarm State:  0
Fri Jun 22 03:47:39 PDT 2018 ON: 19.99 +20.0 19.64 - 3.0 34.0 05 14 462A 092D Alarm State:  0
Fri Jun 22 03:46:38 PDT 2018 ON: 20.01 +20.0 19.70 - 4.1 33.4 0D 13 462D 0911 Alarm State:  0
Fri Jun 22 03:45:36 PDT 2018 ON: 20.02 +20.0 19.70 - 4.3 33.0 0A 13 461B 0918 Alarm State:  0
Fri Jun 22 03:44:35 PDT 2018 ON: 20.02 +20.0 19.62 - 2.5 33.8 00 14 470F 0917 Alarm State:  0
Fri Jun 22 03:43:34 PDT 2018 ON: 19.98 +20.0 19.65 - 3.3 33.9 02 14 4626 0922 Alarm State:  0
Fri Jun 22 03:42:32 PDT 2018 ON: 20.00 +20.0 19.70 - 4.2 33.1 0A 13 4619 0918 Alarm State:  0
Fri Jun 22 03:41:31 PDT 2018 ON: 20.01 +20.0 19.65 - 3.2 33.6 00 14 4710 0916 Alarm State:  0
Fri Jun 22 03:40:29 PDT 2018 ON: 19.98 +20.0 19.64 - 2.8 34.0 05 14 4630 091C Alarm State:  0
Fri Jun 22 03:39:28 PDT 2018 ON: 19.99 +20.0 19.70 - 4.2 33.1 08 14 461B 0A20 Alarm State:  0
Fri Jun 22 03:38:26 PDT 2018 ON: 19.98 +20.0 19.60 - 1.9 34.2 09 14 4724 091C Alarm State:  0
Fri Jun 22 03:37:25 PDT 2018 ON: 19.99 +20.0 19.66 - 3.7 33.5 05 14 470D 091E Alarm State:  0
Fri Jun 22 03:36:23 PDT 2018 ON: 20.02 +20.0 19.72 - 4.5 32.9 0D 12 470B 0915 Alarm State:  0
Fri Jun 22 03:35:22 PDT 2018 ON: 20.01 +20.0 19.60 - 2.6 33.8 00 14 4720 0920 Alarm State:  0
Fri Jun 22 03:34:20 PDT 2018 ON: 20.00 +20.0 19.67 - 3.1 34.0 02 14 4631 092B Alarm State:  0
Fri Jun 22 03:33:19 PDT 2018 ON: 20.01 +20.0 19.71 - 4.3 33.1 0A 13 461E 0900 Alarm State:  0
Fri Jun 22 03:32:17 PDT 2018 ON: 20.02 +20.0 19.65 - 3.4 33.5 00 14 4632 090E Alarm State:  0
Fri Jun 22 03:31:16 PDT 2018 ON: 20.00 +20.0 19.64 - 2.6 34.1 05 14 462D 0904 Alarm State:  0
Fri Jun 22 03:30:14 PDT 2018 ON: 20.00 +20.0 19.68 - 4.0 33.3 07 14 4617 0901 Alarm State:  0
Fri Jun 22 03:29:13 PDT 2018 ON: 20.04 +20.0 19.70 - 4.6 32.7 05 13 461E 0918 Alarm State:  0
Fri Jun 22 03:28:11 PDT 2018 ON: 19.96 +20.0 19.63 - 3.1 33.8 05 14 462C 0929 Alarm State:  0
Fri Jun 22 03:27:10 PDT 2018 ON: 20.01 +20.0 19.72 - 4.7 32.7 05 13 4708 0A03 Alarm State:  0
Fri Jun 22 03:26:08 PDT 2018 ON: 19.98 +20.0 19.60 - 2.1 34.1 01 14 4722 092B Alarm State:  0
Fri Jun 22 03:25:07 PDT 2018 ON: 19.99 +20.0 19.67 - 3.7 33.3 07 14 4711 0A02 Alarm State:  0
Fri Jun 22 03:24:05 PDT 2018 ON: 20.03 +20.0 19.66 - 3.9 33.2 00 14 4729 0907 Alarm State:  0
Fri Jun 22 03:23:04 PDT 2018 ON: 19.98 +20.0 19.66 - 3.2 33.8 05 14 4720 092B Alarm State:  0
Fri Jun 22 03:22:02 PDT 2018 ON: 20.03 +20.0 19.71 - 4.4 32.9 0A 13 471E 0914 Alarm State:  0
Fri Jun 22 03:21:01 PDT 2018 ON: 20.02 +20.0 19.66 - 3.4 33.5 00 14 4727 0927 Alarm State:  0
Fri Jun 22 03:19:59 PDT 2018 ON: 20.03 +20.0 19.68 - 4.4 32.8 00 14 4632 090F Alarm State:  0
Fri Jun 22 03:18:58 PDT 2018 ON: 20.00 +20.0 19.63 - 2.7 34.1 07 14 4631 092F Alarm State:  0
Fri Jun 22 03:17:56 PDT 2018 ON: 20.02 +20.0 19.69 - 4.1 33.1 00 14 461D 0928 Alarm State:  0
Fri Jun 22 03:16:55 PDT 2018 ON: 20.02 +20.0 19.64 - 3.2 33.6 00 14 4707 0907 Alarm State:  0
Fri Jun 22 03:15:53 PDT 2018 ON: 19.98 +20.0 19.62 - 2.8 33.9 02 14 4628 0904 Alarm State:  0
Fri Jun 22 03:14:52 PDT 2018 ON: 19.99 +20.0 19.65 - 3.6 33.5 00 14 4627 0A00 Alarm State:  0
Fri Jun 22 03:13:50 PDT 2018 ON: 20.02 +20.0 19.71 - 4.8 32.6 0A 13 4631 090D Alarm State:  0
Fri Jun 22 03:12:49 PDT 2018 ON: 19.98 +20.0 19.62 - 2.3 34.2 00 14 4713 0912 Alarm State:  0
Fri Jun 22 03:11:47 PDT 2018 ON: 20.01 +20.0 19.69 - 4.1 33.3 05 14 462E 0913 Alarm State:  0
Fri Jun 22 03:10:46 PDT 2018 ON: 20.01 +20.0 19.70 - 4.8 32.5 0D 13 462D 090B Alarm State:  0
Fri Jun 22 03:09:44 PDT 2018 ON: 19.98 +20.0 19.62 - 2.3 34.2 0A 14 471E 0907 Alarm State:  0
Fri Jun 22 03:08:43 PDT 2018 ON: 19.99 +20.0 19.66 - 3.3 33.8 05 14 4727 091E Alarm State:  0
Fri Jun 22 03:07:41 PDT 2018 ON: 20.01 +20.0 19.65 - 2.8 34.1 0A 14 4810 0920 Alarm State:  0
Fri Jun 22 03:06:40 PDT 2018 ON: 20.02 +20.0 19.68 - 3.7 33.8 0A 14 4722 0924 Alarm State:  0
Fri Jun 22 03:05:38 PDT 2018 ON: 20.03 +20.0 19.69 - 3.9 33.6 05 14 4627 0910 Alarm State:  0
Fri Jun 22 03:04:37 PDT 2018 ON: 20.01 +20.0 19.69 - 4.1 33.2 07 14 460E 0916 Alarm State:  0
Fri Jun 22 03:03:35 PDT 2018 ON: 20.04 +20.0 19.68 - 4.7 32.8 02 14 4616 0A0B Alarm State:  0
Fri Jun 22 03:02:34 PDT 2018 ON: 19.99 +20.0 19.66 - 3.6 33.2 00 14 4613 0A1E Alarm State:  0
Fri Jun 22 03:01:32 PDT 2018 ON: 20.03 +20.0 19.68 - 4.2 33.0 00 14 4708 0909 Alarm State:  0
Fri Jun 22 03:00:31 PDT 2018 ON: 20.00 +20.0 19.63 - 2.7 34.2 07 14 470F 091D Alarm State:  0
Fri Jun 22 02:59:29 PDT 2018 ON: 20.01 +20.0 19.69 - 4.2 33.2 0A 14 4703 090C Alarm State:  0
Fri Jun 22 02:58:28 PDT 2018 ON: 20.02 +20.0 19.65 - 3.2 33.6 00 14 4712 0921 Alarm State:  0
Fri Jun 22 02:57:26 PDT 2018 ON: 20.00 +20.0 19.61 - 2.4 34.2 05 14 4709 0917 Alarm State:  0
Fri Jun 22 02:56:25 PDT 2018 ON: 20.00 +20.0 19.66 - 3.4 33.9 05 14 4707 0914 Alarm State:  0
Fri Jun 22 02:55:23 PDT 2018 ON: 20.03 +20.0 19.70 - 4.2 33.3 0D 13 4625 091A Alarm State:  0
Fri Jun 22 02:54:22 PDT 2018 ON: 20.01 +20.0 19.71 - 4.9 32.5 08 13 460D 0921 Alarm State:  0
Fri Jun 22 02:53:21 PDT 2018 ON: 19.96 +20.0 19.63 - 2.7 34.1 02 14 4626 0923 Alarm State:  0
Fri Jun 22 02:52:19 PDT 2018 ON: 20.01 +20.0 19.72 - 4.7 32.8 0D 13 4624 0A04 Alarm State:  0
Fri Jun 22 02:51:17 PDT 2018 ON: 19.98 +20.0 19.59 - 2.4 34.0 00 14 471C 0921 Alarm State:  0
Fri Jun 22 02:50:16 PDT 2018 ON: 19.99 +20.0 19.67 - 3.4 33.6 02 14 471C 0918 Alarm State:  0
Fri Jun 22 02:49:14 PDT 2018 ON: 20.01 +20.0 19.71 - 4.2 33.4 0D 13 4719 0906 Alarm State:  0
Fri Jun 22 02:48:13 PDT 2018 ON: 20.02 +20.0 19.72 - 4.2 33.4 0D 12 4626 0919 Alarm State:  0
Fri Jun 22 02:47:12 PDT 2018 ON: 20.01 +20.0 19.69 - 4.3 32.9 02 14 460D 0923 Alarm State:  0
Fri Jun 22 02:46:10 PDT 2018 ON: 20.03 +20.0 19.65 - 3.6 33.4 00 14 461B 090C Alarm State:  0
Fri Jun 22 02:45:09 PDT 2018 ON: 19.98 +20.0 19.63 - 2.7 34.1 0A 14 4614 0908 Alarm State:  0
Fri Jun 22 02:44:07 PDT 2018 ON: 20.02 +20.0 19.70 - 4.5 33.0 07 14 4531 0A09 Alarm State:  0
Fri Jun 22 02:43:06 PDT 2018 ON: 19.98 +20.0 19.58 - 1.9 34.1 04 14 462F 091C Alarm State:  0
Fri Jun 22 02:42:04 PDT 2018 ON: 20.00 +20.0 19.67 - 4.5 32.8 05 14 461F 0A17 Alarm State:  0
Fri Jun 22 02:41:03 PDT 2018 ON: 19.98 +20.0 19.58 - 1.8 34.3 07 14 4729 0912 Alarm State:  0
Fri Jun 22 02:40:01 PDT 2018 ON: 20.02 +20.0 19.69 - 3.4 33.9 0D 14 4721 0903 Alarm State:  0
Fri Jun 22 02:39:00 PDT 2018 ON: 20.02 +20.0 19.67 - 4.1 33.1 07 14 4700 0911 Alarm State:  0
Fri Jun 22 02:37:58 PDT 2018 ON: 20.02 +20.0 19.69 - 4.2 33.1 0A 14 4704 090C Alarm State:  0
Fri Jun 22 02:36:57 PDT 2018 ON: 20.00 +20.0 19.60 - 2.4 33.9 00 14 4705 0927 Alarm State:  0
Fri Jun 22 02:35:55 PDT 2018 ON: 19.97 +20.0 19.66 - 4.0 33.3 00 14 4618 0A2A Alarm State:  0
Fri Jun 22 02:34:54 PDT 2018 ON: 19.99 +20.0 19.56 - 1.9 34.0 00 14 4722 0923 Alarm State:  0
Fri Jun 22 02:33:52 PDT 2018 ON: 19.98 +20.0 19.66 - 3.7 33.5 00 14 470C 0926 Alarm State:  0
Fri Jun 22 02:32:51 PDT 2018 ON: 20.01 +20.0 19.69 - 4.0 33.2 0A 14 4721 0900 Alarm State:  0
Fri Jun 22 02:31:49 PDT 2018 ON: 20.01 +20.0 19.71 - 4.6 32.9 0D 13 471B 0924 Alarm State:  0
Fri Jun 22 02:30:48 PDT 2018 ON: 20.00 +20.0 19.62 - 2.9 33.7 00 14 4728 0910 Alarm State:  0
Fri Jun 22 02:29:46 PDT 2018 ON: 19.98 +20.0 19.66 - 3.3 33.8 05 14 471A 0913 Alarm State:  0
Fri Jun 22 02:28:45 PDT 2018 ON: 20.01 +20.0 19.71 - 4.3 33.1 0A 13 4717 0901 Alarm State:  0
Fri Jun 22 02:27:43 PDT 2018 ON: 20.02 +20.0 19.65 - 3.6 33.3 00 14 471B 091F Alarm State:  0
Fri Jun 22 02:26:42 PDT 2018 ON: 19.98 +20.0 19.64 - 3.2 34.0 05 14 470C 0919 Alarm State:  0
Fri Jun 22 02:25:40 PDT 2018 ON: 19.99 +20.0 19.68 - 3.4 33.9 0A 14 471A 0927 Alarm State:  0
Fri Jun 22 02:24:39 PDT 2018 ON: 20.00 +20.0 19.70 - 4.1 33.1 0D 13 470F 0923 Alarm State:  0
Fri Jun 22 02:23:37 PDT 2018 ON: 20.03 +20.0 19.67 - 4.0 33.1 00 14 471B 0906 Alarm State:  0
Fri Jun 22 02:22:36 PDT 2018 ON: 19.98 +20.0 19.63 - 2.7 34.0 00 14 4718 0902 Alarm State:  0
Fri Jun 22 02:21:34 PDT 2018 ON: 19.99 +20.0 19.66 - 3.3 33.9 02 14 470E 092E Alarm State:  0
Fri Jun 22 02:20:33 PDT 2018 ON: 20.01 +20.0 19.69 - 4.1 33.4 0D 14 4701 0926 Alarm State:  0
Fri Jun 22 02:19:31 PDT 2018 ON: 20.03 +20.0 19.72 - 5.0 32.6 0D 12 4606 090E Alarm State:  0
Fri Jun 22 02:18:30 PDT 2018 ON: 19.98 +20.0 19.61 - 2.5 34.1 07 14 4609 0924 Alarm State:  0
Fri Jun 22 02:17:28 PDT 2018 ON: 20.00 +20.0 19.68 - 4.1 33.2 05 14 4530 0A1F Alarm State:  0
Fri Jun 22 02:16:27 PDT 2018 ON: 20.00 +20.0 19.64 - 3.0 33.6 00 14 4705 091E Alarm State:  0
Fri Jun 22 02:15:25 PDT 2018 ON: 20.00 +20.0 19.62 - 2.5 34.1 02 14 471B 092F Alarm State:  0
Fri Jun 22 02:14:24 PDT 2018 ON: 19.99 +20.0 19.62 - 2.4 34.2 0C 14 480D 0907 Alarm State:  0
Fri Jun 22 02:13:22 PDT 2018 ON: 20.02 +20.0 19.67 - 4.0 33.1 02 14 4722 090C Alarm State:  0
Fri Jun 22 02:12:21 PDT 2018 ON: 20.04 +20.0 19.68 - 4.1 33.1 00 14 471B 0908 Alarm State:  0
Fri Jun 22 02:11:19 PDT 2018 ON: 20.00 +20.0 19.60 - 2.6 33.9 00 14 4719 0905 Alarm State:  0